<?xml version='1.0' encoding='utf-8'?>
<gpx xmlns="http://www.topografix.com/GPX/1/1" xmlns:xsi="http://www.w3.org/2001/XMLSchema-instance" version="v1.1.5" creator="iTravel Tech Inc. - http://www.itravel-tech.com" xsi:schemaLocation="http://www.topografix.com/GPX/1/1 http://www.topografix.com/GPX/1/1/gpx.xsd http://www.topografix.com/GPX/gpx_overlay/0/3 http://www.topografix.com/GPX/gpx_overlay/0/3/gpx_overlay.xsd http://www.topografix.com/GPX/gpx_modified/0/1 http://www.topografix.com/GPX/gpx_modified/0/1/gpx_modified.xsd">
<trk>
<name>Holux2011/04/28_04:59</name>
<trkseg>
<trkpt lat="22.235939" lon="104.475876">
<ele>83.8</ele>
<time>2011-04-28T01:59:24Z</time>
<desc>lat.=22.235939, lon.=104.475876, Alt.=71.614319m. Speed=0.396000m/h.</desc>
<speed>0.110000</speed>
</trkpt>
<trkpt lat="22.235991" lon="104.476288">
<ele>83.3</ele>
<time>2011-04-28T01:59:44Z</time>
<desc>lat.=22.235991, lon.=104.476288, Alt.=80.151428m. Speed=0.504000m/h.</desc>
<speed>0.140000</speed>
</trkpt>
<trkpt lat="22.235964" lon="104.476044">
<ele>82.9</ele>
<time>2011-04-28T02:00:14Z</time>
<desc>lat.=22.235964, lon.=104.476044, Alt.=78.139709m. Speed=3.852000m/h.</desc>
<speed>1.070000</speed>
</trkpt>
<trkpt lat="22.235552" lon="104.475731">
<ele>84.1</ele>
<time>2011-04-28T02:00:39Z</time>
<desc>lat.=22.235552, lon.=104.475731, Alt.=75.620178m. Speed=10.980000m/h.</desc>
<speed>3.050000</speed>
</trkpt>
<trkpt lat="22.235001" lon="104.476669">
<ele>87.4</ele>
<time>2011-04-28T02:01:49Z</time>
<desc>lat.=22.235001, lon.=104.476669, Alt.=84.940491m. Speed=1.116000m/h.</desc>
<speed>0.310000</speed>
</trkpt>
<trkpt lat="22.235052" lon="104.476913">
<ele>87.9</ele>
<time>2011-04-28T02:04:04Z</time>
<desc>lat.=22.235052, lon.=104.476913, Alt.=88.604553m. Speed=2.880000m/h.</desc>
<speed>0.800000</speed>
</trkpt>
<trkpt lat="22.234617" lon="104.476944">
<ele>89.0</ele>
<time>2011-04-28T02:05:49Z</time>
<desc>lat.=22.234617, lon.=104.476944, Alt.=81.411194m. Speed=1.260000m/h.</desc>
<speed>0.350000</speed>
</trkpt>
<trkpt lat="22.234657" lon="104.477135">
<ele>89.0</ele>
<time>2011-04-28T02:06:19Z</time>
<desc>lat.=22.234657, lon.=104.477135, Alt.=77.413147m. Speed=2.268000m/h.</desc>
<speed>0.630000</speed>
</trkpt>
<trkpt lat="22.234383" lon="104.476799">
<ele>89.2</ele>
<time>2011-04-28T02:07:39Z</time>
<desc>lat.=22.234383, lon.=104.476799, Alt.=81.807678m. Speed=10.548000m/h.</desc>
<speed>2.930000</speed>
</trkpt>
<trkpt lat="22.233376" lon="104.476303">
<ele>91.7</ele>
<time>2011-04-28T02:08:14Z</time>
<desc>lat.=22.233376, lon.=104.476303, Alt.=78.676819m. Speed=8.820000m/h.</desc>
<speed>2.450000</speed>
</trkpt>
<trkpt lat="22.232422" lon="104.476448">
<ele>91.0</ele>
<time>2011-04-28T02:08:44Z</time>
<desc>lat.=22.232422, lon.=104.476448, Alt.=71.286194m. Speed=8.172000m/h.</desc>
<speed>2.270000</speed>
</trkpt>
<trkpt lat="22.231441" lon="104.477737">
<ele>87.8</ele>
<time>2011-04-28T02:09:19Z</time>
<desc>lat.=22.231441, lon.=104.477737, Alt.=98.397522m. Speed=14.868000m/h.</desc>
<speed>4.130000</speed>
</trkpt>
<trkpt lat="22.229179" lon="104.479485">
<ele>86.8</ele>
<time>2011-04-28T02:10:09Z</time>
<desc>lat.=22.229179, lon.=104.479485, Alt.=104.010803m. Speed=13.176000m/h.</desc>
<speed>3.660000</speed>
</trkpt>
<trkpt lat="22.228552" lon="104.480438">
<ele>87.6</ele>
<time>2011-04-28T02:10:34Z</time>
<desc>lat.=22.228552, lon.=104.480438, Alt.=107.045959m. Speed=16.704000m/h.</desc>
<speed>4.640000</speed>
</trkpt>
<trkpt lat="22.227579" lon="104.481400">
<ele>87.6</ele>
<time>2011-04-28T02:10:59Z</time>
<desc>lat.=22.227579, lon.=104.481400, Alt.=102.727600m. Speed=9.792000m/h.</desc>
<speed>2.720000</speed>
</trkpt>
<trkpt lat="22.227230" lon="104.481926">
<ele>90.5</ele>
<time>2011-04-28T02:11:14Z</time>
<desc>lat.=22.227230, lon.=104.481926, Alt.=102.356506m. Speed=9.684000m/h.</desc>
<speed>2.690000</speed>
</trkpt>
<trkpt lat="22.226757" lon="104.483406">
<ele>100.8</ele>
<time>2011-04-28T02:11:49Z</time>
<desc>lat.=22.226757, lon.=104.483406, Alt.=122.497131m. Speed=13.608000m/h.</desc>
<speed>3.780000</speed>
</trkpt>
<trkpt lat="22.225359" lon="104.485001">
<ele>90.1</ele>
<time>2011-04-28T02:12:34Z</time>
<desc>lat.=22.225359, lon.=104.485001, Alt.=147.193481m. Speed=19.115999m/h.</desc>
<speed>5.310000</speed>
</trkpt>
<trkpt lat="22.224709" lon="104.485352">
<ele>83.3</ele>
<time>2011-04-28T02:12:44Z</time>
<desc>lat.=22.224709, lon.=104.485352, Alt.=149.341919m. Speed=25.704000m/h.</desc>
<speed>7.140000</speed>
</trkpt>
<trkpt lat="22.223661" lon="104.485580">
<ele>85.0</ele>
<time>2011-04-28T02:13:04Z</time>
<desc>lat.=22.223661, lon.=104.485580, Alt.=151.670044m. Speed=15.228000m/h.</desc>
<speed>4.230000</speed>
</trkpt>
<trkpt lat="22.222589" lon="104.486275">
<ele>81.1</ele>
<time>2011-04-28T02:13:29Z</time>
<desc>lat.=22.222589, lon.=104.486275, Alt.=147.173950m. Speed=16.020000m/h.</desc>
<speed>4.450000</speed>
</trkpt>
<trkpt lat="22.221342" lon="104.486465">
<ele>85.5</ele>
<time>2011-04-28T02:14:04Z</time>
<desc>lat.=22.221342, lon.=104.486465, Alt.=118.356506m. Speed=9.108000m/h.</desc>
<speed>2.530000</speed>
</trkpt>
<trkpt lat="22.220676" lon="104.486908">
<ele>84.4</ele>
<time>2011-04-28T02:14:24Z</time>
<desc>lat.=22.220676, lon.=104.486908, Alt.=106.713928m. Speed=17.639999m/h.</desc>
<speed>4.900000</speed>
</trkpt>
<trkpt lat="22.220406" lon="104.488060">
<ele>84.8</ele>
<time>2011-04-28T02:14:49Z</time>
<desc>lat.=22.220406, lon.=104.488060, Alt.=97.512756m. Speed=11.484000m/h.</desc>
<speed>3.190000</speed>
</trkpt>
<trkpt lat="22.220057" lon="104.488762">
<ele>85.6</ele>
<time>2011-04-28T02:15:09Z</time>
<desc>lat.=22.220057, lon.=104.488762, Alt.=96.680725m. Speed=12.024000m/h.</desc>
<speed>3.340000</speed>
</trkpt>
<trkpt lat="22.218985" lon="104.489609">
<ele>89.7</ele>
<time>2011-04-28T02:15:49Z</time>
<desc>lat.=22.218985, lon.=104.489609, Alt.=98.210022m. Speed=7.848000m/h.</desc>
<speed>2.180000</speed>
</trkpt>
<trkpt lat="22.218733" lon="104.490143">
<ele>89.5</ele>
<time>2011-04-28T02:16:04Z</time>
<desc>lat.=22.218733, lon.=104.490143, Alt.=98.657288m. Speed=11.916000m/h.</desc>
<speed>3.310000</speed>
</trkpt>
<trkpt lat="22.218842" lon="104.490677">
<ele>92.3</ele>
<time>2011-04-28T02:16:19Z</time>
<desc>lat.=22.218842, lon.=104.490677, Alt.=100.448303m. Speed=13.104000m/h.</desc>
<speed>3.640000</speed>
</trkpt>
<trkpt lat="22.219326" lon="104.491608">
<ele>106.8</ele>
<time>2011-04-28T02:16:54Z</time>
<desc>lat.=22.219326, lon.=104.491608, Alt.=105.424866m. Speed=7.956000m/h.</desc>
<speed>2.210000</speed>
</trkpt>
<trkpt lat="22.219597" lon="104.494400">
<ele>98.5</ele>
<time>2011-04-28T02:18:24Z</time>
<desc>lat.=22.219597, lon.=104.494400, Alt.=126.479553m. Speed=8.244000m/h.</desc>
<speed>2.290000</speed>
</trkpt>
<trkpt lat="22.219368" lon="104.495346">
<ele>98.1</ele>
<time>2011-04-28T02:18:49Z</time>
<desc>lat.=22.219368, lon.=104.495346, Alt.=135.869263m. Speed=13.932000m/h.</desc>
<speed>3.870000</speed>
</trkpt>
<trkpt lat="22.218651" lon="104.496758">
<ele>95.6</ele>
<time>2011-04-28T02:19:34Z</time>
<desc>lat.=22.218651, lon.=104.496758, Alt.=131.771606m. Speed=18.035999m/h.</desc>
<speed>5.010000</speed>
</trkpt>
<trkpt lat="22.217823" lon="104.497734">
<ele>88.6</ele>
<time>2011-04-28T02:19:54Z</time>
<desc>lat.=22.217823, lon.=104.497734, Alt.=117.542053m. Speed=27.431999m/h.</desc>
<speed>7.620000</speed>
</trkpt>
<trkpt lat="22.217197" lon="104.497971">
<ele>92.3</ele>
<time>2011-04-28T02:20:09Z</time>
<desc>lat.=22.217197, lon.=104.497971, Alt.=110.627991m. Speed=11.448000m/h.</desc>
<speed>3.180000</speed>
</trkpt>
<trkpt lat="22.216572" lon="104.498650">
<ele>92.7</ele>
<time>2011-04-28T02:21:14Z</time>
<desc>lat.=22.216572, lon.=104.498650, Alt.=105.600647m. Speed=6.912000m/h.</desc>
<speed>1.920000</speed>
</trkpt>
<trkpt lat="22.214697" lon="104.499802">
<ele>93.0</ele>
<time>2011-04-28T02:21:59Z</time>
<desc>lat.=22.214697, lon.=104.499802, Alt.=96.919006m. Speed=14.544000m/h.</desc>
<speed>4.040000</speed>
</trkpt>
<trkpt lat="22.214092" lon="104.500633">
<ele>95.2</ele>
<time>2011-04-28T02:22:24Z</time>
<desc>lat.=22.214092, lon.=104.500633, Alt.=94.186584m. Speed=17.351999m/h.</desc>
<speed>4.820000</speed>
</trkpt>
<trkpt lat="22.212397" lon="104.501884">
<ele>90.6</ele>
<time>2011-04-28T02:23:04Z</time>
<desc>lat.=22.212397, lon.=104.501884, Alt.=92.567444m. Speed=21.420000m/h.</desc>
<speed>5.950000</speed>
</trkpt>
<trkpt lat="22.211765" lon="104.502754">
<ele>92.4</ele>
<time>2011-04-28T02:23:24Z</time>
<desc>lat.=22.211765, lon.=104.502754, Alt.=90.544006m. Speed=17.784000m/h.</desc>
<speed>4.940000</speed>
</trkpt>
<trkpt lat="22.211008" lon="104.503242">
<ele>91.6</ele>
<time>2011-04-28T02:23:44Z</time>
<desc>lat.=22.211008, lon.=104.503242, Alt.=96.245178m. Speed=14.940000m/h.</desc>
<speed>4.150000</speed>
</trkpt>
<trkpt lat="22.210434" lon="104.504158">
<ele>89.9</ele>
<time>2011-04-28T02:24:09Z</time>
<desc>lat.=22.210434, lon.=104.504158, Alt.=106.379944m. Speed=9.684000m/h.</desc>
<speed>2.690000</speed>
</trkpt>
<trkpt lat="22.210340" lon="104.505577">
<ele>90.9</ele>
<time>2011-04-28T02:24:59Z</time>
<desc>lat.=22.210340, lon.=104.505577, Alt.=125.833069m. Speed=6.624000m/h.</desc>
<speed>1.840000</speed>
</trkpt>
<trkpt lat="22.210045" lon="104.506241">
<ele>97.1</ele>
<time>2011-04-28T02:25:19Z</time>
<desc>lat.=22.210045, lon.=104.506241, Alt.=127.737366m. Speed=16.920000m/h.</desc>
<speed>4.700000</speed>
</trkpt>
<trkpt lat="22.210114" lon="104.506691">
<ele>99.5</ele>
<time>2011-04-28T02:25:29Z</time>
<desc>lat.=22.210114, lon.=104.506691, Alt.=125.788147m. Speed=16.667999m/h.</desc>
<speed>4.630000</speed>
</trkpt>
<trkpt lat="22.210617" lon="104.507088">
<ele>98.4</ele>
<time>2011-04-28T02:25:44Z</time>
<desc>lat.=22.210617, lon.=104.507088, Alt.=122.129944m. Speed=17.639999m/h.</desc>
<speed>4.900000</speed>
</trkpt>
<trkpt lat="22.210800" lon="104.508194">
<ele>92.7</ele>
<time>2011-04-28T02:25:59Z</time>
<desc>lat.=22.210800, lon.=104.508194, Alt.=119.075256m. Speed=31.139999m/h.</desc>
<speed>8.650000</speed>
</trkpt>
<trkpt lat="22.210793" lon="104.509674">
<ele>78.1</ele>
<time>2011-04-28T02:26:14Z</time>
<desc>lat.=22.210793, lon.=104.509674, Alt.=110.879944m. Speed=29.591999m/h.</desc>
<speed>8.220000</speed>
</trkpt>
<trkpt lat="22.210594" lon="104.510857">
<ele>83.7</ele>
<time>2011-04-28T02:26:29Z</time>
<desc>lat.=22.210594, lon.=104.510857, Alt.=99.452209m. Speed=17.964001m/h.</desc>
<speed>4.990000</speed>
</trkpt>
<trkpt lat="22.210148" lon="104.511993">
<ele>95.3</ele>
<time>2011-04-28T02:26:54Z</time>
<desc>lat.=22.210148, lon.=104.511993, Alt.=99.141663m. Speed=14.076000m/h.</desc>
<speed>3.910000</speed>
</trkpt>
<trkpt lat="22.210844" lon="104.512794">
<ele>106.1</ele>
<time>2011-04-28T02:27:14Z</time>
<desc>lat.=22.210844, lon.=104.512794, Alt.=101.874084m. Speed=16.452000m/h.</desc>
<speed>4.570000</speed>
</trkpt>
<trkpt lat="22.211088" lon="104.512856">
<ele>99.9</ele>
<time>2011-04-28T02:27:19Z</time>
<desc>lat.=22.211088, lon.=104.512856, Alt.=102.600647m. Speed=16.992001m/h.</desc>
<speed>4.720000</speed>
</trkpt>
<trkpt lat="22.211582" lon="104.512749">
<ele>92.3</ele>
<time>2011-04-28T02:27:29Z</time>
<desc>lat.=22.211582, lon.=104.512749, Alt.=103.241272m. Speed=17.459999m/h.</desc>
<speed>4.850000</speed>
</trkpt>
<trkpt lat="22.212524" lon="104.512238">
<ele>93.0</ele>
<time>2011-04-28T02:27:49Z</time>
<desc>lat.=22.212524, lon.=104.512238, Alt.=105.231506m. Speed=9.792000m/h.</desc>
<speed>2.720000</speed>
</trkpt>
<trkpt lat="22.212761" lon="104.512436">
<ele>99.6</ele>
<time>2011-04-28T02:27:59Z</time>
<desc>lat.=22.212761, lon.=104.512436, Alt.=103.731506m. Speed=8.784000m/h.</desc>
<speed>2.440000</speed>
</trkpt>
<trkpt lat="22.212824" lon="104.514450">
<ele>110.3</ele>
<time>2011-04-28T02:29:54Z</time>
<desc>lat.=22.212824, lon.=104.514450, Alt.=105.419006m. Speed=7.668000m/h.</desc>
<speed>2.130000</speed>
</trkpt>
<trkpt lat="22.213074" lon="104.515663">
<ele>98.7</ele>
<time>2011-04-28T02:30:19Z</time>
<desc>lat.=22.213074, lon.=104.515663, Alt.=99.499084m. Speed=24.408001m/h.</desc>
<speed>6.780000</speed>
</trkpt>
<trkpt lat="22.212971" lon="104.516815">
<ele>85.4</ele>
<time>2011-04-28T02:30:34Z</time>
<desc>lat.=22.212971, lon.=104.516815, Alt.=90.545959m. Speed=15.876000m/h.</desc>
<speed>4.410000</speed>
</trkpt>
<trkpt lat="22.212118" lon="104.518753">
<ele>90.6</ele>
<time>2011-04-28T02:31:14Z</time>
<desc>lat.=22.212118, lon.=104.518753, Alt.=80.063538m. Speed=9.324000m/h.</desc>
<speed>2.590000</speed>
</trkpt>
<trkpt lat="22.212067" lon="104.519470">
<ele>94.6</ele>
<time>2011-04-28T02:33:24Z</time>
<desc>lat.=22.212067, lon.=104.519470, Alt.=78.549866m. Speed=0.144000m/h.</desc>
<speed>0.040000</speed>
</trkpt>
<trkpt lat="22.211994" lon="104.519348">
<ele>98.3</ele>
<time>2011-04-28T02:34:54Z</time>
<desc>lat.=22.211994, lon.=104.519348, Alt.=78.747131m. Speed=1.548000m/h.</desc>
<speed>0.430000</speed>
</trkpt>
<trkpt lat="22.212049" lon="104.520027">
<ele>86.1</ele>
<time>2011-04-28T02:35:29Z</time>
<desc>lat.=22.212049, lon.=104.520027, Alt.=71.122131m. Speed=16.091999m/h.</desc>
<speed>4.470000</speed>
</trkpt>
<trkpt lat="22.211735" lon="104.521271">
<ele>93.2</ele>
<time>2011-04-28T02:35:49Z</time>
<desc>lat.=22.211735, lon.=104.521271, Alt.=67.477600m. Speed=14.868000m/h.</desc>
<speed>4.130000</speed>
</trkpt>
<trkpt lat="22.210625" lon="104.524200">
<ele>81.7</ele>
<time>2011-04-28T02:36:49Z</time>
<desc>lat.=22.210625, lon.=104.524200, Alt.=90.360413m. Speed=21.455999m/h.</desc>
<speed>5.960000</speed>
</trkpt>
<trkpt lat="22.209799" lon="104.525040">
<ele>84.4</ele>
<time>2011-04-28T02:37:24Z</time>
<desc>lat.=22.209799, lon.=104.525040, Alt.=87.217834m. Speed=0.288000m/h.</desc>
<speed>0.080000</speed>
</trkpt>
<trkpt lat="22.209879" lon="104.525131">
<ele>82.4</ele>
<time>2011-04-28T02:40:34Z</time>
<desc>lat.=22.209879, lon.=104.525131, Alt.=83.641663m. Speed=0.036000m/h.</desc>
<speed>0.010000</speed>
</trkpt>
<trkpt lat="22.209671" lon="104.525078">
<ele>84.8</ele>
<time>2011-04-28T02:41:44Z</time>
<desc>lat.=22.209671, lon.=104.525078, Alt.=84.366272m. Speed=0.468000m/h.</desc>
<speed>0.130000</speed>
</trkpt>
<trkpt lat="22.208904" lon="104.525589">
<ele>79.9</ele>
<time>2011-04-28T02:43:14Z</time>
<desc>lat.=22.208904, lon.=104.525589, Alt.=70.233459m. Speed=15.768000m/h.</desc>
<speed>4.380000</speed>
</trkpt>
<trkpt lat="22.207659" lon="104.526627">
<ele>81.1</ele>
<time>2011-04-28T02:43:39Z</time>
<desc>lat.=22.207659, lon.=104.526627, Alt.=70.450256m. Speed=20.664000m/h.</desc>
<speed>5.740000</speed>
</trkpt>
<trkpt lat="22.205692" lon="104.529549">
<ele>83.4</ele>
<time>2011-04-28T02:44:44Z</time>
<desc>lat.=22.205692, lon.=104.529549, Alt.=76.786194m. Speed=24.228001m/h.</desc>
<speed>6.730000</speed>
</trkpt>
<trkpt lat="22.204544" lon="104.532043">
<ele>94.0</ele>
<time>2011-04-28T02:46:39Z</time>
<desc>lat.=22.204544, lon.=104.532043, Alt.=89.249084m. Speed=6.624000m/h.</desc>
<speed>1.840000</speed>
</trkpt>
<trkpt lat="22.204184" lon="104.532288">
<ele>85.0</ele>
<time>2011-04-28T02:46:54Z</time>
<desc>lat.=22.204184, lon.=104.532288, Alt.=84.739319m. Speed=13.644000m/h.</desc>
<speed>3.790000</speed>
</trkpt>
<trkpt lat="22.203745" lon="104.532318">
<ele>83.3</ele>
<time>2011-04-28T02:47:04Z</time>
<desc>lat.=22.203745, lon.=104.532318, Alt.=84.004944m. Speed=17.496000m/h.</desc>
<speed>4.860000</speed>
</trkpt>
<trkpt lat="22.203468" lon="104.532631">
<ele>82.3</ele>
<time>2011-04-28T02:47:14Z</time>
<desc>lat.=22.203468, lon.=104.532631, Alt.=81.405334m. Speed=13.824000m/h.</desc>
<speed>3.840000</speed>
</trkpt>
<trkpt lat="22.203411" lon="104.533058">
<ele>88.6</ele>
<time>2011-04-28T02:47:24Z</time>
<desc>lat.=22.203411, lon.=104.533058, Alt.=70.340881m. Speed=12.888000m/h.</desc>
<speed>3.580000</speed>
</trkpt>
<trkpt lat="22.203720" lon="104.533783">
<ele>88.9</ele>
<time>2011-04-28T02:47:44Z</time>
<desc>lat.=22.203720, lon.=104.533783, Alt.=79.745178m. Speed=15.660000m/h.</desc>
<speed>4.350000</speed>
</trkpt>
<trkpt lat="22.203659" lon="104.534416">
<ele>89.6</ele>
<time>2011-04-28T02:48:44Z</time>
<desc>lat.=22.203659, lon.=104.534416, Alt.=92.600647m. Speed=14.328000m/h.</desc>
<speed>3.980000</speed>
</trkpt>
<trkpt lat="22.202560" lon="104.536629">
<ele>82.7</ele>
<time>2011-04-28T02:49:29Z</time>
<desc>lat.=22.202560, lon.=104.536629, Alt.=83.504944m. Speed=13.104000m/h.</desc>
<speed>3.640000</speed>
</trkpt>
<trkpt lat="22.201229" lon="104.538223">
<ele>85.0</ele>
<time>2011-04-28T02:50:09Z</time>
<desc>lat.=22.201229, lon.=104.538223, Alt.=84.772522m. Speed=20.628000m/h.</desc>
<speed>5.730000</speed>
</trkpt>
<trkpt lat="22.200697" lon="104.539848">
<ele>81.5</ele>
<time>2011-04-28T02:50:39Z</time>
<desc>lat.=22.200697, lon.=104.539848, Alt.=87.040100m. Speed=13.392000m/h.</desc>
<speed>3.720000</speed>
</trkpt>
<trkpt lat="22.200220" lon="104.540733">
<ele>89.1</ele>
<time>2011-04-28T02:50:59Z</time>
<desc>lat.=22.200220, lon.=104.540733, Alt.=83.782288m. Speed=22.788000m/h.</desc>
<speed>6.330000</speed>
</trkpt>
<trkpt lat="22.200163" lon="104.542809">
<ele>88.0</ele>
<time>2011-04-28T02:51:34Z</time>
<desc>lat.=22.200163, lon.=104.542809, Alt.=84.934631m. Speed=16.596001m/h.</desc>
<speed>4.610000</speed>
</trkpt>
<trkpt lat="22.199837" lon="104.543144">
<ele>88.9</ele>
<time>2011-04-28T02:51:44Z</time>
<desc>lat.=22.199837, lon.=104.543144, Alt.=79.975647m. Speed=10.548000m/h.</desc>
<speed>2.930000</speed>
</trkpt>
<trkpt lat="22.199350" lon="104.543274">
<ele>76.5</ele>
<time>2011-04-28T02:51:59Z</time>
<desc>lat.=22.199350, lon.=104.543274, Alt.=82.856506m. Speed=13.464000m/h.</desc>
<speed>3.740000</speed>
</trkpt>
<trkpt lat="22.199093" lon="104.543724">
<ele>75.0</ele>
<time>2011-04-28T02:52:09Z</time>
<desc>lat.=22.199093, lon.=104.543724, Alt.=78.034241m. Speed=14.940000m/h.</desc>
<speed>4.150000</speed>
</trkpt>
<trkpt lat="22.199060" lon="104.543915">
<ele>78.7</ele>
<time>2011-04-28T02:52:14Z</time>
<desc>lat.=22.199060, lon.=104.543915, Alt.=76.821350m. Speed=11.556000m/h.</desc>
<speed>3.210000</speed>
</trkpt>
<trkpt lat="22.199532" lon="104.544464">
<ele>81.5</ele>
<time>2011-04-28T02:52:34Z</time>
<desc>lat.=22.199532, lon.=104.544464, Alt.=77.823303m. Speed=14.688000m/h.</desc>
<speed>4.080000</speed>
</trkpt>
<trkpt lat="22.199400" lon="104.545044">
<ele>82.0</ele>
<time>2011-04-28T02:52:49Z</time>
<desc>lat.=22.199400, lon.=104.545044, Alt.=79.797913m. Speed=14.976000m/h.</desc>
<speed>4.160000</speed>
</trkpt>
<trkpt lat="22.199440" lon="104.546700">
<ele>84.3</ele>
<time>2011-04-28T02:53:24Z</time>
<desc>lat.=22.199440, lon.=104.546700, Alt.=83.426819m. Speed=16.704000m/h.</desc>
<speed>4.640000</speed>
</trkpt>
<trkpt lat="22.199814" lon="104.549164">
<ele>100.7</ele>
<time>2011-04-28T02:54:24Z</time>
<desc>lat.=22.199814, lon.=104.549164, Alt.=82.917053m. Speed=13.212000m/h.</desc>
<speed>3.670000</speed>
</trkpt>
<trkpt lat="22.200445" lon="104.550133">
<ele>87.6</ele>
<time>2011-04-28T02:54:44Z</time>
<desc>lat.=22.200445, lon.=104.550133, Alt.=82.647522m. Speed=24.048000m/h.</desc>
<speed>6.680000</speed>
</trkpt>
<trkpt lat="22.200054" lon="104.551712">
<ele>75.5</ele>
<time>2011-04-28T02:55:14Z</time>
<desc>lat.=22.200054, lon.=104.551712, Alt.=86.387756m. Speed=20.016001m/h.</desc>
<speed>5.560000</speed>
</trkpt>
<trkpt lat="22.199345" lon="104.552490">
<ele>75.8</ele>
<time>2011-04-28T02:55:34Z</time>
<desc>lat.=22.199345, lon.=104.552490, Alt.=87.167053m. Speed=13.824000m/h.</desc>
<speed>3.840000</speed>
</trkpt>
<trkpt lat="22.199062" lon="104.553078">
<ele>75.3</ele>
<time>2011-04-28T02:55:49Z</time>
<desc>lat.=22.199062, lon.=104.553078, Alt.=89.440491m. Speed=11.772000m/h.</desc>
<speed>3.270000</speed>
</trkpt>
<trkpt lat="22.198656" lon="104.553329">
<ele>75.9</ele>
<time>2011-04-28T02:55:59Z</time>
<desc>lat.=22.198656, lon.=104.553329, Alt.=90.600647m. Speed=17.316000m/h.</desc>
<speed>4.810000</speed>
</trkpt>
<trkpt lat="22.197552" lon="104.555214">
<ele>75.9</ele>
<time>2011-04-28T02:56:44Z</time>
<desc>lat.=22.197552, lon.=104.555214, Alt.=92.864319m. Speed=16.344000m/h.</desc>
<speed>4.540000</speed>
</trkpt>
<trkpt lat="22.197487" lon="104.556061">
<ele>78.4</ele>
<time>2011-04-28T02:57:09Z</time>
<desc>lat.=22.197487, lon.=104.556061, Alt.=96.993225m. Speed=7.992000m/h.</desc>
<speed>2.220000</speed>
</trkpt>
<trkpt lat="22.196917" lon="104.557037">
<ele>79.1</ele>
<time>2011-04-28T02:57:39Z</time>
<desc>lat.=22.196917, lon.=104.557037, Alt.=99.475647m. Speed=19.872000m/h.</desc>
<speed>5.520000</speed>
</trkpt>
<trkpt lat="22.196573" lon="104.558685">
<ele>73.3</ele>
<time>2011-04-28T02:58:09Z</time>
<desc>lat.=22.196573, lon.=104.558685, Alt.=98.497131m. Speed=15.336000m/h.</desc>
<speed>4.260000</speed>
</trkpt>
<trkpt lat="22.195662" lon="104.560013">
<ele>85.8</ele>
<time>2011-04-28T02:58:39Z</time>
<desc>lat.=22.195662, lon.=104.560013, Alt.=81.948303m. Speed=16.344000m/h.</desc>
<speed>4.540000</speed>
</trkpt>
<trkpt lat="22.195717" lon="104.561249">
<ele>85.8</ele>
<time>2011-04-28T02:59:09Z</time>
<desc>lat.=22.195717, lon.=104.561249, Alt.=83.663147m. Speed=10.620000m/h.</desc>
<speed>2.950000</speed>
</trkpt>
<trkpt lat="22.194319" lon="104.563217">
<ele>98.3</ele>
<time>2011-04-28T03:01:44Z</time>
<desc>lat.=22.194319, lon.=104.563217, Alt.=106.944397m. Speed=5.832000m/h.</desc>
<speed>1.620000</speed>
</trkpt>
<trkpt lat="22.193960" lon="104.564018">
<ele>96.7</ele>
<time>2011-04-28T03:02:09Z</time>
<desc>lat.=22.193960, lon.=104.564018, Alt.=109.481506m. Speed=20.808001m/h.</desc>
<speed>5.780000</speed>
</trkpt>
<trkpt lat="22.193018" lon="104.565269">
<ele>86.4</ele>
<time>2011-04-28T03:02:34Z</time>
<desc>lat.=22.193018, lon.=104.565269, Alt.=92.180725m. Speed=15.768000m/h.</desc>
<speed>4.380000</speed>
</trkpt>
<trkpt lat="22.191944" lon="104.565140">
<ele>89.6</ele>
<time>2011-04-28T03:02:54Z</time>
<desc>lat.=22.191944, lon.=104.565140, Alt.=87.456116m. Speed=21.059999m/h.</desc>
<speed>5.850000</speed>
</trkpt>
<trkpt lat="22.191717" lon="104.565300">
<ele>81.0</ele>
<time>2011-04-28T03:02:59Z</time>
<desc>lat.=22.191717, lon.=104.565300, Alt.=86.290100m. Speed=18.035999m/h.</desc>
<speed>5.010000</speed>
</trkpt>
<trkpt lat="22.191277" lon="104.566399">
<ele>76.3</ele>
<time>2011-04-28T03:03:14Z</time>
<desc>lat.=22.191277, lon.=104.566399, Alt.=84.411194m. Speed=17.028000m/h.</desc>
<speed>4.730000</speed>
</trkpt>
<trkpt lat="22.190250" lon="104.567139">
<ele>75.9</ele>
<time>2011-04-28T03:03:39Z</time>
<desc>lat.=22.190250, lon.=104.567139, Alt.=84.514709m. Speed=15.120000m/h.</desc>
<speed>4.200000</speed>
</trkpt>
<trkpt lat="22.189568" lon="104.568314">
<ele>78.2</ele>
<time>2011-04-28T03:04:44Z</time>
<desc>lat.=22.189568, lon.=104.568314, Alt.=83.030334m. Speed=1.440000m/h.</desc>
<speed>0.400000</speed>
</trkpt>
<trkpt lat="22.189203" lon="104.569801">
<ele>75.0</ele>
<time>2011-04-28T03:05:24Z</time>
<desc>lat.=22.189203, lon.=104.569801, Alt.=81.264709m. Speed=14.400000m/h.</desc>
<speed>4.000000</speed>
</trkpt>
<trkpt lat="22.188110" lon="104.571602">
<ele>76.6</ele>
<time>2011-04-28T03:06:14Z</time>
<desc>lat.=22.188110, lon.=104.571602, Alt.=65.399475m. Speed=15.228000m/h.</desc>
<speed>4.230000</speed>
</trkpt>
<trkpt lat="22.187086" lon="104.572533">
<ele>78.6</ele>
<time>2011-04-28T03:06:44Z</time>
<desc>lat.=22.187086, lon.=104.572533, Alt.=62.947784m. Speed=17.532000m/h.</desc>
<speed>4.870000</speed>
</trkpt>
<trkpt lat="22.186672" lon="104.573257">
<ele>84.1</ele>
<time>2011-04-28T03:07:09Z</time>
<desc>lat.=22.186672, lon.=104.573257, Alt.=59.418488m. Speed=11.304000m/h.</desc>
<speed>3.140000</speed>
</trkpt>
<trkpt lat="22.185114" lon="104.574516">
<ele>89.5</ele>
<time>2011-04-28T03:08:14Z</time>
<desc>lat.=22.185114, lon.=104.574516, Alt.=76.196350m. Speed=13.716000m/h.</desc>
<speed>3.810000</speed>
</trkpt>
<trkpt lat="22.183214" lon="104.577599">
<ele>89.2</ele>
<time>2011-04-28T03:09:29Z</time>
<desc>lat.=22.183214, lon.=104.577599, Alt.=96.383850m. Speed=19.872000m/h.</desc>
<speed>5.520000</speed>
</trkpt>
<trkpt lat="22.181938" lon="104.579124">
<ele>90.0</ele>
<time>2011-04-28T03:10:29Z</time>
<desc>lat.=22.181938, lon.=104.579124, Alt.=95.288147m. Speed=26.639999m/h.</desc>
<speed>7.400000</speed>
</trkpt>
<trkpt lat="22.181347" lon="104.580582">
<ele>81.2</ele>
<time>2011-04-28T03:10:49Z</time>
<desc>lat.=22.181347, lon.=104.580582, Alt.=83.993225m. Speed=18.576000m/h.</desc>
<speed>5.160000</speed>
</trkpt>
<trkpt lat="22.180630" lon="104.580711">
<ele>83.3</ele>
<time>2011-04-28T03:11:04Z</time>
<desc>lat.=22.180630, lon.=104.580711, Alt.=77.497131m. Speed=18.431999m/h.</desc>
<speed>5.120000</speed>
</trkpt>
<trkpt lat="22.180296" lon="104.581772">
<ele>78.3</ele>
<time>2011-04-28T03:11:24Z</time>
<desc>lat.=22.180296, lon.=104.581772, Alt.=72.932678m. Speed=11.160000m/h.</desc>
<speed>3.100000</speed>
</trkpt>
<trkpt lat="22.179518" lon="104.582298">
<ele>79.3</ele>
<time>2011-04-28T03:11:49Z</time>
<desc>lat.=22.179518, lon.=104.582298, Alt.=75.569397m. Speed=15.912000m/h.</desc>
<speed>4.420000</speed>
</trkpt>
<trkpt lat="22.178303" lon="104.583633">
<ele>82.7</ele>
<time>2011-04-28T03:12:19Z</time>
<desc>lat.=22.178303, lon.=104.583633, Alt.=73.231506m. Speed=18.035999m/h.</desc>
<speed>5.010000</speed>
</trkpt>
<trkpt lat="22.178093" lon="104.583740">
<ele>77.8</ele>
<time>2011-04-28T03:12:24Z</time>
<desc>lat.=22.178093, lon.=104.583740, Alt.=72.213928m. Speed=13.356000m/h.</desc>
<speed>3.710000</speed>
</trkpt>
<trkpt lat="22.177624" lon="104.583542">
<ele>75.0</ele>
<time>2011-04-28T03:12:39Z</time>
<desc>lat.=22.177624, lon.=104.583542, Alt.=71.635803m. Speed=11.628000m/h.</desc>
<speed>3.230000</speed>
</trkpt>
<trkpt lat="22.177431" lon="104.583626">
<ele>76.2</ele>
<time>2011-04-28T03:14:39Z</time>
<desc>lat.=22.177431, lon.=104.583626, Alt.=74.536194m. Speed=1.476000m/h.</desc>
<speed>0.410000</speed>
</trkpt>
<trkpt lat="22.177263" lon="104.583931">
<ele>86.0</ele>
<time>2011-04-28T03:14:54Z</time>
<desc>lat.=22.177263, lon.=104.583931, Alt.=75.497131m. Speed=8.892000m/h.</desc>
<speed>2.470000</speed>
</trkpt>
<trkpt lat="22.177282" lon="104.584511">
<ele>80.1</ele>
<time>2011-04-28T03:15:14Z</time>
<desc>lat.=22.177282, lon.=104.584511, Alt.=72.858459m. Speed=7.272000m/h.</desc>
<speed>2.020000</speed>
</trkpt>
<trkpt lat="22.176641" lon="104.585373">
<ele>82.5</ele>
<time>2011-04-28T03:16:04Z</time>
<desc>lat.=22.176641, lon.=104.585373, Alt.=73.585022m. Speed=6.228000m/h.</desc>
<speed>1.730000</speed>
</trkpt>
<trkpt lat="22.176950" lon="104.586273">
<ele>79.3</ele>
<time>2011-04-28T03:16:19Z</time>
<desc>lat.=22.176950, lon.=104.586273, Alt.=72.325256m. Speed=27.612000m/h.</desc>
<speed>7.670000</speed>
</trkpt>
<trkpt lat="22.176868" lon="104.587036">
<ele>75.5</ele>
<time>2011-04-28T03:16:29Z</time>
<desc>lat.=22.176868, lon.=104.587036, Alt.=69.590881m. Speed=22.284000m/h.</desc>
<speed>6.190000</speed>
</trkpt>
<trkpt lat="22.175695" lon="104.588882">
<ele>70.8</ele>
<time>2011-04-28T03:17:19Z</time>
<desc>lat.=22.175695, lon.=104.588882, Alt.=70.883850m. Speed=12.636000m/h.</desc>
<speed>3.510000</speed>
</trkpt>
<trkpt lat="22.175632" lon="104.589668">
<ele>71.2</ele>
<time>2011-04-28T03:17:39Z</time>
<desc>lat.=22.175632, lon.=104.589668, Alt.=72.563538m. Speed=10.836000m/h.</desc>
<speed>3.010000</speed>
</trkpt>
<trkpt lat="22.175430" lon="104.589874">
<ele>78.3</ele>
<time>2011-04-28T03:17:49Z</time>
<desc>lat.=22.175430, lon.=104.589874, Alt.=75.077209m. Speed=11.916000m/h.</desc>
<speed>3.310000</speed>
</trkpt>
<trkpt lat="22.175072" lon="104.589874">
<ele>76.4</ele>
<time>2011-04-28T03:17:59Z</time>
<desc>lat.=22.175072, lon.=104.589874, Alt.=78.086975m. Speed=8.712000m/h.</desc>
<speed>2.420000</speed>
</trkpt>
<trkpt lat="22.174732" lon="104.590492">
<ele>75.2</ele>
<time>2011-04-28T03:18:19Z</time>
<desc>lat.=22.174732, lon.=104.590492, Alt.=77.381897m. Speed=10.872000m/h.</desc>
<speed>3.020000</speed>
</trkpt>
<trkpt lat="22.173698" lon="104.591171">
<ele>81.5</ele>
<time>2011-04-28T03:19:19Z</time>
<desc>lat.=22.173698, lon.=104.591171, Alt.=84.780334m. Speed=8.172000m/h.</desc>
<speed>2.270000</speed>
</trkpt>
<trkpt lat="22.173132" lon="104.592346">
<ele>81.0</ele>
<time>2011-04-28T03:19:49Z</time>
<desc>lat.=22.173132, lon.=104.592346, Alt.=80.991272m. Speed=19.332001m/h.</desc>
<speed>5.370000</speed>
</trkpt>
<trkpt lat="22.171991" lon="104.593529">
<ele>82.1</ele>
<time>2011-04-28T03:20:29Z</time>
<desc>lat.=22.171991, lon.=104.593529, Alt.=83.479553m. Speed=9.756000m/h.</desc>
<speed>2.710000</speed>
</trkpt>
<trkpt lat="22.170828" lon="104.595573">
<ele>81.8</ele>
<time>2011-04-28T03:21:19Z</time>
<desc>lat.=22.170828, lon.=104.595573, Alt.=81.079163m. Speed=10.764000m/h.</desc>
<speed>2.990000</speed>
</trkpt>
<trkpt lat="22.170816" lon="104.596703">
<ele>83.8</ele>
<time>2011-04-28T03:30:54Z</time>
<desc>lat.=22.170816, lon.=104.596703, Alt.=85.083069m. Speed=17.243999m/h.</desc>
<speed>4.790000</speed>
</trkpt>
<trkpt lat="22.170677" lon="104.596924">
<ele>84.1</ele>
<time>2011-04-28T03:30:59Z</time>
<desc>lat.=22.170677, lon.=104.596924, Alt.=84.079163m. Speed=20.160000m/h.</desc>
<speed>5.600000</speed>
</trkpt>
<trkpt lat="22.170191" lon="104.596954">
<ele>85.3</ele>
<time>2011-04-28T03:31:09Z</time>
<desc>lat.=22.170191, lon.=104.596954, Alt.=82.315491m. Speed=16.128000m/h.</desc>
<speed>4.480000</speed>
</trkpt>
<trkpt lat="22.169821" lon="104.597153">
<ele>85.3</ele>
<time>2011-04-28T03:31:19Z</time>
<desc>lat.=22.169821, lon.=104.597153, Alt.=79.440491m. Speed=11.124000m/h.</desc>
<speed>3.090000</speed>
</trkpt>
<trkpt lat="22.169947" lon="104.597580">
<ele>87.2</ele>
<time>2011-04-28T03:31:34Z</time>
<desc>lat.=22.169947, lon.=104.597580, Alt.=80.018616m. Speed=8.964000m/h.</desc>
<speed>2.490000</speed>
</trkpt>
<trkpt lat="22.169800" lon="104.598030">
<ele>88.0</ele>
<time>2011-04-28T03:31:44Z</time>
<desc>lat.=22.169800, lon.=104.598030, Alt.=79.989319m. Speed=17.424000m/h.</desc>
<speed>4.840000</speed>
</trkpt>
<trkpt lat="22.168997" lon="104.599518">
<ele>96.1</ele>
<time>2011-04-28T03:32:19Z</time>
<desc>lat.=22.168997, lon.=104.599518, Alt.=81.081116m. Speed=15.156000m/h.</desc>
<speed>4.210000</speed>
</trkpt>
<trkpt lat="22.168707" lon="104.599785">
<ele>101.2</ele>
<time>2011-04-28T03:32:29Z</time>
<desc>lat.=22.168707, lon.=104.599785, Alt.=80.944397m. Speed=13.896000m/h.</desc>
<speed>3.860000</speed>
</trkpt>
<trkpt lat="22.168310" lon="104.599785">
<ele>94.7</ele>
<time>2011-04-28T03:33:04Z</time>
<desc>lat.=22.168310, lon.=104.599785, Alt.=80.590881m. Speed=12.636000m/h.</desc>
<speed>3.510000</speed>
</trkpt>
<trkpt lat="22.167467" lon="104.600273">
<ele>90.7</ele>
<time>2011-04-28T03:33:24Z</time>
<desc>lat.=22.167467, lon.=104.600273, Alt.=79.344788m. Speed=15.840000m/h.</desc>
<speed>4.400000</speed>
</trkpt>
<trkpt lat="22.165150" lon="104.601219">
<ele>97.3</ele>
<time>2011-04-28T03:34:29Z</time>
<desc>lat.=22.165150, lon.=104.601219, Alt.=89.366272m. Speed=9.972000m/h.</desc>
<speed>2.770000</speed>
</trkpt>
<trkpt lat="22.164682" lon="104.602081">
<ele>99.3</ele>
<time>2011-04-28T03:35:04Z</time>
<desc>lat.=22.164682, lon.=104.602081, Alt.=95.827209m. Speed=9.252000m/h.</desc>
<speed>2.570000</speed>
</trkpt>
<trkpt lat="22.165289" lon="104.603806">
<ele>99.6</ele>
<time>2011-04-28T03:35:54Z</time>
<desc>lat.=22.165289, lon.=104.603806, Alt.=104.756897m. Speed=23.400000m/h.</desc>
<speed>6.500000</speed>
</trkpt>
<trkpt lat="22.165098" lon="104.604317">
<ele>104.2</ele>
<time>2011-04-28T03:36:04Z</time>
<desc>lat.=22.165098, lon.=104.604317, Alt.=104.141663m. Speed=17.892000m/h.</desc>
<speed>4.970000</speed>
</trkpt>
<trkpt lat="22.164570" lon="104.604805">
<ele>102.2</ele>
<time>2011-04-28T03:36:19Z</time>
<desc>lat.=22.164570, lon.=104.604805, Alt.=105.772522m. Speed=16.452000m/h.</desc>
<speed>4.570000</speed>
</trkpt>
<trkpt lat="22.164165" lon="104.605568">
<ele>116.5</ele>
<time>2011-04-28T03:36:39Z</time>
<desc>lat.=22.164165, lon.=104.605568, Alt.=106.059631m. Speed=11.988000m/h.</desc>
<speed>3.330000</speed>
</trkpt>
<trkpt lat="22.163900" lon="104.605690">
<ele>123.4</ele>
<time>2011-04-28T03:36:49Z</time>
<desc>lat.=22.163900, lon.=104.605690, Alt.=107.006897m. Speed=7.632000m/h.</desc>
<speed>2.120000</speed>
</trkpt>
<trkpt lat="22.162746" lon="104.605515">
<ele>108.1</ele>
<time>2011-04-28T03:37:19Z</time>
<desc>lat.=22.162746, lon.=104.605515, Alt.=108.081116m. Speed=14.508000m/h.</desc>
<speed>4.030000</speed>
</trkpt>
<trkpt lat="22.160490" lon="104.606682">
<ele>115.8</ele>
<time>2011-04-28T03:38:14Z</time>
<desc>lat.=22.160490, lon.=104.606682, Alt.=110.456116m. Speed=9.720000m/h.</desc>
<speed>2.700000</speed>
</trkpt>
<trkpt lat="22.160213" lon="104.607094">
<ele>112.8</ele>
<time>2011-04-28T03:38:44Z</time>
<desc>lat.=22.160213, lon.=104.607094, Alt.=117.225647m. Speed=4.428000m/h.</desc>
<speed>1.230000</speed>
</trkpt>
<trkpt lat="22.160185" lon="104.607796">
<ele>117.2</ele>
<time>2011-04-28T03:39:19Z</time>
<desc>lat.=22.160185, lon.=104.607796, Alt.=114.067444m. Speed=7.560000m/h.</desc>
<speed>2.100000</speed>
</trkpt>
<trkpt lat="22.159531" lon="104.608040">
<ele>121.5</ele>
<time>2011-04-28T03:39:54Z</time>
<desc>lat.=22.159531, lon.=104.608040, Alt.=115.782288m. Speed=6.840000m/h.</desc>
<speed>1.900000</speed>
</trkpt>
<trkpt lat="22.158422" lon="104.608795">
<ele>122.1</ele>
<time>2011-04-28T03:40:54Z</time>
<desc>lat.=22.158422, lon.=104.608795, Alt.=131.162231m. Speed=7.236000m/h.</desc>
<speed>2.010000</speed>
</trkpt>
<trkpt lat="22.158215" lon="104.609543">
<ele>123.9</ele>
<time>2011-04-28T03:41:24Z</time>
<desc>lat.=22.158215, lon.=104.609543, Alt.=125.395569m. Speed=11.340000m/h.</desc>
<speed>3.150000</speed>
</trkpt>
<trkpt lat="22.157639" lon="104.609962">
<ele>124.6</ele>
<time>2011-04-28T03:41:54Z</time>
<desc>lat.=22.157639, lon.=104.609962, Alt.=124.432678m. Speed=8.964000m/h.</desc>
<speed>2.490000</speed>
</trkpt>
<trkpt lat="22.157223" lon="104.610489">
<ele>134.6</ele>
<time>2011-04-28T03:42:44Z</time>
<desc>lat.=22.157223, lon.=104.610489, Alt.=126.633850m. Speed=0.216000m/h.</desc>
<speed>0.060000</speed>
</trkpt>
<trkpt lat="22.157330" lon="104.610466">
<ele>134.1</ele>
<time>2011-04-28T03:45:59Z</time>
<desc>lat.=22.157330, lon.=104.610466, Alt.=122.424866m. Speed=0.072000m/h.</desc>
<speed>0.020000</speed>
</trkpt>
<trkpt lat="22.156929" lon="104.610405">
<ele>132.4</ele>
<time>2011-04-28T03:49:19Z</time>
<desc>lat.=22.156929, lon.=104.610405, Alt.=105.159241m. Speed=9.396000m/h.</desc>
<speed>2.610000</speed>
</trkpt>
<trkpt lat="22.155998" lon="104.611099">
<ele>134.4</ele>
<time>2011-04-28T03:49:59Z</time>
<desc>lat.=22.155998, lon.=104.611099, Alt.=123.430725m. Speed=10.764000m/h.</desc>
<speed>2.990000</speed>
</trkpt>
<trkpt lat="22.155586" lon="104.611603">
<ele>135.8</ele>
<time>2011-04-28T03:50:24Z</time>
<desc>lat.=22.155586, lon.=104.611603, Alt.=126.085022m. Speed=3.888000m/h.</desc>
<speed>1.080000</speed>
</trkpt>
<trkpt lat="22.155544" lon="104.612175">
<ele>137.1</ele>
<time>2011-04-28T03:50:54Z</time>
<desc>lat.=22.155544, lon.=104.612175, Alt.=131.373169m. Speed=5.256000m/h.</desc>
<speed>1.460000</speed>
</trkpt>
<trkpt lat="22.155251" lon="104.612488">
<ele>140.4</ele>
<time>2011-04-28T03:51:19Z</time>
<desc>lat.=22.155251, lon.=104.612488, Alt.=135.197388m. Speed=6.228000m/h.</desc>
<speed>1.730000</speed>
</trkpt>
<trkpt lat="22.154453" lon="104.612846">
<ele>147.8</ele>
<time>2011-04-28T03:52:14Z</time>
<desc>lat.=22.154453, lon.=104.612846, Alt.=136.951294m. Speed=8.208000m/h.</desc>
<speed>2.280000</speed>
</trkpt>
<trkpt lat="22.153894" lon="104.613441">
<ele>150.9</ele>
<time>2011-04-28T03:52:59Z</time>
<desc>lat.=22.153894, lon.=104.613441, Alt.=144.912231m. Speed=4.824000m/h.</desc>
<speed>1.340000</speed>
</trkpt>
<trkpt lat="22.153389" lon="104.613472">
<ele>152.4</ele>
<time>2011-04-28T03:53:49Z</time>
<desc>lat.=22.153389, lon.=104.613472, Alt.=144.994263m. Speed=0.288000m/h.</desc>
<speed>0.080000</speed>
</trkpt>
<trkpt lat="22.152975" lon="104.614632">
<ele>142.1</ele>
<time>2011-04-28T03:57:14Z</time>
<desc>lat.=22.152975, lon.=104.614632, Alt.=136.642700m. Speed=27.864000m/h.</desc>
<speed>7.740000</speed>
</trkpt>
<trkpt lat="22.151991" lon="104.615311">
<ele>145.7</ele>
<time>2011-04-28T03:57:29Z</time>
<desc>lat.=22.151991, lon.=104.615311, Alt.=138.822388m. Speed=21.132000m/h.</desc>
<speed>5.870000</speed>
</trkpt>
<trkpt lat="22.151247" lon="104.615616">
<ele>130.6</ele>
<time>2011-04-28T03:57:44Z</time>
<desc>lat.=22.151247, lon.=104.615616, Alt.=134.158325m. Speed=22.356001m/h.</desc>
<speed>6.210000</speed>
</trkpt>
<trkpt lat="22.151009" lon="104.616203">
<ele>133.5</ele>
<time>2011-04-28T03:57:54Z</time>
<desc>lat.=22.151009, lon.=104.616203, Alt.=129.646606m. Speed=26.351999m/h.</desc>
<speed>7.320000</speed>
</trkpt>
<trkpt lat="22.150440" lon="104.616737">
<ele>131.8</ele>
<time>2011-04-28T03:58:04Z</time>
<desc>lat.=22.150440, lon.=104.616737, Alt.=126.983459m. Speed=26.964001m/h.</desc>
<speed>7.490000</speed>
</trkpt>
<trkpt lat="22.150335" lon="104.617088">
<ele>127.4</ele>
<time>2011-04-28T03:58:09Z</time>
<desc>lat.=22.150335, lon.=104.617088, Alt.=125.758850m. Speed=29.016001m/h.</desc>
<speed>8.060000</speed>
</trkpt>
<trkpt lat="22.150442" lon="104.618370">
<ele>118.8</ele>
<time>2011-04-28T03:58:24Z</time>
<desc>lat.=22.150442, lon.=104.618370, Alt.=122.264709m. Speed=28.260000m/h.</desc>
<speed>7.850000</speed>
</trkpt>
<trkpt lat="22.150190" lon="104.619171">
<ele>116.8</ele>
<time>2011-04-28T03:58:34Z</time>
<desc>lat.=22.150190, lon.=104.619171, Alt.=120.782288m. Speed=29.664000m/h.</desc>
<speed>8.240000</speed>
</trkpt>
<trkpt lat="22.149422" lon="104.620110">
<ele>112.4</ele>
<time>2011-04-28T03:58:49Z</time>
<desc>lat.=22.149422, lon.=104.620110, Alt.=115.372131m. Speed=29.844000m/h.</desc>
<speed>8.290000</speed>
</trkpt>
<trkpt lat="22.148314" lon="104.622108">
<ele>111.5</ele>
<time>2011-04-28T03:59:19Z</time>
<desc>lat.=22.148314, lon.=104.622108, Alt.=107.551819m. Speed=20.844000m/h.</desc>
<speed>5.790000</speed>
</trkpt>
<trkpt lat="22.147221" lon="104.622894">
<ele>106.4</ele>
<time>2011-04-28T03:59:49Z</time>
<desc>lat.=22.147221, lon.=104.622894, Alt.=103.942444m. Speed=16.164000m/h.</desc>
<speed>4.490000</speed>
</trkpt>
<trkpt lat="22.147057" lon="104.623367">
<ele>103.8</ele>
<time>2011-04-28T03:59:59Z</time>
<desc>lat.=22.147057, lon.=104.623367, Alt.=100.444397m. Speed=24.011999m/h.</desc>
<speed>6.670000</speed>
</trkpt>
<trkpt lat="22.146538" lon="104.623802">
<ele>101.9</ele>
<time>2011-04-28T04:00:09Z</time>
<desc>lat.=22.146538, lon.=104.623802, Alt.=99.794006m. Speed=24.516001m/h.</desc>
<speed>6.810000</speed>
</trkpt>
<trkpt lat="22.145826" lon="104.624901">
<ele>103.6</ele>
<time>2011-04-28T04:00:29Z</time>
<desc>lat.=22.145826, lon.=104.624901, Alt.=98.225647m. Speed=18.504000m/h.</desc>
<speed>5.140000</speed>
</trkpt>
<trkpt lat="22.144449" lon="104.625977">
<ele>97.4</ele>
<time>2011-04-28T04:01:04Z</time>
<desc>lat.=22.144449, lon.=104.625977, Alt.=95.169006m. Speed=25.308001m/h.</desc>
<speed>7.030000</speed>
</trkpt>
<trkpt lat="22.144096" lon="104.626465">
<ele>94.4</ele>
<time>2011-04-28T04:01:14Z</time>
<desc>lat.=22.144096, lon.=104.626465, Alt.=93.399475m. Speed=18.000000m/h.</desc>
<speed>5.000000</speed>
</trkpt>
<trkpt lat="22.143990" lon="104.627007">
<ele>98.9</ele>
<time>2011-04-28T04:01:24Z</time>
<desc>lat.=22.143990, lon.=104.627007, Alt.=92.596741m. Speed=20.448000m/h.</desc>
<speed>5.680000</speed>
</trkpt>
<trkpt lat="22.142508" lon="104.628296">
<ele>96.9</ele>
<time>2011-04-28T04:02:04Z</time>
<desc>lat.=22.142508, lon.=104.628296, Alt.=91.893616m. Speed=17.063999m/h.</desc>
<speed>4.740000</speed>
</trkpt>
<trkpt lat="22.141747" lon="104.628586">
<ele>93.0</ele>
<time>2011-04-28T04:02:24Z</time>
<desc>lat.=22.141747, lon.=104.628586, Alt.=93.895569m. Speed=16.091999m/h.</desc>
<speed>4.470000</speed>
</trkpt>
<trkpt lat="22.141638" lon="104.630035">
<ele>95.2</ele>
<time>2011-04-28T04:02:59Z</time>
<desc>lat.=22.141638, lon.=104.630035, Alt.=88.790100m. Speed=13.716000m/h.</desc>
<speed>3.810000</speed>
</trkpt>
<trkpt lat="22.141190" lon="104.630775">
<ele>93.7</ele>
<time>2011-04-28T04:03:14Z</time>
<desc>lat.=22.141190, lon.=104.630775, Alt.=85.559631m. Speed=19.728001m/h.</desc>
<speed>5.480000</speed>
</trkpt>
<trkpt lat="22.139727" lon="104.631668">
<ele>92.8</ele>
<time>2011-04-28T04:03:54Z</time>
<desc>lat.=22.139727, lon.=104.631668, Alt.=89.020569m. Speed=15.228000m/h.</desc>
<speed>4.230000</speed>
</trkpt>
<trkpt lat="22.138653" lon="104.632561">
<ele>88.9</ele>
<time>2011-04-28T04:04:29Z</time>
<desc>lat.=22.138653, lon.=104.632561, Alt.=86.110413m. Speed=13.176000m/h.</desc>
<speed>3.660000</speed>
</trkpt>
<trkpt lat="22.138403" lon="104.633163">
<ele>90.8</ele>
<time>2011-04-28T04:07:29Z</time>
<desc>lat.=22.138403, lon.=104.633163, Alt.=85.463928m. Speed=13.536000m/h.</desc>
<speed>3.760000</speed>
</trkpt>
<trkpt lat="22.137650" lon="104.633865">
<ele>88.6</ele>
<time>2011-04-28T04:07:49Z</time>
<desc>lat.=22.137650, lon.=104.633865, Alt.=88.661194m. Speed=8.172000m/h.</desc>
<speed>2.270000</speed>
</trkpt>
<trkpt lat="22.136957" lon="104.635124">
<ele>89.3</ele>
<time>2011-04-28T04:08:19Z</time>
<desc>lat.=22.136957, lon.=104.635124, Alt.=91.840881m. Speed=25.559999m/h.</desc>
<speed>7.100000</speed>
</trkpt>
<trkpt lat="22.134966" lon="104.636765">
<ele>89.0</ele>
<time>2011-04-28T04:08:59Z</time>
<desc>lat.=22.134966, lon.=104.636765, Alt.=95.877991m. Speed=21.204000m/h.</desc>
<speed>5.890000</speed>
</trkpt>
<trkpt lat="22.134684" lon="104.637215">
<ele>83.7</ele>
<time>2011-04-28T04:09:09Z</time>
<desc>lat.=22.134684, lon.=104.637215, Alt.=95.631897m. Speed=18.684000m/h.</desc>
<speed>5.190000</speed>
</trkpt>
<trkpt lat="22.134558" lon="104.637932">
<ele>86.0</ele>
<time>2011-04-28T04:09:24Z</time>
<desc>lat.=22.134558, lon.=104.637932, Alt.=93.278381m. Speed=18.827999m/h.</desc>
<speed>5.230000</speed>
</trkpt>
<trkpt lat="22.133520" lon="104.638634">
<ele>82.4</ele>
<time>2011-04-28T04:09:49Z</time>
<desc>lat.=22.133520, lon.=104.638634, Alt.=90.528381m. Speed=18.756001m/h.</desc>
<speed>5.210000</speed>
</trkpt>
<trkpt lat="22.133099" lon="104.639580">
<ele>86.4</ele>
<time>2011-04-28T04:10:14Z</time>
<desc>lat.=22.133099, lon.=104.639580, Alt.=84.081116m. Speed=13.788000m/h.</desc>
<speed>3.830000</speed>
</trkpt>
<trkpt lat="22.132311" lon="104.640015">
<ele>82.8</ele>
<time>2011-04-28T04:10:39Z</time>
<desc>lat.=22.132311, lon.=104.640015, Alt.=78.725647m. Speed=21.959999m/h.</desc>
<speed>6.100000</speed>
</trkpt>
<trkpt lat="22.131525" lon="104.640968">
<ele>82.1</ele>
<time>2011-04-28T04:11:09Z</time>
<desc>lat.=22.131525, lon.=104.640968, Alt.=85.848694m. Speed=10.332000m/h.</desc>
<speed>2.870000</speed>
</trkpt>
<trkpt lat="22.131235" lon="104.642220">
<ele>77.6</ele>
<time>2011-04-28T04:11:34Z</time>
<desc>lat.=22.131235, lon.=104.642220, Alt.=86.588928m. Speed=18.900000m/h.</desc>
<speed>5.250000</speed>
</trkpt>
<trkpt lat="22.131916" lon="104.643646">
<ele>80.4</ele>
<time>2011-04-28T04:12:09Z</time>
<desc>lat.=22.131916, lon.=104.643646, Alt.=75.247131m. Speed=14.616000m/h.</desc>
<speed>4.060000</speed>
</trkpt>
<trkpt lat="22.131861" lon="104.644234">
<ele>87.0</ele>
<time>2011-04-28T04:12:24Z</time>
<desc>lat.=22.131861, lon.=104.644234, Alt.=75.391663m. Speed=17.927999m/h.</desc>
<speed>4.980000</speed>
</trkpt>
<trkpt lat="22.131248" lon="104.644638">
<ele>87.0</ele>
<time>2011-04-28T04:12:39Z</time>
<desc>lat.=22.131248, lon.=104.644638, Alt.=75.721741m. Speed=11.376000m/h.</desc>
<speed>3.160000</speed>
</trkpt>
<trkpt lat="22.127987" lon="104.645248">
<ele>82.1</ele>
<time>2011-04-28T04:15:04Z</time>
<desc>lat.=22.127987, lon.=104.645248, Alt.=61.431183m. Speed=17.784000m/h.</desc>
<speed>4.940000</speed>
</trkpt>
<trkpt lat="22.126942" lon="104.646362">
<ele>77.9</ele>
<time>2011-04-28T04:15:34Z</time>
<desc>lat.=22.126942, lon.=104.646362, Alt.=84.704163m. Speed=20.520000m/h.</desc>
<speed>5.700000</speed>
</trkpt>
<trkpt lat="22.125444" lon="104.646935">
<ele>79.3</ele>
<time>2011-04-28T04:25:24Z</time>
<desc>lat.=22.125444, lon.=104.646935, Alt.=80.243225m. Speed=21.600000m/h.</desc>
<speed>6.000000</speed>
</trkpt>
<trkpt lat="22.125008" lon="104.647270">
<ele>80.9</ele>
<time>2011-04-28T04:25:34Z</time>
<desc>lat.=22.125008, lon.=104.647270, Alt.=85.319397m. Speed=23.507999m/h.</desc>
<speed>6.530000</speed>
</trkpt>
<trkpt lat="22.123985" lon="104.648483">
<ele>82.9</ele>
<time>2011-04-28T04:26:19Z</time>
<desc>lat.=22.123985, lon.=104.648483, Alt.=108.241272m. Speed=13.752000m/h.</desc>
<speed>3.820000</speed>
</trkpt>
<trkpt lat="22.122786" lon="104.649597">
<ele>82.8</ele>
<time>2011-04-28T04:26:59Z</time>
<desc>lat.=22.122786, lon.=104.649597, Alt.=100.454163m. Speed=13.824000m/h.</desc>
<speed>3.840000</speed>
</trkpt>
<trkpt lat="22.122137" lon="104.650589">
<ele>81.4</ele>
<time>2011-04-28T04:27:19Z</time>
<desc>lat.=22.122137, lon.=104.650589, Alt.=93.100647m. Speed=19.728001m/h.</desc>
<speed>5.480000</speed>
</trkpt>
<trkpt lat="22.121542" lon="104.650978">
<ele>86.3</ele>
<time>2011-04-28T04:27:34Z</time>
<desc>lat.=22.121542, lon.=104.650978, Alt.=84.495178m. Speed=18.792000m/h.</desc>
<speed>5.220000</speed>
</trkpt>
<trkpt lat="22.120390" lon="104.652100">
<ele>84.5</ele>
<time>2011-04-28T04:28:04Z</time>
<desc>lat.=22.120390, lon.=104.652100, Alt.=77.752991m. Speed=18.504000m/h.</desc>
<speed>5.140000</speed>
</trkpt>
<trkpt lat="22.119324" lon="104.652458">
<ele>79.7</ele>
<time>2011-04-28T04:28:29Z</time>
<desc>lat.=22.119324, lon.=104.652458, Alt.=84.307678m. Speed=14.652000m/h.</desc>
<speed>4.070000</speed>
</trkpt>
<trkpt lat="22.119223" lon="104.652664">
<ele>82.5</ele>
<time>2011-04-28T04:28:34Z</time>
<desc>lat.=22.119223, lon.=104.652664, Alt.=85.116272m. Speed=17.243999m/h.</desc>
<speed>4.790000</speed>
</trkpt>
<trkpt lat="22.119339" lon="104.653397">
<ele>79.4</ele>
<time>2011-04-28T04:28:49Z</time>
<desc>lat.=22.119339, lon.=104.653397, Alt.=84.196350m. Speed=19.836000m/h.</desc>
<speed>5.510000</speed>
</trkpt>
<trkpt lat="22.119133" lon="104.653885">
<ele>79.4</ele>
<time>2011-04-28T04:28:59Z</time>
<desc>lat.=22.119133, lon.=104.653885, Alt.=83.956116m. Speed=14.004000m/h.</desc>
<speed>3.890000</speed>
</trkpt>
<trkpt lat="22.118658" lon="104.654526">
<ele>79.0</ele>
<time>2011-04-28T04:29:24Z</time>
<desc>lat.=22.118658, lon.=104.654526, Alt.=91.836975m. Speed=15.912000m/h.</desc>
<speed>4.420000</speed>
</trkpt>
<trkpt lat="22.117306" lon="104.655777">
<ele>78.2</ele>
<time>2011-04-28T04:30:09Z</time>
<desc>lat.=22.117306, lon.=104.655777, Alt.=100.200256m. Speed=13.680000m/h.</desc>
<speed>3.800000</speed>
</trkpt>
<trkpt lat="22.116571" lon="104.657272">
<ele>77.2</ele>
<time>2011-04-28T04:30:49Z</time>
<desc>lat.=22.116571, lon.=104.657272, Alt.=94.510803m. Speed=17.100000m/h.</desc>
<speed>4.750000</speed>
</trkpt>
<trkpt lat="22.115391" lon="104.658195">
<ele>82.1</ele>
<time>2011-04-28T04:31:29Z</time>
<desc>lat.=22.115391, lon.=104.658195, Alt.=93.045959m. Speed=12.204000m/h.</desc>
<speed>3.390000</speed>
</trkpt>
<trkpt lat="22.115301" lon="104.658676">
<ele>82.4</ele>
<time>2011-04-28T04:31:44Z</time>
<desc>lat.=22.115301, lon.=104.658676, Alt.=91.069397m. Speed=12.780000m/h.</desc>
<speed>3.550000</speed>
</trkpt>
<trkpt lat="22.115507" lon="104.659470">
<ele>88.6</ele>
<time>2011-04-28T04:32:09Z</time>
<desc>lat.=22.115507, lon.=104.659470, Alt.=88.190491m. Speed=9.684000m/h.</desc>
<speed>2.690000</speed>
</trkpt>
<trkpt lat="22.115396" lon="104.659927">
<ele>90.0</ele>
<time>2011-04-28T04:32:29Z</time>
<desc>lat.=22.115396, lon.=104.659927, Alt.=94.450256m. Speed=9.000000m/h.</desc>
<speed>2.500000</speed>
</trkpt>
<trkpt lat="22.113693" lon="104.660950">
<ele>81.8</ele>
<time>2011-04-28T04:33:09Z</time>
<desc>lat.=22.113693, lon.=104.660950, Alt.=106.930725m. Speed=20.520000m/h.</desc>
<speed>5.700000</speed>
</trkpt>
<trkpt lat="22.112812" lon="104.661903">
<ele>85.4</ele>
<time>2011-04-28T04:33:34Z</time>
<desc>lat.=22.112812, lon.=104.661903, Alt.=105.116272m. Speed=21.743999m/h.</desc>
<speed>6.040000</speed>
</trkpt>
<trkpt lat="22.111635" lon="104.661972">
<ele>86.7</ele>
<time>2011-04-28T04:33:59Z</time>
<desc>lat.=22.111635, lon.=104.661972, Alt.=105.635803m. Speed=16.632000m/h.</desc>
<speed>4.620000</speed>
</trkpt>
<trkpt lat="22.110237" lon="104.663155">
<ele>87.9</ele>
<time>2011-04-28T04:34:49Z</time>
<desc>lat.=22.110237, lon.=104.663155, Alt.=103.831116m. Speed=13.680000m/h.</desc>
<speed>3.800000</speed>
</trkpt>
<trkpt lat="22.109583" lon="104.664497">
<ele>88.0</ele>
<time>2011-04-28T04:35:29Z</time>
<desc>lat.=22.109583, lon.=104.664497, Alt.=95.639709m. Speed=13.212000m/h.</desc>
<speed>3.670000</speed>
</trkpt>
<trkpt lat="22.109171" lon="104.666008">
<ele>93.0</ele>
<time>2011-04-28T04:36:14Z</time>
<desc>lat.=22.109171, lon.=104.666008, Alt.=100.319397m. Speed=12.780000m/h.</desc>
<speed>3.550000</speed>
</trkpt>
<trkpt lat="22.107670" lon="104.667862">
<ele>90.0</ele>
<time>2011-04-28T04:37:04Z</time>
<desc>lat.=22.107670, lon.=104.667862, Alt.=102.866272m. Speed=18.936001m/h.</desc>
<speed>5.260000</speed>
</trkpt>
<trkpt lat="22.107666" lon="104.668594">
<ele>91.0</ele>
<time>2011-04-28T04:37:14Z</time>
<desc>lat.=22.107666, lon.=104.668594, Alt.=100.393616m. Speed=32.616001m/h.</desc>
<speed>9.060000</speed>
</trkpt>
<trkpt lat="22.106905" lon="104.669441">
<ele>92.2</ele>
<time>2011-04-28T04:37:29Z</time>
<desc>lat.=22.106905, lon.=104.669441, Alt.=101.061584m. Speed=25.740000m/h.</desc>
<speed>7.150000</speed>
</trkpt>
<trkpt lat="22.105536" lon="104.670357">
<ele>86.2</ele>
<time>2011-04-28T04:37:54Z</time>
<desc>lat.=22.105536, lon.=104.670357, Alt.=118.352600m. Speed=25.236000m/h.</desc>
<speed>7.010000</speed>
</trkpt>
<trkpt lat="22.104675" lon="104.671349">
<ele>82.8</ele>
<time>2011-04-28T04:38:14Z</time>
<desc>lat.=22.104675, lon.=104.671349, Alt.=127.360413m. Speed=17.532000m/h.</desc>
<speed>4.870000</speed>
</trkpt>
<trkpt lat="22.104425" lon="104.671936">
<ele>82.8</ele>
<time>2011-04-28T04:38:24Z</time>
<desc>lat.=22.104425, lon.=104.671936, Alt.=125.219788m. Speed=22.788000m/h.</desc>
<speed>6.330000</speed>
</trkpt>
<trkpt lat="22.103092" lon="104.673378">
<ele>86.3</ele>
<time>2011-04-28T04:38:54Z</time>
<desc>lat.=22.103092, lon.=104.673378, Alt.=122.829163m. Speed=25.056000m/h.</desc>
<speed>6.960000</speed>
</trkpt>
<trkpt lat="22.101564" lon="104.674713">
<ele>76.1</ele>
<time>2011-04-28T04:39:24Z</time>
<desc>lat.=22.101564, lon.=104.674713, Alt.=120.647522m. Speed=18.612000m/h.</desc>
<speed>5.170000</speed>
</trkpt>
<trkpt lat="22.099728" lon="104.675423">
<ele>75.3</ele>
<time>2011-04-28T04:39:59Z</time>
<desc>lat.=22.099728, lon.=104.675423, Alt.=106.575256m. Speed=23.148001m/h.</desc>
<speed>6.430000</speed>
</trkpt>
<trkpt lat="22.098995" lon="104.676529">
<ele>77.8</ele>
<time>2011-04-28T04:40:24Z</time>
<desc>lat.=22.098995, lon.=104.676529, Alt.=88.086975m. Speed=12.132000m/h.</desc>
<speed>3.370000</speed>
</trkpt>
<trkpt lat="22.098118" lon="104.676689">
<ele>77.9</ele>
<time>2011-04-28T04:42:34Z</time>
<desc>lat.=22.098118, lon.=104.676689, Alt.=89.057678m. Speed=8.244000m/h.</desc>
<speed>2.290000</speed>
</trkpt>
<trkpt lat="22.097513" lon="104.677383">
<ele>81.2</ele>
<time>2011-04-28T04:42:54Z</time>
<desc>lat.=22.097513, lon.=104.677383, Alt.=88.547913m. Speed=18.180000m/h.</desc>
<speed>5.050000</speed>
</trkpt>
<trkpt lat="22.095892" lon="104.678055">
<ele>76.9</ele>
<time>2011-04-28T04:45:09Z</time>
<desc>lat.=22.095892, lon.=104.678055, Alt.=83.426819m. Speed=16.992001m/h.</desc>
<speed>4.720000</speed>
</trkpt>
<trkpt lat="22.094872" lon="104.679092">
<ele>70.6</ele>
<time>2011-04-28T04:45:29Z</time>
<desc>lat.=22.094872, lon.=104.679092, Alt.=73.561584m. Speed=32.580002m/h.</desc>
<speed>9.050001</speed>
</trkpt>
<trkpt lat="22.094467" lon="104.679077">
<ele>71.1</ele>
<time>2011-04-28T04:45:34Z</time>
<desc>lat.=22.094467, lon.=104.679077, Alt.=70.116272m. Speed=26.208000m/h.</desc>
<speed>7.280000</speed>
</trkpt>
<trkpt lat="22.094061" lon="104.678131">
<ele>76.7</ele>
<time>2011-04-28T04:45:59Z</time>
<desc>lat.=22.094061, lon.=104.678131, Alt.=77.940491m. Speed=12.528000m/h.</desc>
<speed>3.480000</speed>
</trkpt>
<trkpt lat="22.094128" lon="104.677246">
<ele>77.7</ele>
<time>2011-04-28T04:46:24Z</time>
<desc>lat.=22.094128, lon.=104.677246, Alt.=80.688538m. Speed=10.692000m/h.</desc>
<speed>2.970000</speed>
</trkpt>
<trkpt lat="22.093996" lon="104.676704">
<ele>83.0</ele>
<time>2011-04-28T04:46:39Z</time>
<desc>lat.=22.093996, lon.=104.676704, Alt.=82.303772m. Speed=10.512000m/h.</desc>
<speed>2.920000</speed>
</trkpt>
<trkpt lat="22.093084" lon="104.675644">
<ele>78.7</ele>
<time>2011-04-28T04:47:19Z</time>
<desc>lat.=22.093084, lon.=104.675644, Alt.=77.536194m. Speed=14.760000m/h.</desc>
<speed>4.100000</speed>
</trkpt>
<trkpt lat="22.093376" lon="104.675095">
<ele>87.3</ele>
<time>2011-04-28T04:47:29Z</time>
<desc>lat.=22.093376, lon.=104.675095, Alt.=74.635803m. Speed=25.091999m/h.</desc>
<speed>6.970000</speed>
</trkpt>
<trkpt lat="22.093954" lon="104.674599">
<ele>73.2</ele>
<time>2011-04-28T04:47:44Z</time>
<desc>lat.=22.093954, lon.=104.674599, Alt.=73.374084m. Speed=15.768000m/h.</desc>
<speed>4.380000</speed>
</trkpt>
<trkpt lat="22.093908" lon="104.674355">
<ele>70.7</ele>
<time>2011-04-28T04:47:49Z</time>
<desc>lat.=22.093908, lon.=104.674355, Alt.=73.487366m. Speed=18.035999m/h.</desc>
<speed>5.010000</speed>
</trkpt>
<trkpt lat="22.093079" lon="104.673820">
<ele>69.7</ele>
<time>2011-04-28T04:48:04Z</time>
<desc>lat.=22.093079, lon.=104.673820, Alt.=64.975647m. Speed=25.920000m/h.</desc>
<speed>7.200000</speed>
</trkpt>
<trkpt lat="22.091684" lon="104.673355">
<ele>77.8</ele>
<time>2011-04-28T04:48:54Z</time>
<desc>lat.=22.091684, lon.=104.673355, Alt.=58.015167m. Speed=7.452000m/h.</desc>
<speed>2.070000</speed>
</trkpt>
<trkpt lat="22.091669" lon="104.672859">
<ele>78.5</ele>
<time>2011-04-28T04:52:24Z</time>
<desc>lat.=22.091669, lon.=104.672859, Alt.=69.583069m. Speed=0.036000m/h.</desc>
<speed>0.010000</speed>
</trkpt>
<trkpt lat="22.091173" lon="104.672119">
<ele>82.3</ele>
<time>2011-04-28T04:55:19Z</time>
<desc>lat.=22.091173, lon.=104.672119, Alt.=66.026428m. Speed=9.576000m/h.</desc>
<speed>2.660000</speed>
</trkpt>
<trkpt lat="22.090837" lon="104.671082">
<ele>85.7</ele>
<time>2011-04-28T04:55:49Z</time>
<desc>lat.=22.090837, lon.=104.671082, Alt.=73.295959m. Speed=15.552000m/h.</desc>
<speed>4.320000</speed>
</trkpt>
<trkpt lat="22.090767" lon="104.670143">
<ele>91.1</ele>
<time>2011-04-28T04:56:14Z</time>
<desc>lat.=22.090767, lon.=104.670143, Alt.=76.223694m. Speed=9.324000m/h.</desc>
<speed>2.590000</speed>
</trkpt>
<trkpt lat="22.090258" lon="104.669609">
<ele>91.8</ele>
<time>2011-04-28T04:57:09Z</time>
<desc>lat.=22.090258, lon.=104.669609, Alt.=78.610413m. Speed=7.524000m/h.</desc>
<speed>2.090000</speed>
</trkpt>
<trkpt lat="22.089500" lon="104.669914">
<ele>88.7</ele>
<time>2011-04-28T04:57:34Z</time>
<desc>lat.=22.089500, lon.=104.669914, Alt.=78.678772m. Speed=12.312000m/h.</desc>
<speed>3.420000</speed>
</trkpt>
<trkpt lat="22.089287" lon="104.670715">
<ele>82.6</ele>
<time>2011-04-28T04:57:49Z</time>
<desc>lat.=22.089287, lon.=104.670715, Alt.=74.508850m. Speed=29.879999m/h.</desc>
<speed>8.300000</speed>
</trkpt>
<trkpt lat="22.088055" lon="104.671257">
<ele>75.6</ele>
<time>2011-04-28T04:58:04Z</time>
<desc>lat.=22.088055, lon.=104.671257, Alt.=68.424866m. Speed=37.080002m/h.</desc>
<speed>10.300001</speed>
</trkpt>
<trkpt lat="22.087700" lon="104.671265">
<ele>78.0</ele>
<time>2011-04-28T04:58:09Z</time>
<desc>lat.=22.087700, lon.=104.671265, Alt.=67.262756m. Speed=22.356001m/h.</desc>
<speed>6.210000</speed>
</trkpt>
<trkpt lat="22.087318" lon="104.671059">
<ele>82.7</ele>
<time>2011-04-28T04:58:19Z</time>
<desc>lat.=22.087318, lon.=104.671059, Alt.=65.786194m. Speed=10.548000m/h.</desc>
<speed>2.930000</speed>
</trkpt>
<trkpt lat="22.085514" lon="104.669617">
<ele>91.8</ele>
<time>2011-04-28T04:59:39Z</time>
<desc>lat.=22.085514, lon.=104.669617, Alt.=71.596741m. Speed=13.320000m/h.</desc>
<speed>3.700000</speed>
</trkpt>
<trkpt lat="22.085003" lon="104.669792">
<ele>82.6</ele>
<time>2011-04-28T04:59:49Z</time>
<desc>lat.=22.085003, lon.=104.669792, Alt.=60.698761m. Speed=30.024000m/h.</desc>
<speed>8.340000</speed>
</trkpt>
<trkpt lat="22.083960" lon="104.670784">
<ele>73.7</ele>
<time>2011-04-28T05:00:04Z</time>
<desc>lat.=22.083960, lon.=104.670784, Alt.=50.586456m. Speed=31.212000m/h.</desc>
<speed>8.670000</speed>
</trkpt>
<trkpt lat="22.083385" lon="104.670502">
<ele>77.9</ele>
<time>2011-04-28T05:00:14Z</time>
<desc>lat.=22.083385, lon.=104.670502, Alt.=49.669464m. Speed=22.284000m/h.</desc>
<speed>6.190000</speed>
</trkpt>
<trkpt lat="22.082808" lon="104.670723">
<ele>78.2</ele>
<time>2011-04-28T05:00:29Z</time>
<desc>lat.=22.082808, lon.=104.670723, Alt.=49.072784m. Speed=9.720000m/h.</desc>
<speed>2.700000</speed>
</trkpt>
<trkpt lat="22.082539" lon="104.669441">
<ele>83.1</ele>
<time>2011-04-28T05:01:04Z</time>
<desc>lat.=22.082539, lon.=104.669441, Alt.=61.190948m. Speed=12.996000m/h.</desc>
<speed>3.610000</speed>
</trkpt>
<trkpt lat="22.081942" lon="104.668571">
<ele>85.9</ele>
<time>2011-04-28T05:01:29Z</time>
<desc>lat.=22.081942, lon.=104.668571, Alt.=66.215881m. Speed=13.968000m/h.</desc>
<speed>3.880000</speed>
</trkpt>
<trkpt lat="22.081839" lon="104.668076">
<ele>85.1</ele>
<time>2011-04-28T05:01:44Z</time>
<desc>lat.=22.081839, lon.=104.668076, Alt.=69.573303m. Speed=14.508000m/h.</desc>
<speed>4.030000</speed>
</trkpt>
<trkpt lat="22.081516" lon="104.667725">
<ele>82.6</ele>
<time>2011-04-28T05:01:54Z</time>
<desc>lat.=22.081516, lon.=104.667725, Alt.=70.594788m. Speed=18.756001m/h.</desc>
<speed>5.210000</speed>
</trkpt>
<trkpt lat="22.081018" lon="104.667740">
<ele>85.1</ele>
<time>2011-04-28T05:02:04Z</time>
<desc>lat.=22.081018, lon.=104.667740, Alt.=72.514709m. Speed=19.332001m/h.</desc>
<speed>5.370000</speed>
</trkpt>
<trkpt lat="22.080795" lon="104.667862">
<ele>87.6</ele>
<time>2011-04-28T05:02:09Z</time>
<desc>lat.=22.080795, lon.=104.667862, Alt.=75.014709m. Speed=17.856001m/h.</desc>
<speed>4.960000</speed>
</trkpt>
<trkpt lat="22.079168" lon="104.671310">
<ele>91.4</ele>
<time>2011-04-28T05:03:29Z</time>
<desc>lat.=22.079168, lon.=104.671310, Alt.=91.870178m. Speed=11.520000m/h.</desc>
<speed>3.200000</speed>
</trkpt>
<trkpt lat="22.078844" lon="104.671608">
<ele>90.5</ele>
<time>2011-04-28T05:03:44Z</time>
<desc>lat.=22.078844, lon.=104.671608, Alt.=92.647522m. Speed=10.152000m/h.</desc>
<speed>2.820000</speed>
</trkpt>
<trkpt lat="22.078020" lon="104.671669">
<ele>85.2</ele>
<time>2011-04-28T05:08:09Z</time>
<desc>lat.=22.078020, lon.=104.671669, Alt.=88.585022m. Speed=19.548000m/h.</desc>
<speed>5.430000</speed>
</trkpt>
<trkpt lat="22.077574" lon="104.672096">
<ele>83.9</ele>
<time>2011-04-28T05:08:19Z</time>
<desc>lat.=22.077574, lon.=104.672096, Alt.=82.792053m. Speed=24.624001m/h.</desc>
<speed>6.840000</speed>
</trkpt>
<trkpt lat="22.077028" lon="104.672195">
<ele>83.9</ele>
<time>2011-04-28T05:08:29Z</time>
<desc>lat.=22.077028, lon.=104.672195, Alt.=78.018616m. Speed=10.872000m/h.</desc>
<speed>3.020000</speed>
</trkpt>
<trkpt lat="22.076260" lon="104.673164">
<ele>87.6</ele>
<time>2011-04-28T05:09:19Z</time>
<desc>lat.=22.076260, lon.=104.673164, Alt.=66.143616m. Speed=5.364000m/h.</desc>
<speed>1.490000</speed>
</trkpt>
<trkpt lat="22.075710" lon="104.673294">
<ele>87.3</ele>
<time>2011-04-28T05:09:54Z</time>
<desc>lat.=22.075710, lon.=104.673294, Alt.=63.106964m. Speed=7.884000m/h.</desc>
<speed>2.190000</speed>
</trkpt>
<trkpt lat="22.073263" lon="104.672546">
<ele>85.0</ele>
<time>2011-04-28T05:12:04Z</time>
<desc>lat.=22.073263, lon.=104.672546, Alt.=61.704620m. Speed=8.316000m/h.</desc>
<speed>2.310000</speed>
</trkpt>
<trkpt lat="22.071659" lon="104.672867">
<ele>91.8</ele>
<time>2011-04-28T05:12:59Z</time>
<desc>lat.=22.071659, lon.=104.672867, Alt.=64.270569m. Speed=5.472000m/h.</desc>
<speed>1.520000</speed>
</trkpt>
<trkpt lat="22.071718" lon="104.673149">
<ele>83.6</ele>
<time>2011-04-28T05:15:29Z</time>
<desc>lat.=22.071718, lon.=104.673149, Alt.=70.010803m. Speed=1.296000m/h.</desc>
<speed>0.360000</speed>
</trkpt>
<trkpt lat="22.069965" lon="104.672813">
<ele>82.8</ele>
<time>2011-04-28T05:18:14Z</time>
<desc>lat.=22.069965, lon.=104.672813, Alt.=61.351105m. Speed=15.372000m/h.</desc>
<speed>4.270000</speed>
</trkpt>
<trkpt lat="22.069389" lon="104.672318">
<ele>83.2</ele>
<time>2011-04-28T05:18:34Z</time>
<desc>lat.=22.069389, lon.=104.672318, Alt.=57.575714m. Speed=12.420000m/h.</desc>
<speed>3.450000</speed>
</trkpt>
<trkpt lat="22.068369" lon="104.672607">
<ele>87.5</ele>
<time>2011-04-28T05:18:59Z</time>
<desc>lat.=22.068369, lon.=104.672607, Alt.=62.751495m. Speed=11.952000m/h.</desc>
<speed>3.320000</speed>
</trkpt>
<trkpt lat="22.067194" lon="104.672302">
<ele>90.4</ele>
<time>2011-04-28T05:20:39Z</time>
<desc>lat.=22.067194, lon.=104.672302, Alt.=89.704163m. Speed=0.576000m/h.</desc>
<speed>0.160000</speed>
</trkpt>
<trkpt lat="22.067165" lon="104.672096">
<ele>92.3</ele>
<time>2011-04-28T05:21:04Z</time>
<desc>lat.=22.067165, lon.=104.672096, Alt.=86.774475m. Speed=0.756000m/h.</desc>
<speed>0.210000</speed>
</trkpt>
<trkpt lat="22.067129" lon="104.672302">
<ele>89.3</ele>
<time>2011-04-28T05:22:29Z</time>
<desc>lat.=22.067129, lon.=104.672302, Alt.=89.419006m. Speed=1.152000m/h.</desc>
<speed>0.320000</speed>
</trkpt>
<trkpt lat="22.066957" lon="104.671890">
<ele>88.3</ele>
<time>2011-04-28T05:22:59Z</time>
<desc>lat.=22.066957, lon.=104.671890, Alt.=79.565491m. Speed=17.927999m/h.</desc>
<speed>4.980000</speed>
</trkpt>
<trkpt lat="22.066925" lon="104.671204">
<ele>92.4</ele>
<time>2011-04-28T05:23:09Z</time>
<desc>lat.=22.066925, lon.=104.671204, Alt.=74.747131m. Speed=27.792000m/h.</desc>
<speed>7.720000</speed>
</trkpt>
<trkpt lat="22.066574" lon="104.671082">
<ele>89.3</ele>
<time>2011-04-28T05:23:14Z</time>
<desc>lat.=22.066574, lon.=104.671082, Alt.=75.092834m. Speed=24.875999m/h.</desc>
<speed>6.910000</speed>
</trkpt>
<trkpt lat="22.065760" lon="104.671036">
<ele>90.3</ele>
<time>2011-04-28T05:23:29Z</time>
<desc>lat.=22.065760, lon.=104.671036, Alt.=77.008850m. Speed=16.164000m/h.</desc>
<speed>4.490000</speed>
</trkpt>
<trkpt lat="22.064455" lon="104.671654">
<ele>92.2</ele>
<time>2011-04-28T05:24:04Z</time>
<desc>lat.=22.064455, lon.=104.671654, Alt.=83.393616m. Speed=13.932000m/h.</desc>
<speed>3.870000</speed>
</trkpt>
<trkpt lat="22.063951" lon="104.671631">
<ele>92.5</ele>
<time>2011-04-28T05:24:19Z</time>
<desc>lat.=22.063951, lon.=104.671631, Alt.=79.827209m. Speed=12.924000m/h.</desc>
<speed>3.590000</speed>
</trkpt>
<trkpt lat="22.063456" lon="104.670868">
<ele>91.3</ele>
<time>2011-04-28T05:24:39Z</time>
<desc>lat.=22.063456, lon.=104.670868, Alt.=68.889709m. Speed=18.072001m/h.</desc>
<speed>5.020000</speed>
</trkpt>
<trkpt lat="22.063131" lon="104.669571">
<ele>94.7</ele>
<time>2011-04-28T05:25:09Z</time>
<desc>lat.=22.063131, lon.=104.669571, Alt.=67.106506m. Speed=13.968000m/h.</desc>
<speed>3.880000</speed>
</trkpt>
<trkpt lat="22.062048" lon="104.669220">
<ele>97.5</ele>
<time>2011-04-28T05:25:39Z</time>
<desc>lat.=22.062048, lon.=104.669220, Alt.=70.657288m. Speed=5.652000m/h.</desc>
<speed>1.570000</speed>
</trkpt>
<trkpt lat="22.061459" lon="104.668419">
<ele>98.6</ele>
<time>2011-04-28T05:26:09Z</time>
<desc>lat.=22.061459, lon.=104.668419, Alt.=73.653381m. Speed=11.592000m/h.</desc>
<speed>3.220000</speed>
</trkpt>
<trkpt lat="22.060417" lon="104.667717">
<ele>112.7</ele>
<time>2011-04-28T05:26:39Z</time>
<desc>lat.=22.060417, lon.=104.667717, Alt.=81.874084m. Speed=15.336000m/h.</desc>
<speed>4.260000</speed>
</trkpt>
<trkpt lat="22.058615" lon="104.667702">
<ele>96.1</ele>
<time>2011-04-28T05:27:14Z</time>
<desc>lat.=22.058615, lon.=104.667702, Alt.=86.442444m. Speed=13.968000m/h.</desc>
<speed>3.880000</speed>
</trkpt>
<trkpt lat="22.058327" lon="104.667595">
<ele>102.4</ele>
<time>2011-04-28T05:27:24Z</time>
<desc>lat.=22.058327, lon.=104.667595, Alt.=89.495178m. Speed=5.688000m/h.</desc>
<speed>1.580000</speed>
</trkpt>
<trkpt lat="22.057949" lon="104.667175">
<ele>103.1</ele>
<time>2011-04-28T05:27:44Z</time>
<desc>lat.=22.057949, lon.=104.667175, Alt.=90.247131m. Speed=11.304000m/h.</desc>
<speed>3.140000</speed>
</trkpt>
<trkpt lat="22.057695" lon="104.667145">
<ele>101.7</ele>
<time>2011-04-28T05:27:54Z</time>
<desc>lat.=22.057695, lon.=104.667145, Alt.=91.973694m. Speed=11.628000m/h.</desc>
<speed>3.230000</speed>
</trkpt>
<trkpt lat="22.056913" lon="104.668053">
<ele>103.4</ele>
<time>2011-04-28T05:28:29Z</time>
<desc>lat.=22.056913, lon.=104.668053, Alt.=94.290100m. Speed=20.483999m/h.</desc>
<speed>5.690000</speed>
</trkpt>
<trkpt lat="22.056135" lon="104.668449">
<ele>104.8</ele>
<time>2011-04-28T05:28:44Z</time>
<desc>lat.=22.056135, lon.=104.668449, Alt.=95.733459m. Speed=23.327999m/h.</desc>
<speed>6.480000</speed>
</trkpt>
<trkpt lat="22.055620" lon="104.668243">
<ele>109.3</ele>
<time>2011-04-28T05:28:54Z</time>
<desc>lat.=22.055620, lon.=104.668243, Alt.=99.731506m. Speed=18.216000m/h.</desc>
<speed>5.060000</speed>
</trkpt>
<trkpt lat="22.054525" lon="104.667175">
<ele>97.7</ele>
<time>2011-04-28T05:30:04Z</time>
<desc>lat.=22.054525, lon.=104.667175, Alt.=112.762756m. Speed=0.144000m/h.</desc>
<speed>0.040000</speed>
</trkpt>
<trkpt lat="22.053762" lon="104.666985">
<ele>111.4</ele>
<time>2011-04-28T05:31:19Z</time>
<desc>lat.=22.053762, lon.=104.666985, Alt.=110.120178m. Speed=11.952000m/h.</desc>
<speed>3.320000</speed>
</trkpt>
<trkpt lat="22.053316" lon="104.666641">
<ele>104.6</ele>
<time>2011-04-28T05:31:34Z</time>
<desc>lat.=22.053316, lon.=104.666641, Alt.=112.522522m. Speed=12.636000m/h.</desc>
<speed>3.510000</speed>
</trkpt>
<trkpt lat="22.052288" lon="104.666664">
<ele>104.6</ele>
<time>2011-04-28T05:31:59Z</time>
<desc>lat.=22.052288, lon.=104.666664, Alt.=113.331116m. Speed=13.212000m/h.</desc>
<speed>3.670000</speed>
</trkpt>
<trkpt lat="22.050859" lon="104.667091">
<ele>107.1</ele>
<time>2011-04-28T05:32:54Z</time>
<desc>lat.=22.050859, lon.=104.667091, Alt.=118.782288m. Speed=3.528000m/h.</desc>
<speed>0.980000</speed>
</trkpt>
<trkpt lat="22.050308" lon="104.668030">
<ele>102.8</ele>
<time>2011-04-28T05:33:54Z</time>
<desc>lat.=22.050308, lon.=104.668030, Alt.=120.893616m. Speed=1.188000m/h.</desc>
<speed>0.330000</speed>
</trkpt>
<trkpt lat="22.050524" lon="104.668297">
<ele>109.6</ele>
<time>2011-04-28T05:36:59Z</time>
<desc>lat.=22.050524, lon.=104.668297, Alt.=121.213928m. Speed=0.720000m/h.</desc>
<speed>0.200000</speed>
</trkpt>
<trkpt lat="22.050482" lon="104.668015">
<ele>104.8</ele>
<time>2011-04-28T05:52:19Z</time>
<desc>lat.=22.050482, lon.=104.668015, Alt.=102.354553m. Speed=0.288000m/h.</desc>
<speed>0.080000</speed>
</trkpt>
<trkpt lat="22.050697" lon="104.668381">
<ele>119.9</ele>
<time>2011-04-28T05:56:04Z</time>
<desc>lat.=22.050697, lon.=104.668381, Alt.=110.114319m. Speed=0.360000m/h.</desc>
<speed>0.100000</speed>
</trkpt>
<trkpt lat="22.050560" lon="104.667946">
<ele>105.7</ele>
<time>2011-04-28T06:09:39Z</time>
<desc>lat.=22.050560, lon.=104.667946, Alt.=66.249084m. Speed=0.036000m/h.</desc>
<speed>0.010000</speed>
</trkpt>
<trkpt lat="22.050459" lon="104.667969">
<ele>104.2</ele>
<time>2011-04-28T06:12:24Z</time>
<desc>lat.=22.050459, lon.=104.667969, Alt.=75.167053m. Speed=0.000000m/h.</desc>
<speed>0.000000</speed>
</trkpt>
<trkpt lat="22.050537" lon="104.667885">
<ele>104.9</ele>
<time>2011-04-28T06:14:44Z</time>
<desc>lat.=22.050537, lon.=104.667885, Alt.=81.870178m. Speed=0.108000m/h.</desc>
<speed>0.030000</speed>
</trkpt>
<trkpt lat="22.050396" lon="104.667946">
<ele>103.2</ele>
<time>2011-04-28T06:16:29Z</time>
<desc>lat.=22.050396, lon.=104.667946, Alt.=86.973694m. Speed=0.180000m/h.</desc>
<speed>0.050000</speed>
</trkpt>
<trkpt lat="22.050314" lon="104.668098">
<ele>103.2</ele>
<time>2011-04-28T06:29:44Z</time>
<desc>lat.=22.050314, lon.=104.668098, Alt.=119.969788m. Speed=0.108000m/h.</desc>
<speed>0.030000</speed>
</trkpt>
<trkpt lat="22.050512" lon="104.668091">
<ele>105.9</ele>
<time>2011-04-28T06:30:49Z</time>
<desc>lat.=22.050512, lon.=104.668091, Alt.=120.575256m. Speed=0.468000m/h.</desc>
<speed>0.130000</speed>
</trkpt>
<trkpt lat="22.050379" lon="104.668121">
<ele>103.9</ele>
<time>2011-04-28T06:33:14Z</time>
<desc>lat.=22.050379, lon.=104.668121, Alt.=91.917053m. Speed=0.144000m/h.</desc>
<speed>0.040000</speed>
</trkpt>
<trkpt lat="22.050526" lon="104.668213">
<ele>107.9</ele>
<time>2011-04-28T06:37:24Z</time>
<desc>lat.=22.050526, lon.=104.668213, Alt.=88.327209m. Speed=0.216000m/h.</desc>
<speed>0.060000</speed>
</trkpt>
<trkpt lat="22.050335" lon="104.668114">
<ele>103.4</ele>
<time>2011-04-28T06:38:19Z</time>
<desc>lat.=22.050335, lon.=104.668114, Alt.=76.561584m. Speed=0.612000m/h.</desc>
<speed>0.170000</speed>
</trkpt>
<trkpt lat="22.049984" lon="104.668724">
<ele>110.1</ele>
<time>2011-04-28T06:38:44Z</time>
<desc>lat.=22.049984, lon.=104.668724, Alt.=76.086975m. Speed=11.628000m/h.</desc>
<speed>3.230000</speed>
</trkpt>
<trkpt lat="22.049292" lon="104.668922">
<ele>103.0</ele>
<time>2011-04-28T06:39:09Z</time>
<desc>lat.=22.049292, lon.=104.668922, Alt.=94.149475m. Speed=11.556000m/h.</desc>
<speed>3.210000</speed>
</trkpt>
<trkpt lat="22.048573" lon="104.669464">
<ele>110.7</ele>
<time>2011-04-28T06:39:34Z</time>
<desc>lat.=22.048573, lon.=104.669464, Alt.=101.282288m. Speed=13.176000m/h.</desc>
<speed>3.660000</speed>
</trkpt>
<trkpt lat="22.047737" lon="104.669754">
<ele>121.5</ele>
<time>2011-04-28T06:40:04Z</time>
<desc>lat.=22.047737, lon.=104.669754, Alt.=110.795959m. Speed=9.288000m/h.</desc>
<speed>2.580000</speed>
</trkpt>
<trkpt lat="22.047611" lon="104.670380">
<ele>122.0</ele>
<time>2011-04-28T06:40:24Z</time>
<desc>lat.=22.047611, lon.=104.670380, Alt.=118.401428m. Speed=8.712000m/h.</desc>
<speed>2.420000</speed>
</trkpt>
<trkpt lat="22.046726" lon="104.670761">
<ele>122.6</ele>
<time>2011-04-28T06:40:54Z</time>
<desc>lat.=22.046726, lon.=104.670761, Alt.=119.245178m. Speed=13.572000m/h.</desc>
<speed>3.770000</speed>
</trkpt>
<trkpt lat="22.046448" lon="104.671486">
<ele>123.4</ele>
<time>2011-04-28T06:41:14Z</time>
<desc>lat.=22.046448, lon.=104.671486, Alt.=119.663147m. Speed=10.440000m/h.</desc>
<speed>2.900000</speed>
</trkpt>
<trkpt lat="22.045763" lon="104.672203">
<ele>127.4</ele>
<time>2011-04-28T06:41:39Z</time>
<desc>lat.=22.045763, lon.=104.672203, Alt.=120.903381m. Speed=17.028000m/h.</desc>
<speed>4.730000</speed>
</trkpt>
<trkpt lat="22.045303" lon="104.672310">
<ele>127.8</ele>
<time>2011-04-28T06:41:49Z</time>
<desc>lat.=22.045303, lon.=104.672310, Alt.=120.854553m. Speed=16.164000m/h.</desc>
<speed>4.490000</speed>
</trkpt>
<trkpt lat="22.044525" lon="104.672180">
<ele>123.3</ele>
<time>2011-04-28T06:42:04Z</time>
<desc>lat.=22.044525, lon.=104.672180, Alt.=125.100647m. Speed=20.879999m/h.</desc>
<speed>5.800000</speed>
</trkpt>
<trkpt lat="22.044294" lon="104.672302">
<ele>127.2</ele>
<time>2011-04-28T06:42:09Z</time>
<desc>lat.=22.044294, lon.=104.672302, Alt.=125.639709m. Speed=18.576000m/h.</desc>
<speed>5.160000</speed>
</trkpt>
<trkpt lat="22.043900" lon="104.672783">
<ele>132.9</ele>
<time>2011-04-28T06:42:24Z</time>
<desc>lat.=22.043900, lon.=104.672783, Alt.=129.138794m. Speed=15.588000m/h.</desc>
<speed>4.330000</speed>
</trkpt>
<trkpt lat="22.043732" lon="104.673401">
<ele>129.6</ele>
<time>2011-04-28T06:42:39Z</time>
<desc>lat.=22.043732, lon.=104.673401, Alt.=130.681763m. Speed=15.156000m/h.</desc>
<speed>4.210000</speed>
</trkpt>
<trkpt lat="22.042852" lon="104.674110">
<ele>129.9</ele>
<time>2011-04-28T06:43:04Z</time>
<desc>lat.=22.042852, lon.=104.674110, Alt.=130.236450m. Speed=16.955999m/h.</desc>
<speed>4.710000</speed>
</trkpt>
<trkpt lat="22.042934" lon="104.675377">
<ele>131.3</ele>
<time>2011-04-28T06:43:29Z</time>
<desc>lat.=22.042934, lon.=104.675377, Alt.=126.018616m. Speed=15.552000m/h.</desc>
<speed>4.320000</speed>
</trkpt>
<trkpt lat="22.042847" lon="104.675575">
<ele>131.6</ele>
<time>2011-04-28T06:43:34Z</time>
<desc>lat.=22.042847, lon.=104.675575, Alt.=125.374084m. Speed=13.500000m/h.</desc>
<speed>3.750000</speed>
</trkpt>
<trkpt lat="22.042311" lon="104.675842">
<ele>139.9</ele>
<time>2011-04-28T06:43:49Z</time>
<desc>lat.=22.042311, lon.=104.675842, Alt.=125.161194m. Speed=13.140000m/h.</desc>
<speed>3.650000</speed>
</trkpt>
<trkpt lat="22.041838" lon="104.676521">
<ele>141.1</ele>
<time>2011-04-28T06:44:09Z</time>
<desc>lat.=22.041838, lon.=104.676521, Alt.=125.920959m. Speed=13.068000m/h.</desc>
<speed>3.630000</speed>
</trkpt>
<trkpt lat="22.041742" lon="104.677170">
<ele>141.3</ele>
<time>2011-04-28T06:44:24Z</time>
<desc>lat.=22.041742, lon.=104.677170, Alt.=129.638794m. Speed=12.636000m/h.</desc>
<speed>3.510000</speed>
</trkpt>
<trkpt lat="22.041412" lon="104.677643">
<ele>141.7</ele>
<time>2011-04-28T06:44:39Z</time>
<desc>lat.=22.041412, lon.=104.677643, Alt.=131.505981m. Speed=11.520000m/h.</desc>
<speed>3.200000</speed>
</trkpt>
<trkpt lat="22.041422" lon="104.678253">
<ele>143.5</ele>
<time>2011-04-28T06:44:54Z</time>
<desc>lat.=22.041422, lon.=104.678253, Alt.=132.408325m. Speed=12.384000m/h.</desc>
<speed>3.440000</speed>
</trkpt>
<trkpt lat="22.041086" lon="104.678925">
<ele>140.2</ele>
<time>2011-04-28T06:45:09Z</time>
<desc>lat.=22.041086, lon.=104.678925, Alt.=135.783325m. Speed=19.656000m/h.</desc>
<speed>5.460000</speed>
</trkpt>
<trkpt lat="22.040890" lon="104.680031">
<ele>140.9</ele>
<time>2011-04-28T06:45:34Z</time>
<desc>lat.=22.040890, lon.=104.680031, Alt.=137.759888m. Speed=12.420000m/h.</desc>
<speed>3.450000</speed>
</trkpt>
<trkpt lat="22.040134" lon="104.680824">
<ele>140.0</ele>
<time>2011-04-28T06:45:59Z</time>
<desc>lat.=22.040134, lon.=104.680824, Alt.=147.611450m. Speed=7.560000m/h.</desc>
<speed>2.100000</speed>
</trkpt>
<trkpt lat="22.039833" lon="104.682137">
<ele>141.4</ele>
<time>2011-04-28T06:46:24Z</time>
<desc>lat.=22.039833, lon.=104.682137, Alt.=143.416138m. Speed=21.312000m/h.</desc>
<speed>5.920000</speed>
</trkpt>
<trkpt lat="22.039021" lon="104.683769">
<ele>137.1</ele>
<time>2011-04-28T06:46:49Z</time>
<desc>lat.=22.039021, lon.=104.683769, Alt.=139.142700m. Speed=28.944000m/h.</desc>
<speed>8.040000</speed>
</trkpt>
<trkpt lat="22.038130" lon="104.684837">
<ele>135.3</ele>
<time>2011-04-28T06:47:09Z</time>
<desc>lat.=22.038130, lon.=104.684837, Alt.=135.529419m. Speed=26.208000m/h.</desc>
<speed>7.280000</speed>
</trkpt>
<trkpt lat="22.037952" lon="104.685791">
<ele>134.2</ele>
<time>2011-04-28T06:47:24Z</time>
<desc>lat.=22.037952, lon.=104.685791, Alt.=134.732544m. Speed=23.256001m/h.</desc>
<speed>6.460000</speed>
</trkpt>
<trkpt lat="22.037193" lon="104.686630">
<ele>134.8</ele>
<time>2011-04-28T06:47:44Z</time>
<desc>lat.=22.037193, lon.=104.686630, Alt.=138.314575m. Speed=19.872000m/h.</desc>
<speed>5.520000</speed>
</trkpt>
<trkpt lat="22.037004" lon="104.687431">
<ele>135.2</ele>
<time>2011-04-28T06:47:59Z</time>
<desc>lat.=22.037004, lon.=104.687431, Alt.=137.416138m. Speed=24.299999m/h.</desc>
<speed>6.750000</speed>
</trkpt>
<trkpt lat="22.036240" lon="104.688232">
<ele>132.9</ele>
<time>2011-04-28T06:48:14Z</time>
<desc>lat.=22.036240, lon.=104.688232, Alt.=138.666138m. Speed=27.540001m/h.</desc>
<speed>7.650000</speed>
</trkpt>
<trkpt lat="22.036104" lon="104.688881">
<ele>137.9</ele>
<time>2011-04-28T06:48:24Z</time>
<desc>lat.=22.036104, lon.=104.688881, Alt.=140.158325m. Speed=22.320000m/h.</desc>
<speed>6.200000</speed>
</trkpt>
<trkpt lat="22.034933" lon="104.689331">
<ele>131.9</ele>
<time>2011-04-28T06:48:44Z</time>
<desc>lat.=22.034933, lon.=104.689331, Alt.=137.810669m. Speed=29.771999m/h.</desc>
<speed>8.270000</speed>
</trkpt>
<trkpt lat="22.034437" lon="104.689934">
<ele>127.3</ele>
<time>2011-04-28T06:48:54Z</time>
<desc>lat.=22.034437, lon.=104.689934, Alt.=134.189575m. Speed=31.464001m/h.</desc>
<speed>8.740000</speed>
</trkpt>
<trkpt lat="22.034470" lon="104.690392">
<ele>123.1</ele>
<time>2011-04-28T06:48:59Z</time>
<desc>lat.=22.034470, lon.=104.690392, Alt.=129.423950m. Speed=28.260000m/h.</desc>
<speed>7.850000</speed>
</trkpt>
<trkpt lat="22.034317" lon="104.690636">
<ele>123.1</ele>
<time>2011-04-28T06:49:04Z</time>
<desc>lat.=22.034317, lon.=104.690636, Alt.=125.245178m. Speed=21.384001m/h.</desc>
<speed>5.940000</speed>
</trkpt>
<trkpt lat="22.034019" lon="104.690697">
<ele>124.5</ele>
<time>2011-04-28T06:49:09Z</time>
<desc>lat.=22.034019, lon.=104.690697, Alt.=120.540100m. Speed=25.128000m/h.</desc>
<speed>6.980000</speed>
</trkpt>
<trkpt lat="22.033436" lon="104.691208">
<ele>120.0</ele>
<time>2011-04-28T06:49:19Z</time>
<desc>lat.=22.033436, lon.=104.691208, Alt.=116.825256m. Speed=28.403999m/h.</desc>
<speed>7.890000</speed>
</trkpt>
<trkpt lat="22.033062" lon="104.691940">
<ele>119.5</ele>
<time>2011-04-28T06:49:29Z</time>
<desc>lat.=22.033062, lon.=104.691940, Alt.=116.739319m. Speed=28.332001m/h.</desc>
<speed>7.870000</speed>
</trkpt>
<trkpt lat="22.032024" lon="104.692543">
<ele>108.5</ele>
<time>2011-04-28T06:49:44Z</time>
<desc>lat.=22.032024, lon.=104.692543, Alt.=116.124084m. Speed=25.559999m/h.</desc>
<speed>7.100000</speed>
</trkpt>
<trkpt lat="22.032253" lon="104.693954">
<ele>109.1</ele>
<time>2011-04-28T06:50:04Z</time>
<desc>lat.=22.032253, lon.=104.693954, Alt.=105.768616m. Speed=27.792000m/h.</desc>
<speed>7.720000</speed>
</trkpt>
<trkpt lat="22.032221" lon="104.694794">
<ele>110.7</ele>
<time>2011-04-28T06:50:14Z</time>
<desc>lat.=22.032221, lon.=104.694794, Alt.=106.393616m. Speed=29.268000m/h.</desc>
<speed>8.130000</speed>
</trkpt>
<trkpt lat="22.031925" lon="104.695351">
<ele>108.2</ele>
<time>2011-04-28T06:50:29Z</time>
<desc>lat.=22.031925, lon.=104.695351, Alt.=109.188538m. Speed=7.236000m/h.</desc>
<speed>2.010000</speed>
</trkpt>
<trkpt lat="22.031275" lon="104.695900">
<ele>108.8</ele>
<time>2011-04-28T06:50:44Z</time>
<desc>lat.=22.031275, lon.=104.695900, Alt.=113.235413m. Speed=27.719999m/h.</desc>
<speed>7.700000</speed>
</trkpt>
<trkpt lat="22.030739" lon="104.696739">
<ele>96.6</ele>
<time>2011-04-28T06:50:54Z</time>
<desc>lat.=22.030739, lon.=104.696739, Alt.=115.239319m. Speed=37.403999m/h.</desc>
<speed>10.390000</speed>
</trkpt>
<trkpt lat="22.030529" lon="104.697258">
<ele>91.9</ele>
<time>2011-04-28T06:50:59Z</time>
<desc>lat.=22.030529, lon.=104.697258, Alt.=114.485413m. Speed=30.816000m/h.</desc>
<speed>8.560000</speed>
</trkpt>
<trkpt lat="22.030476" lon="104.698166">
<ele>91.8</ele>
<time>2011-04-28T06:51:09Z</time>
<desc>lat.=22.030476, lon.=104.698166, Alt.=111.454163m. Speed=29.952000m/h.</desc>
<speed>8.320000</speed>
</trkpt>
<trkpt lat="22.030073" lon="104.699013">
<ele>93.8</ele>
<time>2011-04-28T06:51:24Z</time>
<desc>lat.=22.030073, lon.=104.699013, Alt.=105.751038m. Speed=18.827999m/h.</desc>
<speed>5.230000</speed>
</trkpt>
<trkpt lat="22.030313" lon="104.699539">
<ele>94.2</ele>
<time>2011-04-28T06:51:34Z</time>
<desc>lat.=22.030313, lon.=104.699539, Alt.=101.501038m. Speed=24.444000m/h.</desc>
<speed>6.790000</speed>
</trkpt>
<trkpt lat="22.029480" lon="104.700493">
<ele>77.9</ele>
<time>2011-04-28T06:51:49Z</time>
<desc>lat.=22.029480, lon.=104.700493, Alt.=95.936584m. Speed=24.408001m/h.</desc>
<speed>6.780000</speed>
</trkpt>
<trkpt lat="22.028887" lon="104.701607">
<ele>71.0</ele>
<time>2011-04-28T06:52:04Z</time>
<desc>lat.=22.028887, lon.=104.701607, Alt.=90.319397m. Speed=33.588001m/h.</desc>
<speed>9.330000</speed>
</trkpt>
<trkpt lat="22.028572" lon="104.702698">
<ele>66.2</ele>
<time>2011-04-28T06:52:14Z</time>
<desc>lat.=22.028572, lon.=104.702698, Alt.=85.485413m. Speed=41.076000m/h.</desc>
<speed>11.410000</speed>
</trkpt>
<trkpt lat="22.027580" lon="104.703308">
<ele>74.8</ele>
<time>2011-04-28T06:52:29Z</time>
<desc>lat.=22.027580, lon.=104.703308, Alt.=80.879944m. Speed=20.771999m/h.</desc>
<speed>5.770000</speed>
</trkpt>
<trkpt lat="22.026442" lon="104.702957">
<ele>73.6</ele>
<time>2011-04-28T06:53:04Z</time>
<desc>lat.=22.026442, lon.=104.702957, Alt.=78.659241m. Speed=9.828000m/h.</desc>
<speed>2.730000</speed>
</trkpt>
<trkpt lat="22.025148" lon="104.703178">
<ele>74.6</ele>
<time>2011-04-28T06:53:54Z</time>
<desc>lat.=22.025148, lon.=104.703178, Alt.=80.385803m. Speed=11.916000m/h.</desc>
<speed>3.310000</speed>
</trkpt>
<trkpt lat="22.024893" lon="104.703743">
<ele>80.0</ele>
<time>2011-04-28T06:54:09Z</time>
<desc>lat.=22.024893, lon.=104.703743, Alt.=79.907288m. Speed=17.856001m/h.</desc>
<speed>4.960000</speed>
</trkpt>
<trkpt lat="22.023849" lon="104.705063">
<ele>81.5</ele>
<time>2011-04-28T06:54:49Z</time>
<desc>lat.=22.023849, lon.=104.705063, Alt.=77.928772m. Speed=11.952000m/h.</desc>
<speed>3.320000</speed>
</trkpt>
<trkpt lat="22.023180" lon="104.705444">
<ele>75.8</ele>
<time>2011-04-28T06:55:14Z</time>
<desc>lat.=22.023180, lon.=104.705444, Alt.=79.083069m. Speed=14.436000m/h.</desc>
<speed>4.010000</speed>
</trkpt>
<trkpt lat="22.023132" lon="104.706734">
<ele>85.3</ele>
<time>2011-04-28T06:55:49Z</time>
<desc>lat.=22.023132, lon.=104.706734, Alt.=77.458069m. Speed=8.676000m/h.</desc>
<speed>2.410000</speed>
</trkpt>
<trkpt lat="22.022404" lon="104.706947">
<ele>76.8</ele>
<time>2011-04-28T06:56:04Z</time>
<desc>lat.=22.022404, lon.=104.706947, Alt.=76.286194m. Speed=17.856001m/h.</desc>
<speed>4.960000</speed>
</trkpt>
<trkpt lat="22.021187" lon="104.708618">
<ele>82.9</ele>
<time>2011-04-28T06:56:44Z</time>
<desc>lat.=22.021187, lon.=104.708618, Alt.=72.764709m. Speed=16.344000m/h.</desc>
<speed>4.540000</speed>
</trkpt>
<trkpt lat="22.020239" lon="104.709068">
<ele>79.8</ele>
<time>2011-04-28T06:57:09Z</time>
<desc>lat.=22.020239, lon.=104.709068, Alt.=76.336975m. Speed=16.020000m/h.</desc>
<speed>4.450000</speed>
</trkpt>
<trkpt lat="22.020178" lon="104.709961">
<ele>79.3</ele>
<time>2011-04-28T06:57:29Z</time>
<desc>lat.=22.020178, lon.=104.709961, Alt.=77.071350m. Speed=17.208000m/h.</desc>
<speed>4.780000</speed>
</trkpt>
<trkpt lat="22.019535" lon="104.710999">
<ele>88.9</ele>
<time>2011-04-28T06:58:04Z</time>
<desc>lat.=22.019535, lon.=104.710999, Alt.=77.805725m. Speed=7.704000m/h.</desc>
<speed>2.140000</speed>
</trkpt>
<trkpt lat="22.018942" lon="104.711159">
<ele>90.4</ele>
<time>2011-04-28T06:58:34Z</time>
<desc>lat.=22.018942, lon.=104.711159, Alt.=84.206116m. Speed=7.740000m/h.</desc>
<speed>2.150000</speed>
</trkpt>
<trkpt lat="22.018604" lon="104.711487">
<ele>94.4</ele>
<time>2011-04-28T06:58:54Z</time>
<desc>lat.=22.018604, lon.=104.711487, Alt.=84.532288m. Speed=7.632000m/h.</desc>
<speed>2.120000</speed>
</trkpt>
<trkpt lat="22.017576" lon="104.711929">
<ele>97.3</ele>
<time>2011-04-28T06:59:44Z</time>
<desc>lat.=22.017576, lon.=104.711929, Alt.=90.815491m. Speed=8.100000m/h.</desc>
<speed>2.250000</speed>
</trkpt>
<trkpt lat="22.017342" lon="104.712151">
<ele>92.0</ele>
<time>2011-04-28T06:59:59Z</time>
<desc>lat.=22.017342, lon.=104.712151, Alt.=91.596741m. Speed=8.964000m/h.</desc>
<speed>2.490000</speed>
</trkpt>
<trkpt lat="22.017284" lon="104.712845">
<ele>99.3</ele>
<time>2011-04-28T07:00:29Z</time>
<desc>lat.=22.017284, lon.=104.712845, Alt.=91.278381m. Speed=7.956000m/h.</desc>
<speed>2.210000</speed>
</trkpt>
<trkpt lat="22.015190" lon="104.713928">
<ele>109.0</ele>
<time>2011-04-28T07:03:19Z</time>
<desc>lat.=22.015190, lon.=104.713928, Alt.=114.379944m. Speed=0.684000m/h.</desc>
<speed>0.190000</speed>
</trkpt>
<trkpt lat="22.014902" lon="104.715462">
<ele>130.8</ele>
<time>2011-04-28T07:05:04Z</time>
<desc>lat.=22.014902, lon.=104.715462, Alt.=113.797913m. Speed=10.548000m/h.</desc>
<speed>2.930000</speed>
</trkpt>
<trkpt lat="22.014650" lon="104.715622">
<ele>138.8</ele>
<time>2011-04-28T07:05:14Z</time>
<desc>lat.=22.014650, lon.=104.715622, Alt.=116.395569m. Speed=7.776000m/h.</desc>
<speed>2.160000</speed>
</trkpt>
<trkpt lat="22.014275" lon="104.715477">
<ele>129.8</ele>
<time>2011-04-28T07:05:34Z</time>
<desc>lat.=22.014275, lon.=104.715477, Alt.=125.655334m. Speed=8.748000m/h.</desc>
<speed>2.430000</speed>
</trkpt>
<trkpt lat="22.013845" lon="104.716217">
<ele>134.0</ele>
<time>2011-04-28T07:06:09Z</time>
<desc>lat.=22.013845, lon.=104.716217, Alt.=124.688538m. Speed=10.800000m/h.</desc>
<speed>3.000000</speed>
</trkpt>
<trkpt lat="22.013395" lon="104.716484">
<ele>130.8</ele>
<time>2011-04-28T07:06:29Z</time>
<desc>lat.=22.013395, lon.=104.716484, Alt.=127.811584m. Speed=9.216000m/h.</desc>
<speed>2.560000</speed>
</trkpt>
<trkpt lat="22.012978" lon="104.717018">
<ele>146.7</ele>
<time>2011-04-28T07:06:54Z</time>
<desc>lat.=22.012978, lon.=104.717018, Alt.=132.880981m. Speed=8.640000m/h.</desc>
<speed>2.400000</speed>
</trkpt>
<trkpt lat="22.012564" lon="104.717201">
<ele>145.5</ele>
<time>2011-04-28T07:07:14Z</time>
<desc>lat.=22.012564, lon.=104.717201, Alt.=138.463013m. Speed=8.676000m/h.</desc>
<speed>2.410000</speed>
</trkpt>
<trkpt lat="22.011522" lon="104.717041">
<ele>147.1</ele>
<time>2011-04-28T07:07:59Z</time>
<desc>lat.=22.011522, lon.=104.717041, Alt.=157.841919m. Speed=8.856000m/h.</desc>
<speed>2.460000</speed>
</trkpt>
<trkpt lat="22.011190" lon="104.717125">
<ele>148.5</ele>
<time>2011-04-28T07:08:49Z</time>
<desc>lat.=22.011190, lon.=104.717125, Alt.=157.259888m. Speed=0.540000m/h.</desc>
<speed>0.150000</speed>
</trkpt>
<trkpt lat="22.011290" lon="104.717155">
<ele>147.1</ele>
<time>2011-04-28T07:18:24Z</time>
<desc>lat.=22.011290, lon.=104.717155, Alt.=159.443481m. Speed=0.000000m/h.</desc>
<speed>0.000000</speed>
</trkpt>
<trkpt lat="22.010515" lon="104.718132">
<ele>133.5</ele>
<time>2011-04-28T07:20:49Z</time>
<desc>lat.=22.010515, lon.=104.718132, Alt.=145.466919m. Speed=25.992001m/h.</desc>
<speed>7.220000</speed>
</trkpt>
<trkpt lat="22.010286" lon="104.718811">
<ele>123.4</ele>
<time>2011-04-28T07:20:59Z</time>
<desc>lat.=22.010286, lon.=104.718811, Alt.=137.736450m. Speed=21.780001m/h.</desc>
<speed>6.050000</speed>
</trkpt>
<trkpt lat="22.010859" lon="104.719315">
<ele>120.7</ele>
<time>2011-04-28T07:21:09Z</time>
<desc>lat.=22.010859, lon.=104.719315, Alt.=130.470825m. Speed=26.892000m/h.</desc>
<speed>7.470000</speed>
</trkpt>
<trkpt lat="22.010984" lon="104.719597">
<ele>121.6</ele>
<time>2011-04-28T07:21:14Z</time>
<desc>lat.=22.010984, lon.=104.719597, Alt.=128.584106m. Speed=19.620001m/h.</desc>
<speed>5.450000</speed>
</trkpt>
<trkpt lat="22.010794" lon="104.719841">
<ele>121.9</ele>
<time>2011-04-28T07:21:19Z</time>
<desc>lat.=22.010794, lon.=104.719841, Alt.=123.028381m. Speed=24.228001m/h.</desc>
<speed>6.730000</speed>
</trkpt>
<trkpt lat="22.010208" lon="104.720062">
<ele>117.8</ele>
<time>2011-04-28T07:21:29Z</time>
<desc>lat.=22.010208, lon.=104.720062, Alt.=111.092834m. Speed=27.000000m/h.</desc>
<speed>7.500000</speed>
</trkpt>
<trkpt lat="22.009579" lon="104.720695">
<ele>105.2</ele>
<time>2011-04-28T07:21:44Z</time>
<desc>lat.=22.009579, lon.=104.720695, Alt.=103.667053m. Speed=20.448000m/h.</desc>
<speed>5.680000</speed>
</trkpt>
<trkpt lat="22.009003" lon="104.722061">
<ele>93.5</ele>
<time>2011-04-28T07:21:59Z</time>
<desc>lat.=22.009003, lon.=104.722061, Alt.=91.139709m. Speed=47.124001m/h.</desc>
<speed>13.090000</speed>
</trkpt>
<trkpt lat="22.008413" lon="104.722916">
<ele>92.0</ele>
<time>2011-04-28T07:22:09Z</time>
<desc>lat.=22.008413, lon.=104.722916, Alt.=89.448303m. Speed=24.587999m/h.</desc>
<speed>6.830000</speed>
</trkpt>
<trkpt lat="22.008354" lon="104.723236">
<ele>87.3</ele>
<time>2011-04-28T07:22:14Z</time>
<desc>lat.=22.008354, lon.=104.723236, Alt.=89.202209m. Speed=33.192001m/h.</desc>
<speed>9.220000</speed>
</trkpt>
<trkpt lat="22.009026" lon="104.725288">
<ele>80.0</ele>
<time>2011-04-28T07:22:39Z</time>
<desc>lat.=22.009026, lon.=104.725288, Alt.=80.079163m. Speed=19.944000m/h.</desc>
<speed>5.540000</speed>
</trkpt>
<trkpt lat="22.008991" lon="104.725586">
<ele>78.7</ele>
<time>2011-04-28T07:22:44Z</time>
<desc>lat.=22.008991, lon.=104.725586, Alt.=79.604553m. Speed=22.752001m/h.</desc>
<speed>6.320000</speed>
</trkpt>
<trkpt lat="22.008623" lon="104.726723">
<ele>70.3</ele>
<time>2011-04-28T07:23:04Z</time>
<desc>lat.=22.008623, lon.=104.726723, Alt.=73.700256m. Speed=20.628000m/h.</desc>
<speed>5.730000</speed>
</trkpt>
<trkpt lat="22.007406" lon="104.729057">
<ele>68.9</ele>
<time>2011-04-28T07:23:49Z</time>
<desc>lat.=22.007406, lon.=104.729057, Alt.=74.928772m. Speed=16.884001m/h.</desc>
<speed>4.690000</speed>
</trkpt>
<trkpt lat="22.006708" lon="104.729156">
<ele>70.1</ele>
<time>2011-04-28T07:24:04Z</time>
<desc>lat.=22.006708, lon.=104.729156, Alt.=80.542053m. Speed=13.716000m/h.</desc>
<speed>3.810000</speed>
</trkpt>
<trkpt lat="22.005608" lon="104.729744">
<ele>79.4</ele>
<time>2011-04-28T07:24:34Z</time>
<desc>lat.=22.005608, lon.=104.729744, Alt.=81.897522m. Speed=15.444000m/h.</desc>
<speed>4.290000</speed>
</trkpt>
<trkpt lat="22.004431" lon="104.729645">
<ele>72.1</ele>
<time>2011-04-28T07:25:04Z</time>
<desc>lat.=22.004431, lon.=104.729645, Alt.=90.788147m. Speed=17.532000m/h.</desc>
<speed>4.870000</speed>
</trkpt>
<trkpt lat="22.003963" lon="104.729973">
<ele>71.8</ele>
<time>2011-04-28T07:25:19Z</time>
<desc>lat.=22.003963, lon.=104.729973, Alt.=77.254944m. Speed=12.564000m/h.</desc>
<speed>3.490000</speed>
</trkpt>
<trkpt lat="22.003496" lon="104.730736">
<ele>71.7</ele>
<time>2011-04-28T07:25:39Z</time>
<desc>lat.=22.003496, lon.=104.730736, Alt.=78.747131m. Speed=15.120000m/h.</desc>
<speed>4.200000</speed>
</trkpt>
<trkpt lat="22.002438" lon="104.730721">
<ele>73.1</ele>
<time>2011-04-28T07:26:04Z</time>
<desc>lat.=22.002438, lon.=104.730721, Alt.=83.294006m. Speed=15.840000m/h.</desc>
<speed>4.400000</speed>
</trkpt>
<trkpt lat="22.000093" lon="104.731560">
<ele>82.0</ele>
<time>2011-04-28T07:27:14Z</time>
<desc>lat.=22.000093, lon.=104.731560, Alt.=76.094788m. Speed=15.948000m/h.</desc>
<speed>4.430000</speed>
</trkpt>
<trkpt lat="21.999678" lon="104.732635">
<ele>78.5</ele>
<time>2011-04-28T07:27:44Z</time>
<desc>lat.=21.999678, lon.=104.732635, Alt.=73.852600m. Speed=19.872000m/h.</desc>
<speed>5.520000</speed>
</trkpt>
<trkpt lat="21.997154" lon="104.734444">
<ele>85.8</ele>
<time>2011-04-28T07:29:04Z</time>
<desc>lat.=21.997154, lon.=104.734444, Alt.=75.803772m. Speed=11.772000m/h.</desc>
<speed>3.270000</speed>
</trkpt>
<trkpt lat="21.995789" lon="104.735619">
<ele>92.8</ele>
<time>2011-04-28T07:30:04Z</time>
<desc>lat.=21.995789, lon.=104.735619, Alt.=88.977600m. Speed=6.660000m/h.</desc>
<speed>1.850000</speed>
</trkpt>
<trkpt lat="21.994263" lon="104.736221">
<ele>112.2</ele>
<time>2011-04-28T07:32:14Z</time>
<desc>lat.=21.994263, lon.=104.736221, Alt.=96.395569m. Speed=3.276000m/h.</desc>
<speed>0.910000</speed>
</trkpt>
<trkpt lat="21.993849" lon="104.736671">
<ele>127.5</ele>
<time>2011-04-28T07:32:49Z</time>
<desc>lat.=21.993849, lon.=104.736671, Alt.=104.210022m. Speed=6.192000m/h.</desc>
<speed>1.720000</speed>
</trkpt>
<trkpt lat="21.993820" lon="104.737396">
<ele>112.7</ele>
<time>2011-04-28T07:35:14Z</time>
<desc>lat.=21.993820, lon.=104.737396, Alt.=105.629944m. Speed=11.592000m/h.</desc>
<speed>3.220000</speed>
</trkpt>
<trkpt lat="21.993416" lon="104.737587">
<ele>111.8</ele>
<time>2011-04-28T07:35:29Z</time>
<desc>lat.=21.993416, lon.=104.737587, Alt.=107.444397m. Speed=8.784000m/h.</desc>
<speed>2.440000</speed>
</trkpt>
<trkpt lat="21.992828" lon="104.737564">
<ele>128.1</ele>
<time>2011-04-28T07:36:04Z</time>
<desc>lat.=21.992828, lon.=104.737564, Alt.=116.245178m. Speed=3.240000m/h.</desc>
<speed>0.900000</speed>
</trkpt>
<trkpt lat="21.991848" lon="104.738991">
<ele>144.1</ele>
<time>2011-04-28T07:37:34Z</time>
<desc>lat.=21.991848, lon.=104.738991, Alt.=136.420044m. Speed=7.632000m/h.</desc>
<speed>2.120000</speed>
</trkpt>
<trkpt lat="21.991192" lon="104.739410">
<ele>136.6</ele>
<time>2011-04-28T07:42:34Z</time>
<desc>lat.=21.991192, lon.=104.739410, Alt.=136.451294m. Speed=0.108000m/h.</desc>
<speed>0.030000</speed>
</trkpt>
<trkpt lat="21.991297" lon="104.739334">
<ele>142.1</ele>
<time>2011-04-28T07:46:39Z</time>
<desc>lat.=21.991297, lon.=104.739334, Alt.=143.017700m. Speed=0.180000m/h.</desc>
<speed>0.050000</speed>
</trkpt>
<trkpt lat="21.991028" lon="104.739021">
<ele>152.3</ele>
<time>2011-04-28T07:49:59Z</time>
<desc>lat.=21.991028, lon.=104.739021, Alt.=121.971741m. Speed=1.116000m/h.</desc>
<speed>0.310000</speed>
</trkpt>
<trkpt lat="21.991119" lon="104.739281">
<ele>141.0</ele>
<time>2011-04-28T07:50:44Z</time>
<desc>lat.=21.991119, lon.=104.739281, Alt.=127.840881m. Speed=8.280000m/h.</desc>
<speed>2.300000</speed>
</trkpt>
<trkpt lat="21.990686" lon="104.739441">
<ele>134.0</ele>
<time>2011-04-28T07:50:54Z</time>
<desc>lat.=21.990686, lon.=104.739441, Alt.=123.924866m. Speed=21.851999m/h.</desc>
<speed>6.070000</speed>
</trkpt>
<trkpt lat="21.990391" lon="104.739998">
<ele>125.9</ele>
<time>2011-04-28T07:51:04Z</time>
<desc>lat.=21.990391, lon.=104.739998, Alt.=112.684631m. Speed=17.639999m/h.</desc>
<speed>4.900000</speed>
</trkpt>
<trkpt lat="21.989695" lon="104.739983">
<ele>119.3</ele>
<time>2011-04-28T07:51:34Z</time>
<desc>lat.=21.989695, lon.=104.739983, Alt.=104.225647m. Speed=0.288000m/h.</desc>
<speed>0.080000</speed>
</trkpt>
<trkpt lat="21.988512" lon="104.740326">
<ele>114.8</ele>
<time>2011-04-28T07:52:04Z</time>
<desc>lat.=21.988512, lon.=104.740326, Alt.=101.840881m. Speed=21.780001m/h.</desc>
<speed>6.050000</speed>
</trkpt>
<trkpt lat="21.987677" lon="104.741379">
<ele>103.7</ele>
<time>2011-04-28T07:52:24Z</time>
<desc>lat.=21.987677, lon.=104.741379, Alt.=100.489319m. Speed=25.452000m/h.</desc>
<speed>7.070000</speed>
</trkpt>
<trkpt lat="21.987129" lon="104.741768">
<ele>102.5</ele>
<time>2011-04-28T07:52:34Z</time>
<desc>lat.=21.987129, lon.=104.741768, Alt.=96.202209m. Speed=22.535999m/h.</desc>
<speed>6.260000</speed>
</trkpt>
<trkpt lat="21.987091" lon="104.742355">
<ele>93.1</ele>
<time>2011-04-28T07:52:44Z</time>
<desc>lat.=21.987091, lon.=104.742355, Alt.=90.612366m. Speed=25.848000m/h.</desc>
<speed>7.180000</speed>
</trkpt>
<trkpt lat="21.986441" lon="104.742737">
<ele>84.5</ele>
<time>2011-04-28T07:52:54Z</time>
<desc>lat.=21.986441, lon.=104.742737, Alt.=85.219788m. Speed=30.780001m/h.</desc>
<speed>8.550000</speed>
</trkpt>
<trkpt lat="21.985241" lon="104.744316">
<ele>79.7</ele>
<time>2011-04-28T07:53:19Z</time>
<desc>lat.=21.985241, lon.=104.744316, Alt.=73.135803m. Speed=29.195999m/h.</desc>
<speed>8.110000</speed>
</trkpt>
<trkpt lat="21.982733" lon="104.746208">
<ele>86.0</ele>
<time>2011-04-28T07:54:09Z</time>
<desc>lat.=21.982733, lon.=104.746208, Alt.=67.047913m. Speed=26.172001m/h.</desc>
<speed>7.270000</speed>
</trkpt>
<trkpt lat="21.981686" lon="104.747467">
<ele>88.9</ele>
<time>2011-04-28T07:54:44Z</time>
<desc>lat.=21.981686, lon.=104.747467, Alt.=70.590881m. Speed=16.775999m/h.</desc>
<speed>4.660000</speed>
</trkpt>
<trkpt lat="21.980444" lon="104.747917">
<ele>86.6</ele>
<time>2011-04-28T07:55:14Z</time>
<desc>lat.=21.980444, lon.=104.747917, Alt.=67.780334m. Speed=18.792000m/h.</desc>
<speed>5.220000</speed>
</trkpt>
<trkpt lat="21.979771" lon="104.747932">
<ele>79.0</ele>
<time>2011-04-28T07:55:29Z</time>
<desc>lat.=21.979771, lon.=104.747932, Alt.=62.206573m. Speed=16.955999m/h.</desc>
<speed>4.710000</speed>
</trkpt>
<trkpt lat="21.979334" lon="104.747688">
<ele>77.3</ele>
<time>2011-04-28T07:55:39Z</time>
<desc>lat.=21.979334, lon.=104.747688, Alt.=67.430725m. Speed=21.816000m/h.</desc>
<speed>6.060000</speed>
</trkpt>
<trkpt lat="21.979031" lon="104.747711">
<ele>76.2</ele>
<time>2011-04-28T07:55:44Z</time>
<desc>lat.=21.979031, lon.=104.747711, Alt.=68.790100m. Speed=28.691999m/h.</desc>
<speed>7.970000</speed>
</trkpt>
<trkpt lat="21.978062" lon="104.748680">
<ele>80.9</ele>
<time>2011-04-28T07:56:09Z</time>
<desc>lat.=21.978062, lon.=104.748680, Alt.=69.040100m. Speed=12.672000m/h.</desc>
<speed>3.520000</speed>
</trkpt>
<trkpt lat="21.977501" lon="104.749748">
<ele>77.4</ele>
<time>2011-04-28T07:56:34Z</time>
<desc>lat.=21.977501, lon.=104.749748, Alt.=69.422913m. Speed=23.004000m/h.</desc>
<speed>6.390000</speed>
</trkpt>
<trkpt lat="21.975967" lon="104.750862">
<ele>72.4</ele>
<time>2011-04-28T07:56:59Z</time>
<desc>lat.=21.975967, lon.=104.750862, Alt.=68.522522m. Speed=26.100000m/h.</desc>
<speed>7.250000</speed>
</trkpt>
<trkpt lat="21.975401" lon="104.750702">
<ele>78.7</ele>
<time>2011-04-28T07:57:09Z</time>
<desc>lat.=21.975401, lon.=104.750702, Alt.=65.155334m. Speed=15.660000m/h.</desc>
<speed>4.350000</speed>
</trkpt>
<trkpt lat="21.974974" lon="104.750290">
<ele>87.5</ele>
<time>2011-04-28T07:57:24Z</time>
<desc>lat.=21.974974, lon.=104.750290, Alt.=67.956116m. Speed=9.396000m/h.</desc>
<speed>2.610000</speed>
</trkpt>
<trkpt lat="21.974684" lon="104.750244">
<ele>82.9</ele>
<time>2011-04-28T07:57:34Z</time>
<desc>lat.=21.974684, lon.=104.750244, Alt.=67.835022m. Speed=10.332000m/h.</desc>
<speed>2.870000</speed>
</trkpt>
<trkpt lat="21.972706" lon="104.751236">
<ele>88.6</ele>
<time>2011-04-28T07:58:54Z</time>
<desc>lat.=21.972706, lon.=104.751236, Alt.=80.151428m. Speed=3.528000m/h.</desc>
<speed>0.980000</speed>
</trkpt>
<trkpt lat="21.970892" lon="104.752975">
<ele>75.1</ele>
<time>2011-04-28T08:00:44Z</time>
<desc>lat.=21.970892, lon.=104.752975, Alt.=68.844788m. Speed=22.212000m/h.</desc>
<speed>6.170000</speed>
</trkpt>
<trkpt lat="21.970907" lon="104.754799">
<ele>70.7</ele>
<time>2011-04-28T08:01:14Z</time>
<desc>lat.=21.970907, lon.=104.754799, Alt.=62.378448m. Speed=15.156000m/h.</desc>
<speed>4.210000</speed>
</trkpt>
<trkpt lat="21.970781" lon="104.755074">
<ele>70.8</ele>
<time>2011-04-28T08:01:24Z</time>
<desc>lat.=21.970781, lon.=104.755074, Alt.=62.721222m. Speed=11.952000m/h.</desc>
<speed>3.320000</speed>
</trkpt>
<trkpt lat="21.969000" lon="104.756500">
<ele>76.5</ele>
<time>2011-04-28T08:02:29Z</time>
<desc>lat.=21.969000, lon.=104.756500, Alt.=69.178772m. Speed=12.168000m/h.</desc>
<speed>3.380000</speed>
</trkpt>
<trkpt lat="21.967522" lon="104.758629">
<ele>78.2</ele>
<time>2011-04-28T08:03:44Z</time>
<desc>lat.=21.967522, lon.=104.758629, Alt.=76.547913m. Speed=13.788000m/h.</desc>
<speed>3.830000</speed>
</trkpt>
<trkpt lat="21.965292" lon="104.759377">
<ele>88.5</ele>
<time>2011-04-28T08:04:54Z</time>
<desc>lat.=21.965292, lon.=104.759377, Alt.=63.206573m. Speed=15.552000m/h.</desc>
<speed>4.320000</speed>
</trkpt>
<trkpt lat="21.964901" lon="104.760498">
<ele>84.7</ele>
<time>2011-04-28T08:05:14Z</time>
<desc>lat.=21.964901, lon.=104.760498, Alt.=65.840881m. Speed=10.980000m/h.</desc>
<speed>3.050000</speed>
</trkpt>
<trkpt lat="21.964104" lon="104.761215">
<ele>78.4</ele>
<time>2011-04-28T08:05:44Z</time>
<desc>lat.=21.964104, lon.=104.761215, Alt.=68.438538m. Speed=16.379999m/h.</desc>
<speed>4.550000</speed>
</trkpt>
<trkpt lat="21.962559" lon="104.761414">
<ele>90.6</ele>
<time>2011-04-28T08:06:19Z</time>
<desc>lat.=21.962559, lon.=104.761414, Alt.=59.047394m. Speed=12.708000m/h.</desc>
<speed>3.530000</speed>
</trkpt>
<trkpt lat="21.961788" lon="104.761917">
<ele>81.6</ele>
<time>2011-04-28T08:06:34Z</time>
<desc>lat.=21.961788, lon.=104.761917, Alt.=58.988800m. Speed=17.747999m/h.</desc>
<speed>4.930000</speed>
</trkpt>
<trkpt lat="21.961452" lon="104.762466">
<ele>80.1</ele>
<time>2011-04-28T08:06:49Z</time>
<desc>lat.=21.961452, lon.=104.762466, Alt.=62.526886m. Speed=14.616000m/h.</desc>
<speed>4.060000</speed>
</trkpt>
<trkpt lat="21.960838" lon="104.762444">
<ele>83.2</ele>
<time>2011-04-28T08:07:04Z</time>
<desc>lat.=21.960838, lon.=104.762444, Alt.=65.991272m. Speed=16.632000m/h.</desc>
<speed>4.620000</speed>
</trkpt>
<trkpt lat="21.960228" lon="104.763924">
<ele>88.0</ele>
<time>2011-04-28T08:07:44Z</time>
<desc>lat.=21.960228, lon.=104.763924, Alt.=74.692444m. Speed=14.868000m/h.</desc>
<speed>4.130000</speed>
</trkpt>
<trkpt lat="21.959805" lon="104.764160">
<ele>84.1</ele>
<time>2011-04-28T08:07:54Z</time>
<desc>lat.=21.959805, lon.=104.764160, Alt.=76.614319m. Speed=17.892000m/h.</desc>
<speed>4.970000</speed>
</trkpt>
<trkpt lat="21.959248" lon="104.764061">
<ele>84.5</ele>
<time>2011-04-28T08:08:04Z</time>
<desc>lat.=21.959248, lon.=104.764061, Alt.=76.647522m. Speed=22.680000m/h.</desc>
<speed>6.300000</speed>
</trkpt>
<trkpt lat="21.958328" lon="104.765388">
<ele>95.3</ele>
<time>2011-04-28T08:08:39Z</time>
<desc>lat.=21.958328, lon.=104.765388, Alt.=85.274475m. Speed=10.584000m/h.</desc>
<speed>2.940000</speed>
</trkpt>
<trkpt lat="21.958298" lon="104.766312">
<ele>93.3</ele>
<time>2011-04-28T08:08:59Z</time>
<desc>lat.=21.958298, lon.=104.766312, Alt.=90.381897m. Speed=14.544000m/h.</desc>
<speed>4.040000</speed>
</trkpt>
<trkpt lat="21.958067" lon="104.766693">
<ele>90.9</ele>
<time>2011-04-28T08:09:09Z</time>
<desc>lat.=21.958067, lon.=104.766693, Alt.=88.844788m. Speed=15.804000m/h.</desc>
<speed>4.390000</speed>
</trkpt>
<trkpt lat="21.955980" lon="104.767967">
<ele>108.7</ele>
<time>2011-04-28T08:10:49Z</time>
<desc>lat.=21.955980, lon.=104.767967, Alt.=88.616272m. Speed=9.648000m/h.</desc>
<speed>2.680000</speed>
</trkpt>
<trkpt lat="21.955276" lon="104.768234">
<ele>111.0</ele>
<time>2011-04-28T08:11:19Z</time>
<desc>lat.=21.955276, lon.=104.768234, Alt.=93.928772m. Speed=7.488000m/h.</desc>
<speed>2.080000</speed>
</trkpt>
<trkpt lat="21.955212" lon="104.768944">
<ele>111.8</ele>
<time>2011-04-28T08:11:54Z</time>
<desc>lat.=21.955212, lon.=104.768944, Alt.=96.528381m. Speed=9.036000m/h.</desc>
<speed>2.510000</speed>
</trkpt>
<trkpt lat="21.954960" lon="104.769188">
<ele>108.4</ele>
<time>2011-04-28T08:12:09Z</time>
<desc>lat.=21.954960, lon.=104.769188, Alt.=92.260803m. Speed=9.036000m/h.</desc>
<speed>2.510000</speed>
</trkpt>
<trkpt lat="21.953251" lon="104.770164">
<ele>96.6</ele>
<time>2011-04-28T08:12:49Z</time>
<desc>lat.=21.953251, lon.=104.770164, Alt.=91.063538m. Speed=37.944000m/h.</desc>
<speed>10.540000</speed>
</trkpt>
<trkpt lat="21.952122" lon="104.770500">
<ele>99.3</ele>
<time>2011-04-28T08:13:04Z</time>
<desc>lat.=21.952122, lon.=104.770500, Alt.=86.883850m. Speed=24.695999m/h.</desc>
<speed>6.860000</speed>
</trkpt>
<trkpt lat="21.951235" lon="104.772133">
<ele>87.9</ele>
<time>2011-04-28T08:13:34Z</time>
<desc>lat.=21.951235, lon.=104.772133, Alt.=78.676819m. Speed=39.636002m/h.</desc>
<speed>11.010000</speed>
</trkpt>
<trkpt lat="21.949415" lon="104.773224">
<ele>90.0</ele>
<time>2011-04-28T08:14:09Z</time>
<desc>lat.=21.949415, lon.=104.773224, Alt.=68.127991m. Speed=23.219999m/h.</desc>
<speed>6.450000</speed>
</trkpt>
<trkpt lat="21.947937" lon="104.774712">
<ele>88.9</ele>
<time>2011-04-28T08:14:44Z</time>
<desc>lat.=21.947937, lon.=104.774712, Alt.=67.405334m. Speed=20.087999m/h.</desc>
<speed>5.580000</speed>
</trkpt>
<trkpt lat="21.947105" lon="104.775017">
<ele>90.6</ele>
<time>2011-04-28T08:15:04Z</time>
<desc>lat.=21.947105, lon.=104.775017, Alt.=70.659241m. Speed=15.048000m/h.</desc>
<speed>4.180000</speed>
</trkpt>
<trkpt lat="21.946335" lon="104.775551">
<ele>84.3</ele>
<time>2011-04-28T08:15:24Z</time>
<desc>lat.=21.946335, lon.=104.775551, Alt.=69.292053m. Speed=16.884001m/h.</desc>
<speed>4.690000</speed>
</trkpt>
<trkpt lat="21.946190" lon="104.775711">
<ele>82.7</ele>
<time>2011-04-28T08:15:29Z</time>
<desc>lat.=21.946190, lon.=104.775711, Alt.=69.858459m. Speed=16.128000m/h.</desc>
<speed>4.480000</speed>
</trkpt>
<trkpt lat="21.946081" lon="104.776932">
<ele>87.0</ele>
<time>2011-04-28T08:15:49Z</time>
<desc>lat.=21.946081, lon.=104.776932, Alt.=66.501038m. Speed=18.540001m/h.</desc>
<speed>5.150000</speed>
</trkpt>
<trkpt lat="21.945473" lon="104.777344">
<ele>81.2</ele>
<time>2011-04-28T08:16:04Z</time>
<desc>lat.=21.945473, lon.=104.777344, Alt.=65.450256m. Speed=14.256000m/h.</desc>
<speed>3.960000</speed>
</trkpt>
<trkpt lat="21.945288" lon="104.778137">
<ele>84.0</ele>
<time>2011-04-28T08:16:19Z</time>
<desc>lat.=21.945288, lon.=104.778137, Alt.=63.625519m. Speed=23.219999m/h.</desc>
<speed>6.450000</speed>
</trkpt>
<trkpt lat="21.945005" lon="104.778603">
<ele>88.2</ele>
<time>2011-04-28T08:16:29Z</time>
<desc>lat.=21.945005, lon.=104.778603, Alt.=65.249084m. Speed=13.320000m/h.</desc>
<speed>3.700000</speed>
</trkpt>
<trkpt lat="21.942831" lon="104.779633">
<ele>91.3</ele>
<time>2011-04-28T08:21:34Z</time>
<desc>lat.=21.942831, lon.=104.779633, Alt.=85.174866m. Speed=24.011999m/h.</desc>
<speed>6.670000</speed>
</trkpt>
<trkpt lat="21.942497" lon="104.780197">
<ele>87.6</ele>
<time>2011-04-28T08:21:44Z</time>
<desc>lat.=21.942497, lon.=104.780197, Alt.=86.059631m. Speed=24.516001m/h.</desc>
<speed>6.810000</speed>
</trkpt>
<trkpt lat="21.941885" lon="104.780716">
<ele>83.4</ele>
<time>2011-04-28T08:21:54Z</time>
<desc>lat.=21.941885, lon.=104.780716, Alt.=84.522522m. Speed=21.455999m/h.</desc>
<speed>5.960000</speed>
</trkpt>
<trkpt lat="21.942526" lon="104.782509">
<ele>75.8</ele>
<time>2011-04-28T08:22:19Z</time>
<desc>lat.=21.942526, lon.=104.782509, Alt.=76.335022m. Speed=23.472000m/h.</desc>
<speed>6.520000</speed>
</trkpt>
<trkpt lat="21.942400" lon="104.783546">
<ele>75.6</ele>
<time>2011-04-28T08:22:39Z</time>
<desc>lat.=21.942400, lon.=104.783546, Alt.=63.002472m. Speed=21.096001m/h.</desc>
<speed>5.860000</speed>
</trkpt>
<trkpt lat="21.942070" lon="104.784035">
<ele>75.4</ele>
<time>2011-04-28T08:22:49Z</time>
<desc>lat.=21.942070, lon.=104.784035, Alt.=61.162628m. Speed=21.672001m/h.</desc>
<speed>6.020000</speed>
</trkpt>
<trkpt lat="21.940649" lon="104.785202">
<ele>78.2</ele>
<time>2011-04-28T08:23:29Z</time>
<desc>lat.=21.940649, lon.=104.785202, Alt.=67.553772m. Speed=11.052000m/h.</desc>
<speed>3.070000</speed>
</trkpt>
<trkpt lat="21.940029" lon="104.785797">
<ele>80.4</ele>
<time>2011-04-28T08:24:44Z</time>
<desc>lat.=21.940029, lon.=104.785797, Alt.=72.729553m. Speed=0.036000m/h.</desc>
<speed>0.010000</speed>
</trkpt>
<trkpt lat="21.940052" lon="104.785927">
<ele>86.7</ele>
<time>2011-04-28T08:32:04Z</time>
<desc>lat.=21.940052, lon.=104.785927, Alt.=70.169006m. Speed=0.468000m/h.</desc>
<speed>0.130000</speed>
</trkpt>
<trkpt lat="21.939596" lon="104.786102">
<ele>83.1</ele>
<time>2011-04-28T08:32:54Z</time>
<desc>lat.=21.939596, lon.=104.786102, Alt.=66.786194m. Speed=12.888000m/h.</desc>
<speed>3.580000</speed>
</trkpt>
<trkpt lat="21.938101" lon="104.786217">
<ele>93.9</ele>
<time>2011-04-28T08:33:29Z</time>
<desc>lat.=21.938101, lon.=104.786217, Alt.=77.545959m. Speed=9.216000m/h.</desc>
<speed>2.560000</speed>
</trkpt>
<trkpt lat="21.936892" lon="104.786057">
<ele>85.6</ele>
<time>2011-04-28T08:34:04Z</time>
<desc>lat.=21.936892, lon.=104.786057, Alt.=73.915100m. Speed=13.716000m/h.</desc>
<speed>3.810000</speed>
</trkpt>
<trkpt lat="21.936106" lon="104.786308">
<ele>80.2</ele>
<time>2011-04-28T08:34:19Z</time>
<desc>lat.=21.936106, lon.=104.786308, Alt.=69.879944m. Speed=20.448000m/h.</desc>
<speed>5.680000</speed>
</trkpt>
<trkpt lat="21.935513" lon="104.787209">
<ele>77.3</ele>
<time>2011-04-28T08:34:39Z</time>
<desc>lat.=21.935513, lon.=104.787209, Alt.=58.254425m. Speed=17.063999m/h.</desc>
<speed>4.740000</speed>
</trkpt>
<trkpt lat="21.932673" lon="104.788994">
<ele>80.8</ele>
<time>2011-04-28T08:35:44Z</time>
<desc>lat.=21.932673, lon.=104.788994, Alt.=69.370178m. Speed=20.304001m/h.</desc>
<speed>5.640000</speed>
</trkpt>
<trkpt lat="21.932333" lon="104.789505">
<ele>79.4</ele>
<time>2011-04-28T08:35:54Z</time>
<desc>lat.=21.932333, lon.=104.789505, Alt.=71.419006m. Speed=20.232000m/h.</desc>
<speed>5.620000</speed>
</trkpt>
<trkpt lat="21.932291" lon="104.790016">
<ele>82.7</ele>
<time>2011-04-28T08:36:04Z</time>
<desc>lat.=21.932291, lon.=104.790016, Alt.=68.340881m. Speed=19.908001m/h.</desc>
<speed>5.530000</speed>
</trkpt>
<trkpt lat="21.931665" lon="104.791100">
<ele>87.7</ele>
<time>2011-04-28T08:36:34Z</time>
<desc>lat.=21.931665, lon.=104.791100, Alt.=71.450256m. Speed=7.056000m/h.</desc>
<speed>1.960000</speed>
</trkpt>
<trkpt lat="21.931160" lon="104.791573">
<ele>81.2</ele>
<time>2011-04-28T08:36:54Z</time>
<desc>lat.=21.931160, lon.=104.791573, Alt.=68.073303m. Speed=18.468000m/h.</desc>
<speed>5.130000</speed>
</trkpt>
<trkpt lat="21.930916" lon="104.792099">
<ele>88.7</ele>
<time>2011-04-28T08:37:09Z</time>
<desc>lat.=21.930916, lon.=104.792099, Alt.=63.825714m. Speed=8.172000m/h.</desc>
<speed>2.270000</speed>
</trkpt>
<trkpt lat="21.930376" lon="104.792564">
<ele>94.3</ele>
<time>2011-04-28T08:37:49Z</time>
<desc>lat.=21.930376, lon.=104.792564, Alt.=77.196350m. Speed=4.500000m/h.</desc>
<speed>1.250000</speed>
</trkpt>
<trkpt lat="21.929335" lon="104.794136">
<ele>101.7</ele>
<time>2011-04-28T08:39:34Z</time>
<desc>lat.=21.929335, lon.=104.794136, Alt.=84.030334m. Speed=8.784000m/h.</desc>
<speed>2.440000</speed>
</trkpt>
<trkpt lat="21.928019" lon="104.794891">
<ele>102.3</ele>
<time>2011-04-28T08:40:39Z</time>
<desc>lat.=21.928019, lon.=104.794891, Alt.=87.143616m. Speed=6.156000m/h.</desc>
<speed>1.710000</speed>
</trkpt>
<trkpt lat="21.926889" lon="104.795250">
<ele>86.1</ele>
<time>2011-04-28T08:41:09Z</time>
<desc>lat.=21.926889, lon.=104.795250, Alt.=77.747131m. Speed=22.176001m/h.</desc>
<speed>6.160000</speed>
</trkpt>
<trkpt lat="21.926388" lon="104.795792">
<ele>90.0</ele>
<time>2011-04-28T08:41:19Z</time>
<desc>lat.=21.926388, lon.=104.795792, Alt.=69.366272m. Speed=27.900000m/h.</desc>
<speed>7.750000</speed>
</trkpt>
<trkpt lat="21.926054" lon="104.796631">
<ele>85.5</ele>
<time>2011-04-28T08:41:34Z</time>
<desc>lat.=21.926054, lon.=104.796631, Alt.=65.407288m. Speed=17.532000m/h.</desc>
<speed>4.870000</speed>
</trkpt>
<trkpt lat="21.925287" lon="104.797157">
<ele>91.0</ele>
<time>2011-04-28T08:41:59Z</time>
<desc>lat.=21.925287, lon.=104.797157, Alt.=72.585022m. Speed=10.656000m/h.</desc>
<speed>2.960000</speed>
</trkpt>
<trkpt lat="21.924295" lon="104.798370">
<ele>93.3</ele>
<time>2011-04-28T08:42:49Z</time>
<desc>lat.=21.924295, lon.=104.798370, Alt.=67.893616m. Speed=7.776000m/h.</desc>
<speed>2.160000</speed>
</trkpt>
<trkpt lat="21.923944" lon="104.799019">
<ele>95.1</ele>
<time>2011-04-28T08:43:19Z</time>
<desc>lat.=21.923944, lon.=104.799019, Alt.=71.823303m. Speed=10.980000m/h.</desc>
<speed>3.050000</speed>
</trkpt>
<trkpt lat="21.923668" lon="104.799263">
<ele>92.2</ele>
<time>2011-04-28T08:43:34Z</time>
<desc>lat.=21.923668, lon.=104.799263, Alt.=74.624084m. Speed=0.684000m/h.</desc>
<speed>0.190000</speed>
</trkpt>
<trkpt lat="21.922832" lon="104.799477">
<ele>88.5</ele>
<time>2011-04-28T08:43:59Z</time>
<desc>lat.=21.922832, lon.=104.799477, Alt.=72.381897m. Speed=16.379999m/h.</desc>
<speed>4.550000</speed>
</trkpt>
<trkpt lat="21.922527" lon="104.800529">
<ele>89.8</ele>
<time>2011-04-28T08:44:24Z</time>
<desc>lat.=21.922527, lon.=104.800529, Alt.=70.610413m. Speed=12.132000m/h.</desc>
<speed>3.370000</speed>
</trkpt>
<trkpt lat="21.921465" lon="104.802460">
<ele>90.2</ele>
<time>2011-04-28T08:45:14Z</time>
<desc>lat.=21.921465, lon.=104.802460, Alt.=72.165100m. Speed=18.108000m/h.</desc>
<speed>5.030000</speed>
</trkpt>
<trkpt lat="21.920347" lon="104.803444">
<ele>93.2</ele>
<time>2011-04-28T08:45:44Z</time>
<desc>lat.=21.920347, lon.=104.803444, Alt.=84.045959m. Speed=15.012000m/h.</desc>
<speed>4.170000</speed>
</trkpt>
<trkpt lat="21.919455" lon="104.803459">
<ele>92.1</ele>
<time>2011-04-28T08:46:04Z</time>
<desc>lat.=21.919455, lon.=104.803459, Alt.=77.637756m. Speed=16.308001m/h.</desc>
<speed>4.530000</speed>
</trkpt>
<trkpt lat="21.918989" lon="104.803894">
<ele>93.7</ele>
<time>2011-04-28T08:46:19Z</time>
<desc>lat.=21.918989, lon.=104.803894, Alt.=75.612366m. Speed=13.284000m/h.</desc>
<speed>3.690000</speed>
</trkpt>
<trkpt lat="21.918739" lon="104.804520">
<ele>93.9</ele>
<time>2011-04-28T08:46:34Z</time>
<desc>lat.=21.918739, lon.=104.804520, Alt.=74.163147m. Speed=15.948000m/h.</desc>
<speed>4.430000</speed>
</trkpt>
<trkpt lat="21.918131" lon="104.805244">
<ele>97.9</ele>
<time>2011-04-28T08:46:54Z</time>
<desc>lat.=21.918131, lon.=104.805244, Alt.=75.360413m. Speed=13.716000m/h.</desc>
<speed>3.810000</speed>
</trkpt>
<trkpt lat="21.917736" lon="104.806305">
<ele>104.1</ele>
<time>2011-04-28T08:47:24Z</time>
<desc>lat.=21.917736, lon.=104.806305, Alt.=82.493225m. Speed=13.968000m/h.</desc>
<speed>3.880000</speed>
</trkpt>
<trkpt lat="21.916819" lon="104.807144">
<ele>98.9</ele>
<time>2011-04-28T08:47:49Z</time>
<desc>lat.=21.916819, lon.=104.807144, Alt.=80.202209m. Speed=16.236000m/h.</desc>
<speed>4.510000</speed>
</trkpt>
<trkpt lat="21.916378" lon="104.808365">
<ele>109.0</ele>
<time>2011-04-28T08:48:29Z</time>
<desc>lat.=21.916378, lon.=104.808365, Alt.=79.596741m. Speed=10.188000m/h.</desc>
<speed>2.830000</speed>
</trkpt>
<trkpt lat="21.915720" lon="104.808670">
<ele>111.7</ele>
<time>2011-04-28T08:48:54Z</time>
<desc>lat.=21.915720, lon.=104.808670, Alt.=77.393616m. Speed=11.124000m/h.</desc>
<speed>3.090000</speed>
</trkpt>
<trkpt lat="21.915548" lon="104.809486">
<ele>109.9</ele>
<time>2011-04-28T08:49:19Z</time>
<desc>lat.=21.915548, lon.=104.809486, Alt.=87.860413m. Speed=9.000000m/h.</desc>
<speed>2.500000</speed>
</trkpt>
<trkpt lat="21.915325" lon="104.809746">
<ele>110.1</ele>
<time>2011-04-28T08:49:29Z</time>
<desc>lat.=21.915325, lon.=104.809746, Alt.=93.862366m. Speed=10.116000m/h.</desc>
<speed>2.810000</speed>
</trkpt>
<trkpt lat="21.914217" lon="104.809746">
<ele>107.5</ele>
<time>2011-04-28T08:50:14Z</time>
<desc>lat.=21.914217, lon.=104.809746, Alt.=101.280334m. Speed=11.700000m/h.</desc>
<speed>3.250000</speed>
</trkpt>
<trkpt lat="21.913845" lon="104.809532">
<ele>107.3</ele>
<time>2011-04-28T08:50:29Z</time>
<desc>lat.=21.913845, lon.=104.809532, Alt.=107.710022m. Speed=10.836000m/h.</desc>
<speed>3.010000</speed>
</trkpt>
<trkpt lat="21.913361" lon="104.809525">
<ele>106.8</ele>
<time>2011-04-28T08:50:49Z</time>
<desc>lat.=21.913361, lon.=104.809525, Alt.=102.008850m. Speed=0.180000m/h.</desc>
<speed>0.050000</speed>
</trkpt>
<trkpt lat="21.912024" lon="104.810143">
<ele>104.8</ele>
<time>2011-04-28T08:52:04Z</time>
<desc>lat.=21.912024, lon.=104.810143, Alt.=92.549866m. Speed=18.972000m/h.</desc>
<speed>5.270000</speed>
</trkpt>
<trkpt lat="21.910278" lon="104.811752">
<ele>102.6</ele>
<time>2011-04-28T08:52:59Z</time>
<desc>lat.=21.910278, lon.=104.811752, Alt.=90.083069m. Speed=14.940000m/h.</desc>
<speed>4.150000</speed>
</trkpt>
<trkpt lat="21.909302" lon="104.812889">
<ele>103.4</ele>
<time>2011-04-28T08:53:44Z</time>
<desc>lat.=21.909302, lon.=104.812889, Alt.=93.493225m. Speed=9.972000m/h.</desc>
<speed>2.770000</speed>
</trkpt>
<trkpt lat="21.908590" lon="104.813354">
<ele>100.2</ele>
<time>2011-04-28T08:54:14Z</time>
<desc>lat.=21.908590, lon.=104.813354, Alt.=86.415100m. Speed=10.080000m/h.</desc>
<speed>2.800000</speed>
</trkpt>
<trkpt lat="21.908060" lon="104.814423">
<ele>97.6</ele>
<time>2011-04-28T08:54:49Z</time>
<desc>lat.=21.908060, lon.=104.814423, Alt.=84.491272m. Speed=10.440000m/h.</desc>
<speed>2.900000</speed>
</trkpt>
<trkpt lat="21.907335" lon="104.815102">
<ele>102.2</ele>
<time>2011-04-28T08:55:14Z</time>
<desc>lat.=21.907335, lon.=104.815102, Alt.=81.297913m. Speed=12.960000m/h.</desc>
<speed>3.600000</speed>
</trkpt>
<trkpt lat="21.906748" lon="104.816231">
<ele>97.9</ele>
<time>2011-04-28T08:55:44Z</time>
<desc>lat.=21.906748, lon.=104.816231, Alt.=75.555725m. Speed=17.316000m/h.</desc>
<speed>4.810000</speed>
</trkpt>
<trkpt lat="21.905725" lon="104.817413">
<ele>108.0</ele>
<time>2011-04-28T08:56:14Z</time>
<desc>lat.=21.905725, lon.=104.817413, Alt.=68.024475m. Speed=11.484000m/h.</desc>
<speed>3.190000</speed>
</trkpt>
<trkpt lat="21.904228" lon="104.818527">
<ele>104.9</ele>
<time>2011-04-28T08:57:14Z</time>
<desc>lat.=21.904228, lon.=104.818527, Alt.=97.235413m. Speed=14.112000m/h.</desc>
<speed>3.920000</speed>
</trkpt>
<trkpt lat="21.902020" lon="104.819839">
<ele>95.2</ele>
<time>2011-04-28T08:58:19Z</time>
<desc>lat.=21.902020, lon.=104.819839, Alt.=80.792053m. Speed=21.240000m/h.</desc>
<speed>5.900000</speed>
</trkpt>
<trkpt lat="21.900515" lon="104.821289">
<ele>97.3</ele>
<time>2011-04-28T08:58:54Z</time>
<desc>lat.=21.900515, lon.=104.821289, Alt.=82.436584m. Speed=10.188000m/h.</desc>
<speed>2.830000</speed>
</trkpt>
<trkpt lat="21.899607" lon="104.822388">
<ele>98.1</ele>
<time>2011-04-28T08:59:44Z</time>
<desc>lat.=21.899607, lon.=104.822388, Alt.=87.876038m. Speed=6.840000m/h.</desc>
<speed>1.900000</speed>
</trkpt>
<trkpt lat="21.899498" lon="104.822273">
<ele>97.1</ele>
<time>2011-04-28T09:13:54Z</time>
<desc>lat.=21.899498, lon.=104.822273, Alt.=87.981506m. Speed=1.188000m/h.</desc>
<speed>0.330000</speed>
</trkpt>
<trkpt lat="21.897554" lon="104.824829">
<ele>92.2</ele>
<time>2011-04-28T09:15:24Z</time>
<desc>lat.=21.897554, lon.=104.824829, Alt.=77.583069m. Speed=23.436001m/h.</desc>
<speed>6.510000</speed>
</trkpt>
<trkpt lat="21.896494" lon="104.825104">
<ele>89.2</ele>
<time>2011-04-28T09:15:44Z</time>
<desc>lat.=21.896494, lon.=104.825104, Alt.=81.016663m. Speed=20.016001m/h.</desc>
<speed>5.560000</speed>
</trkpt>
<trkpt lat="21.896156" lon="104.825569">
<ele>88.6</ele>
<time>2011-04-28T09:15:54Z</time>
<desc>lat.=21.896156, lon.=104.825569, Alt.=80.803772m. Speed=21.851999m/h.</desc>
<speed>6.070000</speed>
</trkpt>
<trkpt lat="21.895391" lon="104.827286">
<ele>90.5</ele>
<time>2011-04-28T09:16:24Z</time>
<desc>lat.=21.895391, lon.=104.827286, Alt.=72.208069m. Speed=23.184000m/h.</desc>
<speed>6.440000</speed>
</trkpt>
<trkpt lat="21.893568" lon="104.829102">
<ele>91.4</ele>
<time>2011-04-28T09:17:09Z</time>
<desc>lat.=21.893568, lon.=104.829102, Alt.=79.278381m. Speed=23.796000m/h.</desc>
<speed>6.610000</speed>
</trkpt>
<trkpt lat="21.893057" lon="104.829407">
<ele>91.2</ele>
<time>2011-04-28T09:17:19Z</time>
<desc>lat.=21.893057, lon.=104.829407, Alt.=79.973694m. Speed=22.427999m/h.</desc>
<speed>6.230000</speed>
</trkpt>
<trkpt lat="21.891775" lon="104.829536">
<ele>90.7</ele>
<time>2011-04-28T09:17:44Z</time>
<desc>lat.=21.891775, lon.=104.829536, Alt.=82.090881m. Speed=22.608000m/h.</desc>
<speed>6.280000</speed>
</trkpt>
<trkpt lat="21.889799" lon="104.830780">
<ele>92.2</ele>
<time>2011-04-28T09:18:29Z</time>
<desc>lat.=21.889799, lon.=104.830780, Alt.=79.344788m. Speed=11.880000m/h.</desc>
<speed>3.300000</speed>
</trkpt>
<trkpt lat="21.889328" lon="104.831345">
<ele>95.0</ele>
<time>2011-04-28T09:18:44Z</time>
<desc>lat.=21.889328, lon.=104.831345, Alt.=82.008850m. Speed=22.752001m/h.</desc>
<speed>6.320000</speed>
</trkpt>
<trkpt lat="21.888548" lon="104.831337">
<ele>90.6</ele>
<time>2011-04-28T09:18:59Z</time>
<desc>lat.=21.888548, lon.=104.831337, Alt.=84.958069m. Speed=22.608000m/h.</desc>
<speed>6.280000</speed>
</trkpt>
<trkpt lat="21.888245" lon="104.831551">
<ele>88.1</ele>
<time>2011-04-28T09:19:04Z</time>
<desc>lat.=21.888245, lon.=104.831551, Alt.=81.415100m. Speed=31.608000m/h.</desc>
<speed>8.780000</speed>
</trkpt>
<trkpt lat="21.886745" lon="104.833260">
<ele>83.0</ele>
<time>2011-04-28T09:19:34Z</time>
<desc>lat.=21.886745, lon.=104.833260, Alt.=73.586975m. Speed=25.740000m/h.</desc>
<speed>7.150000</speed>
</trkpt>
<trkpt lat="21.886572" lon="104.833588">
<ele>83.0</ele>
<time>2011-04-28T09:19:39Z</time>
<desc>lat.=21.886572, lon.=104.833588, Alt.=73.555725m. Speed=28.260000m/h.</desc>
<speed>7.850000</speed>
</trkpt>
<trkpt lat="21.886301" lon="104.835571">
<ele>83.4</ele>
<time>2011-04-28T09:20:04Z</time>
<desc>lat.=21.886301, lon.=104.835571, Alt.=70.762756m. Speed=29.844000m/h.</desc>
<speed>8.290000</speed>
</trkpt>
<trkpt lat="21.884840" lon="104.838219">
<ele>75.5</ele>
<time>2011-04-28T09:20:49Z</time>
<desc>lat.=21.884840, lon.=104.838219, Alt.=77.024475m. Speed=28.440001m/h.</desc>
<speed>7.900000</speed>
</trkpt>
<trkpt lat="21.884331" lon="104.838753">
<ele>92.7</ele>
<time>2011-04-28T09:20:59Z</time>
<desc>lat.=21.884331, lon.=104.838753, Alt.=75.747131m. Speed=27.431999m/h.</desc>
<speed>7.620000</speed>
</trkpt>
<trkpt lat="21.883814" lon="104.838936">
<ele>109.1</ele>
<time>2011-04-28T09:21:09Z</time>
<desc>lat.=21.883814, lon.=104.838936, Alt.=76.157288m. Speed=15.768000m/h.</desc>
<speed>4.380000</speed>
</trkpt>
<trkpt lat="21.883165" lon="104.838844">
<ele>83.8</ele>
<time>2011-04-28T09:21:24Z</time>
<desc>lat.=21.883165, lon.=104.838844, Alt.=79.551819m. Speed=17.136000m/h.</desc>
<speed>4.760000</speed>
</trkpt>
<trkpt lat="21.882425" lon="104.839172">
<ele>83.8</ele>
<time>2011-04-28T09:21:39Z</time>
<desc>lat.=21.882425, lon.=104.839172, Alt.=82.024475m. Speed=20.879999m/h.</desc>
<speed>5.800000</speed>
</trkpt>
<trkpt lat="21.881609" lon="104.840096">
<ele>80.6</ele>
<time>2011-04-28T09:21:59Z</time>
<desc>lat.=21.881609, lon.=104.840096, Alt.=81.743225m. Speed=23.436001m/h.</desc>
<speed>6.510000</speed>
</trkpt>
<trkpt lat="21.881077" lon="104.841263">
<ele>82.6</ele>
<time>2011-04-28T09:22:19Z</time>
<desc>lat.=21.881077, lon.=104.841263, Alt.=79.442444m. Speed=23.868000m/h.</desc>
<speed>6.630000</speed>
</trkpt>
<trkpt lat="21.880703" lon="104.841682">
<ele>78.8</ele>
<time>2011-04-28T09:22:29Z</time>
<desc>lat.=21.880703, lon.=104.841682, Alt.=77.067444m. Speed=20.052000m/h.</desc>
<speed>5.570000</speed>
</trkpt>
<trkpt lat="21.877228" lon="104.842964">
<ele>74.6</ele>
<time>2011-04-28T09:25:29Z</time>
<desc>lat.=21.877228, lon.=104.842964, Alt.=98.973694m. Speed=14.292000m/h.</desc>
<speed>3.970000</speed>
</trkpt>
<trkpt lat="21.876707" lon="104.842804">
<ele>73.5</ele>
<time>2011-04-28T09:25:44Z</time>
<desc>lat.=21.876707, lon.=104.842804, Alt.=104.672913m. Speed=18.936001m/h.</desc>
<speed>5.260000</speed>
</trkpt>
<trkpt lat="21.875851" lon="104.842255">
<ele>74.5</ele>
<time>2011-04-28T09:26:04Z</time>
<desc>lat.=21.875851, lon.=104.842255, Alt.=109.776428m. Speed=22.068001m/h.</desc>
<speed>6.130000</speed>
</trkpt>
<trkpt lat="21.874882" lon="104.842430">
<ele>72.4</ele>
<time>2011-04-28T09:26:24Z</time>
<desc>lat.=21.874882, lon.=104.842430, Alt.=114.958069m. Speed=21.312000m/h.</desc>
<speed>5.920000</speed>
</trkpt>
<trkpt lat="21.870506" lon="104.845955">
<ele>76.4</ele>
<time>2011-04-28T09:27:59Z</time>
<desc>lat.=21.870506, lon.=104.845955, Alt.=87.547913m. Speed=17.388000m/h.</desc>
<speed>4.830000</speed>
</trkpt>
<trkpt lat="21.868757" lon="104.846382">
<ele>72.1</ele>
<time>2011-04-28T09:28:34Z</time>
<desc>lat.=21.868757, lon.=104.846382, Alt.=96.456116m. Speed=24.444000m/h.</desc>
<speed>6.790000</speed>
</trkpt>
<trkpt lat="21.867855" lon="104.847412">
<ele>74.0</ele>
<time>2011-04-28T09:28:59Z</time>
<desc>lat.=21.867855, lon.=104.847412, Alt.=86.936584m. Speed=12.672000m/h.</desc>
<speed>3.520000</speed>
</trkpt>
<trkpt lat="21.867334" lon="104.847420">
<ele>75.9</ele>
<time>2011-04-28T09:29:19Z</time>
<desc>lat.=21.867334, lon.=104.847420, Alt.=84.719788m. Speed=9.720000m/h.</desc>
<speed>2.700000</speed>
</trkpt>
<trkpt lat="21.866152" lon="104.848061">
<ele>81.1</ele>
<time>2011-04-28T09:29:54Z</time>
<desc>lat.=21.866152, lon.=104.848061, Alt.=83.049866m. Speed=20.160000m/h.</desc>
<speed>5.600000</speed>
</trkpt>
<trkpt lat="21.864397" lon="104.849640">
<ele>81.5</ele>
<time>2011-04-28T09:30:39Z</time>
<desc>lat.=21.864397, lon.=104.849640, Alt.=69.686584m. Speed=19.691999m/h.</desc>
<speed>5.470000</speed>
</trkpt>
<trkpt lat="21.863779" lon="104.850006">
<ele>85.6</ele>
<time>2011-04-28T09:30:54Z</time>
<desc>lat.=21.863779, lon.=104.850006, Alt.=73.461975m. Speed=14.904000m/h.</desc>
<speed>4.140000</speed>
</trkpt>
<trkpt lat="21.862625" lon="104.850372">
<ele>84.3</ele>
<time>2011-04-28T09:32:09Z</time>
<desc>lat.=21.862625, lon.=104.850372, Alt.=78.620178m. Speed=0.036000m/h.</desc>
<speed>0.010000</speed>
</trkpt>
<trkpt lat="21.862329" lon="104.850899">
<ele>83.9</ele>
<time>2011-04-28T09:33:29Z</time>
<desc>lat.=21.862329, lon.=104.850899, Alt.=78.471741m. Speed=13.860000m/h.</desc>
<speed>3.850000</speed>
</trkpt>
<trkpt lat="21.861282" lon="104.851257">
<ele>84.2</ele>
<time>2011-04-28T09:33:54Z</time>
<desc>lat.=21.861282, lon.=104.851257, Alt.=84.295959m. Speed=24.948000m/h.</desc>
<speed>6.930000</speed>
</trkpt>
<trkpt lat="21.860416" lon="104.852501">
<ele>83.4</ele>
<time>2011-04-28T09:34:14Z</time>
<desc>lat.=21.860416, lon.=104.852501, Alt.=88.645569m. Speed=23.076000m/h.</desc>
<speed>6.410000</speed>
</trkpt>
<trkpt lat="21.859360" lon="104.853104">
<ele>86.1</ele>
<time>2011-04-28T09:34:34Z</time>
<desc>lat.=21.859360, lon.=104.853104, Alt.=94.368225m. Speed=21.348000m/h.</desc>
<speed>5.930000</speed>
</trkpt>
<trkpt lat="21.857479" lon="104.854965">
<ele>82.6</ele>
<time>2011-04-28T09:35:19Z</time>
<desc>lat.=21.857479, lon.=104.854965, Alt.=94.110413m. Speed=13.212000m/h.</desc>
<speed>3.670000</speed>
</trkpt>
<trkpt lat="21.855791" lon="104.858498">
<ele>82.4</ele>
<time>2011-04-28T09:36:34Z</time>
<desc>lat.=21.855791, lon.=104.858498, Alt.=75.540100m. Speed=22.500000m/h.</desc>
<speed>6.250000</speed>
</trkpt>
<trkpt lat="21.853277" lon="104.861603">
<ele>83.3</ele>
<time>2011-04-28T09:37:44Z</time>
<desc>lat.=21.853277, lon.=104.861603, Alt.=86.405334m. Speed=13.032000m/h.</desc>
<speed>3.620000</speed>
</trkpt>
<trkpt lat="21.851892" lon="104.862518">
<ele>90.0</ele>
<time>2011-04-28T09:38:54Z</time>
<desc>lat.=21.851892, lon.=104.862518, Alt.=106.225647m. Speed=5.796000m/h.</desc>
<speed>1.610000</speed>
</trkpt>
<trkpt lat="21.849855" lon="104.862228">
<ele>102.0</ele>
<time>2011-04-28T09:40:09Z</time>
<desc>lat.=21.849855, lon.=104.862228, Alt.=126.241272m. Speed=18.323999m/h.</desc>
<speed>5.090000</speed>
</trkpt>
<trkpt lat="21.848663" lon="104.862488">
<ele>93.5</ele>
<time>2011-04-28T09:40:29Z</time>
<desc>lat.=21.848663, lon.=104.862488, Alt.=128.869263m. Speed=22.823999m/h.</desc>
<speed>6.340000</speed>
</trkpt>
<trkpt lat="21.847649" lon="104.863289">
<ele>95.2</ele>
<time>2011-04-28T09:40:49Z</time>
<desc>lat.=21.847649, lon.=104.863289, Alt.=128.533325m. Speed=16.236000m/h.</desc>
<speed>4.510000</speed>
</trkpt>
<trkpt lat="21.845739" lon="104.864372">
<ele>98.2</ele>
<time>2011-04-28T09:41:44Z</time>
<desc>lat.=21.845739, lon.=104.864372, Alt.=124.081116m. Speed=15.660000m/h.</desc>
<speed>4.350000</speed>
</trkpt>
<trkpt lat="21.845121" lon="104.865097">
<ele>94.5</ele>
<time>2011-04-28T09:42:04Z</time>
<desc>lat.=21.845121, lon.=104.865097, Alt.=119.383850m. Speed=14.040000m/h.</desc>
<speed>3.900000</speed>
</trkpt>
<trkpt lat="21.844707" lon="104.865341">
<ele>104.5</ele>
<time>2011-04-28T09:42:14Z</time>
<desc>lat.=21.844707, lon.=104.865341, Alt.=119.885803m. Speed=26.351999m/h.</desc>
<speed>7.320000</speed>
</trkpt>
<trkpt lat="21.843885" lon="104.864677">
<ele>85.7</ele>
<time>2011-04-28T09:42:29Z</time>
<desc>lat.=21.843885, lon.=104.864677, Alt.=124.395569m. Speed=23.796000m/h.</desc>
<speed>6.610000</speed>
</trkpt>
<trkpt lat="21.843536" lon="104.864777">
<ele>85.2</ele>
<time>2011-04-28T09:42:34Z</time>
<desc>lat.=21.843536, lon.=104.864777, Alt.=123.985413m. Speed=23.688000m/h.</desc>
<speed>6.580000</speed>
</trkpt>
<trkpt lat="21.842890" lon="104.865700">
<ele>79.1</ele>
<time>2011-04-28T09:42:49Z</time>
<desc>lat.=21.842890, lon.=104.865700, Alt.=110.561584m. Speed=31.535999m/h.</desc>
<speed>8.760000</speed>
</trkpt>
<trkpt lat="21.841969" lon="104.866417">
<ele>74.4</ele>
<time>2011-04-28T09:43:04Z</time>
<desc>lat.=21.841969, lon.=104.866417, Alt.=97.030334m. Speed=24.875999m/h.</desc>
<speed>6.910000</speed>
</trkpt>
<trkpt lat="21.841385" lon="104.867905">
<ele>81.4</ele>
<time>2011-04-28T09:43:29Z</time>
<desc>lat.=21.841385, lon.=104.867905, Alt.=107.520569m. Speed=21.384001m/h.</desc>
<speed>5.940000</speed>
</trkpt>
<trkpt lat="21.838598" lon="104.870682">
<ele>78.5</ele>
<time>2011-04-28T09:44:34Z</time>
<desc>lat.=21.838598, lon.=104.870682, Alt.=113.920959m. Speed=22.500000m/h.</desc>
<speed>6.250000</speed>
</trkpt>
<trkpt lat="21.838095" lon="104.870911">
<ele>75.7</ele>
<time>2011-04-28T09:44:44Z</time>
<desc>lat.=21.838095, lon.=104.870911, Alt.=109.692444m. Speed=19.980000m/h.</desc>
<speed>5.550000</speed>
</trkpt>
<trkpt lat="21.837536" lon="104.870651">
<ele>80.7</ele>
<time>2011-04-28T09:44:59Z</time>
<desc>lat.=21.837536, lon.=104.870651, Alt.=108.573303m. Speed=15.300000m/h.</desc>
<speed>4.250000</speed>
</trkpt>
<trkpt lat="21.836370" lon="104.870560">
<ele>81.0</ele>
<time>2011-04-28T09:47:04Z</time>
<desc>lat.=21.836370, lon.=104.870560, Alt.=98.458069m. Speed=16.488001m/h.</desc>
<speed>4.580000</speed>
</trkpt>
<trkpt lat="21.835892" lon="104.870697">
<ele>78.6</ele>
<time>2011-04-28T09:47:14Z</time>
<desc>lat.=21.835892, lon.=104.870697, Alt.=95.700256m. Speed=20.375999m/h.</desc>
<speed>5.660000</speed>
</trkpt>
<trkpt lat="21.835207" lon="104.872070">
<ele>74.3</ele>
<time>2011-04-28T09:47:34Z</time>
<desc>lat.=21.835207, lon.=104.872070, Alt.=73.557678m. Speed=28.080000m/h.</desc>
<speed>7.800000</speed>
</trkpt>
<trkpt lat="21.834375" lon="104.872902">
<ele>76.2</ele>
<time>2011-04-28T09:47:54Z</time>
<desc>lat.=21.834375, lon.=104.872902, Alt.=68.440491m. Speed=18.900000m/h.</desc>
<speed>5.250000</speed>
</trkpt>
<trkpt lat="21.833639" lon="104.873436">
<ele>71.3</ele>
<time>2011-04-28T09:48:09Z</time>
<desc>lat.=21.833639, lon.=104.873436, Alt.=69.766663m. Speed=27.504000m/h.</desc>
<speed>7.640000</speed>
</trkpt>
<trkpt lat="21.832497" lon="104.873642">
<ele>66.9</ele>
<time>2011-04-28T09:48:24Z</time>
<desc>lat.=21.832497, lon.=104.873642, Alt.=67.069397m. Speed=27.431999m/h.</desc>
<speed>7.620000</speed>
</trkpt>
<trkpt lat="21.831301" lon="104.874916">
<ele>73.2</ele>
<time>2011-04-28T09:48:54Z</time>
<desc>lat.=21.831301, lon.=104.874916, Alt.=71.323303m. Speed=15.696000m/h.</desc>
<speed>4.360000</speed>
</trkpt>
<trkpt lat="21.829491" lon="104.875595">
<ele>69.5</ele>
<time>2011-04-28T09:49:34Z</time>
<desc>lat.=21.829491, lon.=104.875595, Alt.=79.317444m. Speed=30.312000m/h.</desc>
<speed>8.420000</speed>
</trkpt>
<trkpt lat="21.826984" lon="104.878090">
<ele>73.2</ele>
<time>2011-04-28T09:50:29Z</time>
<desc>lat.=21.826984, lon.=104.878090, Alt.=67.932678m. Speed=21.167999m/h.</desc>
<speed>5.880000</speed>
</trkpt>
<trkpt lat="21.826777" lon="104.878738">
<ele>72.3</ele>
<time>2011-04-28T09:50:39Z</time>
<desc>lat.=21.826777, lon.=104.878738, Alt.=69.889709m. Speed=28.403999m/h.</desc>
<speed>7.890000</speed>
</trkpt>
<trkpt lat="21.825510" lon="104.879875">
<ele>71.2</ele>
<time>2011-04-28T09:51:04Z</time>
<desc>lat.=21.825510, lon.=104.879875, Alt.=67.143616m. Speed=23.760000m/h.</desc>
<speed>6.600000</speed>
</trkpt>
<trkpt lat="21.823860" lon="104.880554">
<ele>71.7</ele>
<time>2011-04-28T09:51:34Z</time>
<desc>lat.=21.823860, lon.=104.880554, Alt.=69.155334m. Speed=23.688000m/h.</desc>
<speed>6.580000</speed>
</trkpt>
<trkpt lat="21.822664" lon="104.880051">
<ele>78.2</ele>
<time>2011-04-28T09:52:04Z</time>
<desc>lat.=21.822664, lon.=104.880051, Alt.=70.940491m. Speed=10.548000m/h.</desc>
<speed>2.930000</speed>
</trkpt>
<trkpt lat="21.822123" lon="104.880203">
<ele>79.3</ele>
<time>2011-04-28T09:52:24Z</time>
<desc>lat.=21.822123, lon.=104.880203, Alt.=71.672913m. Speed=12.024000m/h.</desc>
<speed>3.340000</speed>
</trkpt>
<trkpt lat="21.821297" lon="104.881096">
<ele>79.6</ele>
<time>2011-04-28T09:52:54Z</time>
<desc>lat.=21.821297, lon.=104.881096, Alt.=72.067444m. Speed=17.459999m/h.</desc>
<speed>4.850000</speed>
</trkpt>
<trkpt lat="21.821060" lon="104.882057">
<ele>78.3</ele>
<time>2011-04-28T09:53:14Z</time>
<desc>lat.=21.821060, lon.=104.882057, Alt.=73.239319m. Speed=17.820000m/h.</desc>
<speed>4.950000</speed>
</trkpt>
<trkpt lat="21.819933" lon="104.883041">
<ele>83.0</ele>
<time>2011-04-28T09:53:54Z</time>
<desc>lat.=21.819933, lon.=104.883041, Alt.=80.049866m. Speed=7.884000m/h.</desc>
<speed>2.190000</speed>
</trkpt>
<trkpt lat="21.820013" lon="104.883621">
<ele>90.4</ele>
<time>2011-04-28T09:54:19Z</time>
<desc>lat.=21.820013, lon.=104.883621, Alt.=80.991272m. Speed=7.164000m/h.</desc>
<speed>1.990000</speed>
</trkpt>
<trkpt lat="21.819666" lon="104.884338">
<ele>94.7</ele>
<time>2011-04-28T09:55:59Z</time>
<desc>lat.=21.819666, lon.=104.884338, Alt.=73.811584m. Speed=0.000000m/h.</desc>
<speed>0.000000</speed>
</trkpt>
<trkpt lat="21.819548" lon="104.885017">
<ele>96.4</ele>
<time>2011-04-28T09:56:34Z</time>
<desc>lat.=21.819548, lon.=104.885017, Alt.=75.057678m. Speed=17.532000m/h.</desc>
<speed>4.870000</speed>
</trkpt>
<trkpt lat="21.819754" lon="104.885674">
<ele>82.3</ele>
<time>2011-04-28T09:56:44Z</time>
<desc>lat.=21.819754, lon.=104.885674, Alt.=75.258850m. Speed=24.552000m/h.</desc>
<speed>6.820000</speed>
</trkpt>
<trkpt lat="21.819515" lon="104.885872">
<ele>78.9</ele>
<time>2011-04-28T09:56:49Z</time>
<desc>lat.=21.819515, lon.=104.885872, Alt.=71.983459m. Speed=17.496000m/h.</desc>
<speed>4.860000</speed>
</trkpt>
<trkpt lat="21.818926" lon="104.885727">
<ele>79.1</ele>
<time>2011-04-28T09:56:59Z</time>
<desc>lat.=21.818926, lon.=104.885727, Alt.=73.963928m. Speed=28.764000m/h.</desc>
<speed>7.990000</speed>
</trkpt>
<trkpt lat="21.818655" lon="104.885956">
<ele>83.0</ele>
<time>2011-04-28T09:57:04Z</time>
<desc>lat.=21.818655, lon.=104.885956, Alt.=72.387756m. Speed=27.504000m/h.</desc>
<speed>7.640000</speed>
</trkpt>
<trkpt lat="21.818727" lon="104.886864">
<ele>74.3</ele>
<time>2011-04-28T09:57:14Z</time>
<desc>lat.=21.818727, lon.=104.886864, Alt.=76.547913m. Speed=28.296000m/h.</desc>
<speed>7.860000</speed>
</trkpt>
<trkpt lat="21.818510" lon="104.887672">
<ele>76.6</ele>
<time>2011-04-28T09:57:29Z</time>
<desc>lat.=21.818510, lon.=104.887672, Alt.=72.051819m. Speed=19.080000m/h.</desc>
<speed>5.300000</speed>
</trkpt>
<trkpt lat="21.818649" lon="104.888313">
<ele>71.4</ele>
<time>2011-04-28T09:57:39Z</time>
<desc>lat.=21.818649, lon.=104.888313, Alt.=69.815491m. Speed=24.191999m/h.</desc>
<speed>6.720000</speed>
</trkpt>
<trkpt lat="21.815815" lon="104.890282">
<ele>67.7</ele>
<time>2011-04-28T09:58:24Z</time>
<desc>lat.=21.815815, lon.=104.890282, Alt.=61.759308m. Speed=21.455999m/h.</desc>
<speed>5.960000</speed>
</trkpt>
<trkpt lat="21.814665" lon="104.891624">
<ele>66.4</ele>
<time>2011-04-28T09:58:54Z</time>
<desc>lat.=21.814665, lon.=104.891624, Alt.=55.114777m. Speed=20.916000m/h.</desc>
<speed>5.810000</speed>
</trkpt>
<trkpt lat="21.813547" lon="104.892105">
<ele>70.0</ele>
<time>2011-04-28T09:59:19Z</time>
<desc>lat.=21.813547, lon.=104.892105, Alt.=55.583527m. Speed=15.156000m/h.</desc>
<speed>4.210000</speed>
</trkpt>
<trkpt lat="21.811756" lon="104.894836">
<ele>72.5</ele>
<time>2011-04-28T10:00:19Z</time>
<desc>lat.=21.811756, lon.=104.894836, Alt.=60.680206m. Speed=20.448000m/h.</desc>
<speed>5.680000</speed>
</trkpt>
<trkpt lat="21.810982" lon="104.895172">
<ele>68.9</ele>
<time>2011-04-28T10:00:34Z</time>
<desc>lat.=21.810982, lon.=104.895172, Alt.=62.188995m. Speed=20.087999m/h.</desc>
<speed>5.580000</speed>
</trkpt>
<trkpt lat="21.809093" lon="104.897095">
<ele>67.6</ele>
<time>2011-04-28T10:01:19Z</time>
<desc>lat.=21.809093, lon.=104.897095, Alt.=61.054230m. Speed=23.868000m/h.</desc>
<speed>6.630000</speed>
</trkpt>
<trkpt lat="21.808157" lon="104.897400">
<ele>70.9</ele>
<time>2011-04-28T10:01:39Z</time>
<desc>lat.=21.808157, lon.=104.897400, Alt.=64.606506m. Speed=18.864000m/h.</desc>
<speed>5.240000</speed>
</trkpt>
<trkpt lat="21.807873" lon="104.898018">
<ele>74.4</ele>
<time>2011-04-28T10:01:54Z</time>
<desc>lat.=21.807873, lon.=104.898018, Alt.=63.212433m. Speed=12.996000m/h.</desc>
<speed>3.610000</speed>
</trkpt>
<trkpt lat="21.806707" lon="104.898674">
<ele>82.3</ele>
<time>2011-04-28T10:02:29Z</time>
<desc>lat.=21.806707, lon.=104.898674, Alt.=64.877991m. Speed=9.612000m/h.</desc>
<speed>2.670000</speed>
</trkpt>
<trkpt lat="21.806562" lon="104.899124">
<ele>93.8</ele>
<time>2011-04-28T10:02:44Z</time>
<desc>lat.=21.806562, lon.=104.899124, Alt.=67.616272m. Speed=7.380000m/h.</desc>
<speed>2.050000</speed>
</trkpt>
<trkpt lat="21.806707" lon="104.899857">
<ele>85.0</ele>
<time>2011-04-28T10:03:14Z</time>
<desc>lat.=21.806707, lon.=104.899857, Alt.=72.659241m. Speed=7.272000m/h.</desc>
<speed>2.020000</speed>
</trkpt>
<trkpt lat="21.806496" lon="104.900055">
<ele>82.8</ele>
<time>2011-04-28T10:03:29Z</time>
<desc>lat.=21.806496, lon.=104.900055, Alt.=72.383850m. Speed=7.236000m/h.</desc>
<speed>2.010000</speed>
</trkpt>
<trkpt lat="21.805845" lon="104.900215">
<ele>85.0</ele>
<time>2011-04-28T10:03:49Z</time>
<desc>lat.=21.805845, lon.=104.900215, Alt.=72.040100m. Speed=13.212000m/h.</desc>
<speed>3.670000</speed>
</trkpt>
<trkpt lat="21.805614" lon="104.900848">
<ele>89.1</ele>
<time>2011-04-28T10:04:09Z</time>
<desc>lat.=21.805614, lon.=104.900848, Alt.=72.120178m. Speed=8.280000m/h.</desc>
<speed>2.300000</speed>
</trkpt>
<trkpt lat="21.805244" lon="104.901222">
<ele>95.9</ele>
<time>2011-04-28T10:04:29Z</time>
<desc>lat.=21.805244, lon.=104.901222, Alt.=71.387756m. Speed=7.128000m/h.</desc>
<speed>1.980000</speed>
</trkpt>
<trkpt lat="21.805136" lon="104.902260">
<ele>86.1</ele>
<time>2011-04-28T10:06:59Z</time>
<desc>lat.=21.805136, lon.=104.902260, Alt.=80.575256m. Speed=0.504000m/h.</desc>
<speed>0.140000</speed>
</trkpt>
<trkpt lat="21.804226" lon="104.902809">
<ele>86.2</ele>
<time>2011-04-28T10:07:34Z</time>
<desc>lat.=21.804226, lon.=104.902809, Alt.=81.573303m. Speed=19.403999m/h.</desc>
<speed>5.390000</speed>
</trkpt>
<trkpt lat="21.803562" lon="104.904114">
<ele>80.8</ele>
<time>2011-04-28T10:07:54Z</time>
<desc>lat.=21.803562, lon.=104.904114, Alt.=82.444397m. Speed=24.948000m/h.</desc>
<speed>6.930000</speed>
</trkpt>
<trkpt lat="21.802368" lon="104.904861">
<ele>80.7</ele>
<time>2011-04-28T10:08:19Z</time>
<desc>lat.=21.802368, lon.=104.904861, Alt.=80.635803m. Speed=17.532000m/h.</desc>
<speed>4.870000</speed>
</trkpt>
<trkpt lat="21.801743" lon="104.905716">
<ele>76.2</ele>
<time>2011-04-28T10:08:34Z</time>
<desc>lat.=21.801743, lon.=104.905716, Alt.=74.784241m. Speed=22.716000m/h.</desc>
<speed>6.310000</speed>
</trkpt>
<trkpt lat="21.800579" lon="104.906792">
<ele>86.7</ele>
<time>2011-04-28T10:09:09Z</time>
<desc>lat.=21.800579, lon.=104.906792, Alt.=78.917053m. Speed=12.816000m/h.</desc>
<speed>3.560000</speed>
</trkpt>
<trkpt lat="21.799543" lon="104.908234">
<ele>92.0</ele>
<time>2011-04-28T10:10:04Z</time>
<desc>lat.=21.799543, lon.=104.908234, Alt.=87.294006m. Speed=6.660000m/h.</desc>
<speed>1.850000</speed>
</trkpt>
<trkpt lat="21.798700" lon="104.910309">
<ele>101.9</ele>
<time>2011-04-28T10:11:24Z</time>
<desc>lat.=21.798700, lon.=104.910309, Alt.=69.848694m. Speed=6.480000m/h.</desc>
<speed>1.800000</speed>
</trkpt>
<trkpt lat="21.798981" lon="104.911247">
<ele>104.4</ele>
<time>2011-04-28T10:12:29Z</time>
<desc>lat.=21.798981, lon.=104.911247, Alt.=88.717834m. Speed=4.068000m/h.</desc>
<speed>1.130000</speed>
</trkpt>
<trkpt lat="21.798582" lon="104.911598">
<ele>115.6</ele>
<time>2011-04-28T10:13:09Z</time>
<desc>lat.=21.798582, lon.=104.911598, Alt.=91.471741m. Speed=6.120000m/h.</desc>
<speed>1.700000</speed>
</trkpt>
<trkpt lat="21.798342" lon="104.912338">
<ele>112.9</ele>
<time>2011-04-28T10:13:59Z</time>
<desc>lat.=21.798342, lon.=104.912338, Alt.=104.674866m. Speed=4.140000m/h.</desc>
<speed>1.150000</speed>
</trkpt>
<trkpt lat="21.796392" lon="104.913361">
<ele>124.7</ele>
<time>2011-04-28T10:15:59Z</time>
<desc>lat.=21.796392, lon.=104.913361, Alt.=123.926819m. Speed=5.868000m/h.</desc>
<speed>1.630000</speed>
</trkpt>
<trkpt lat="21.795767" lon="104.913536">
<ele>129.4</ele>
<time>2011-04-28T10:16:29Z</time>
<desc>lat.=21.795767, lon.=104.913536, Alt.=123.100647m. Speed=5.688000m/h.</desc>
<speed>1.580000</speed>
</trkpt>
<trkpt lat="21.795139" lon="104.914665">
<ele>132.6</ele>
<time>2011-04-28T10:18:19Z</time>
<desc>lat.=21.795139, lon.=104.914665, Alt.=121.893616m. Speed=0.648000m/h.</desc>
<speed>0.180000</speed>
</trkpt>
<trkpt lat="21.794027" lon="104.914566">
<ele>131.8</ele>
<time>2011-04-28T10:32:29Z</time>
<desc>lat.=21.794027, lon.=104.914566, Alt.=130.959106m. Speed=17.063999m/h.</desc>
<speed>4.740000</speed>
</trkpt>
<trkpt lat="21.793909" lon="104.915054">
<ele>138.9</ele>
<time>2011-04-28T10:32:39Z</time>
<desc>lat.=21.793909, lon.=104.915054, Alt.=127.936584m. Speed=19.188000m/h.</desc>
<speed>5.330000</speed>
</trkpt>
<trkpt lat="21.793987" lon="104.915649">
<ele>129.7</ele>
<time>2011-04-28T10:32:49Z</time>
<desc>lat.=21.793987, lon.=104.915649, Alt.=123.678772m. Speed=19.656000m/h.</desc>
<speed>5.460000</speed>
</trkpt>
<trkpt lat="21.793478" lon="104.915977">
<ele>134.6</ele>
<time>2011-04-28T10:32:59Z</time>
<desc>lat.=21.793478, lon.=104.915977, Alt.=119.999084m. Speed=22.608000m/h.</desc>
<speed>6.280000</speed>
</trkpt>
<trkpt lat="21.793192" lon="104.916626">
<ele>129.1</ele>
<time>2011-04-28T10:33:09Z</time>
<desc>lat.=21.793192, lon.=104.916626, Alt.=112.856506m. Speed=21.636000m/h.</desc>
<speed>6.010000</speed>
</trkpt>
<trkpt lat="21.792517" lon="104.917168">
<ele>123.4</ele>
<time>2011-04-28T10:33:29Z</time>
<desc>lat.=21.792517, lon.=104.917168, Alt.=109.313538m. Speed=5.004000m/h.</desc>
<speed>1.390000</speed>
</trkpt>
<trkpt lat="21.792446" lon="104.917816">
<ele>121.5</ele>
<time>2011-04-28T10:35:04Z</time>
<desc>lat.=21.792446, lon.=104.917816, Alt.=117.801819m. Speed=3.312000m/h.</desc>
<speed>0.920000</speed>
</trkpt>
<trkpt lat="21.792601" lon="104.917320">
<ele>123.0</ele>
<time>2011-04-28T10:48:24Z</time>
<desc>lat.=21.792601, lon.=104.917320, Alt.=117.915100m. Speed=0.180000m/h.</desc>
<speed>0.050000</speed>
</trkpt>
<trkpt lat="21.791349" lon="104.917130">
<ele>115.3</ele>
<time>2011-04-28T10:50:14Z</time>
<desc>lat.=21.791349, lon.=104.917130, Alt.=113.504944m. Speed=22.716000m/h.</desc>
<speed>6.310000</speed>
</trkpt>
<trkpt lat="21.791044" lon="104.916542">
<ele>117.2</ele>
<time>2011-04-28T10:50:24Z</time>
<desc>lat.=21.791044, lon.=104.916542, Alt.=114.061584m. Speed=23.652000m/h.</desc>
<speed>6.570000</speed>
</trkpt>
<trkpt lat="21.790749" lon="104.916374">
<ele>117.8</ele>
<time>2011-04-28T10:50:29Z</time>
<desc>lat.=21.790749, lon.=104.916374, Alt.=112.696350m. Speed=26.459999m/h.</desc>
<speed>7.350000</speed>
</trkpt>
<trkpt lat="21.790443" lon="104.916565">
<ele>114.8</ele>
<time>2011-04-28T10:50:34Z</time>
<desc>lat.=21.790443, lon.=104.916565, Alt.=111.954163m. Speed=29.195999m/h.</desc>
<speed>8.110000</speed>
</trkpt>
<trkpt lat="21.789835" lon="104.917458">
<ele>116.8</ele>
<time>2011-04-28T10:50:49Z</time>
<desc>lat.=21.789835, lon.=104.917458, Alt.=111.702209m. Speed=21.959999m/h.</desc>
<speed>6.100000</speed>
</trkpt>
<trkpt lat="21.789557" lon="104.917389">
<ele>113.7</ele>
<time>2011-04-28T10:50:54Z</time>
<desc>lat.=21.789557, lon.=104.917389, Alt.=110.936584m. Speed=25.200001m/h.</desc>
<speed>7.000000</speed>
</trkpt>
<trkpt lat="21.789373" lon="104.917145">
<ele>111.2</ele>
<time>2011-04-28T10:50:59Z</time>
<desc>lat.=21.789373, lon.=104.917145, Alt.=109.219788m. Speed=20.556000m/h.</desc>
<speed>5.710000</speed>
</trkpt>
<trkpt lat="21.789734" lon="104.916420">
<ele>113.2</ele>
<time>2011-04-28T10:51:19Z</time>
<desc>lat.=21.789734, lon.=104.916420, Alt.=108.833069m. Speed=11.376000m/h.</desc>
<speed>3.160000</speed>
</trkpt>
<trkpt lat="21.789549" lon="104.915680">
<ele>105.5</ele>
<time>2011-04-28T10:51:39Z</time>
<desc>lat.=21.789549, lon.=104.915680, Alt.=105.340881m. Speed=15.876000m/h.</desc>
<speed>4.410000</speed>
</trkpt>
<trkpt lat="21.789930" lon="104.915092">
<ele>107.8</ele>
<time>2011-04-28T10:51:54Z</time>
<desc>lat.=21.789930, lon.=104.915092, Alt.=98.938538m. Speed=20.340000m/h.</desc>
<speed>5.650000</speed>
</trkpt>
<trkpt lat="21.789803" lon="104.914848">
<ele>105.9</ele>
<time>2011-04-28T10:51:59Z</time>
<desc>lat.=21.789803, lon.=104.914848, Alt.=100.393616m. Speed=22.356001m/h.</desc>
<speed>6.210000</speed>
</trkpt>
<trkpt lat="21.788595" lon="104.913963">
<ele>98.5</ele>
<time>2011-04-28T10:52:24Z</time>
<desc>lat.=21.788595, lon.=104.913963, Alt.=96.489319m. Speed=24.480000m/h.</desc>
<speed>6.800000</speed>
</trkpt>
<trkpt lat="21.787857" lon="104.914680">
<ele>96.5</ele>
<time>2011-04-28T10:52:39Z</time>
<desc>lat.=21.787857, lon.=104.914680, Alt.=97.200256m. Speed=30.455999m/h.</desc>
<speed>8.460000</speed>
</trkpt>
<trkpt lat="21.787527" lon="104.914795">
<ele>97.3</ele>
<time>2011-04-28T10:52:44Z</time>
<desc>lat.=21.787527, lon.=104.914795, Alt.=96.989319m. Speed=25.848000m/h.</desc>
<speed>7.180000</speed>
</trkpt>
<trkpt lat="21.786833" lon="104.914360">
<ele>94.0</ele>
<time>2011-04-28T10:52:59Z</time>
<desc>lat.=21.786833, lon.=104.914360, Alt.=98.137756m. Speed=15.048000m/h.</desc>
<speed>4.180000</speed>
</trkpt>
<trkpt lat="21.786573" lon="104.914429">
<ele>108.6</ele>
<time>2011-04-28T10:53:04Z</time>
<desc>lat.=21.786573, lon.=104.914429, Alt.=98.204163m. Speed=21.096001m/h.</desc>
<speed>5.860000</speed>
</trkpt>
<trkpt lat="21.786488" lon="104.915024">
<ele>103.6</ele>
<time>2011-04-28T10:53:14Z</time>
<desc>lat.=21.786488, lon.=104.915024, Alt.=97.008850m. Speed=20.700001m/h.</desc>
<speed>5.750000</speed>
</trkpt>
<trkpt lat="21.785849" lon="104.915352">
<ele>106.6</ele>
<time>2011-04-28T10:53:29Z</time>
<desc>lat.=21.785849, lon.=104.915352, Alt.=93.948303m. Speed=20.556000m/h.</desc>
<speed>5.710000</speed>
</trkpt>
<trkpt lat="21.785702" lon="104.915947">
<ele>98.8</ele>
<time>2011-04-28T10:53:39Z</time>
<desc>lat.=21.785702, lon.=104.915947, Alt.=92.395569m. Speed=19.440001m/h.</desc>
<speed>5.400000</speed>
</trkpt>
<trkpt lat="21.785488" lon="104.916016">
<ele>96.3</ele>
<time>2011-04-28T10:53:44Z</time>
<desc>lat.=21.785488, lon.=104.916016, Alt.=93.245178m. Speed=18.360001m/h.</desc>
<speed>5.100000</speed>
</trkpt>
<trkpt lat="21.785328" lon="104.915436">
<ele>104.9</ele>
<time>2011-04-28T10:54:04Z</time>
<desc>lat.=21.785328, lon.=104.915436, Alt.=99.124084m. Speed=8.496000m/h.</desc>
<speed>2.360000</speed>
</trkpt>
<trkpt lat="21.784685" lon="104.915009">
<ele>113.9</ele>
<time>2011-04-28T10:54:34Z</time>
<desc>lat.=21.784685, lon.=104.915009, Alt.=100.559631m. Speed=10.188000m/h.</desc>
<speed>2.830000</speed>
</trkpt>
<trkpt lat="21.783901" lon="104.915176">
<ele>116.4</ele>
<time>2011-04-28T10:54:54Z</time>
<desc>lat.=21.783901, lon.=104.915176, Alt.=99.491272m. Speed=14.364000m/h.</desc>
<speed>3.990000</speed>
</trkpt>
<trkpt lat="21.783323" lon="104.915062">
<ele>112.7</ele>
<time>2011-04-28T10:55:09Z</time>
<desc>lat.=21.783323, lon.=104.915062, Alt.=102.108459m. Speed=20.304001m/h.</desc>
<speed>5.640000</speed>
</trkpt>
<trkpt lat="21.782351" lon="104.915474">
<ele>105.7</ele>
<time>2011-04-28T10:55:24Z</time>
<desc>lat.=21.782351, lon.=104.915474, Alt.=100.151428m. Speed=24.228001m/h.</desc>
<speed>6.730000</speed>
</trkpt>
<trkpt lat="21.781561" lon="104.916290">
<ele>105.8</ele>
<time>2011-04-28T10:55:39Z</time>
<desc>lat.=21.781561, lon.=104.916290, Alt.=99.452209m. Speed=32.147999m/h.</desc>
<speed>8.930000</speed>
</trkpt>
<trkpt lat="21.780731" lon="104.916267">
<ele>93.1</ele>
<time>2011-04-28T10:55:49Z</time>
<desc>lat.=21.780731, lon.=104.916267, Alt.=96.104553m. Speed=33.155998m/h.</desc>
<speed>9.210000</speed>
</trkpt>
<trkpt lat="21.780357" lon="104.916435">
<ele>91.7</ele>
<time>2011-04-28T10:55:54Z</time>
<desc>lat.=21.780357, lon.=104.916435, Alt.=95.290100m. Speed=30.743999m/h.</desc>
<speed>8.540000</speed>
</trkpt>
<trkpt lat="21.779541" lon="104.917023">
<ele>89.1</ele>
<time>2011-04-28T10:56:09Z</time>
<desc>lat.=21.779541, lon.=104.917023, Alt.=96.823303m. Speed=23.148001m/h.</desc>
<speed>6.430000</speed>
</trkpt>
<trkpt lat="21.779177" lon="104.917625">
<ele>85.8</ele>
<time>2011-04-28T10:56:19Z</time>
<desc>lat.=21.779177, lon.=104.917625, Alt.=97.475647m. Speed=28.908001m/h.</desc>
<speed>8.030000</speed>
</trkpt>
<trkpt lat="21.778198" lon="104.918343">
<ele>85.1</ele>
<time>2011-04-28T10:56:39Z</time>
<desc>lat.=21.778198, lon.=104.918343, Alt.=101.407288m. Speed=22.320000m/h.</desc>
<speed>6.200000</speed>
</trkpt>
<trkpt lat="21.777655" lon="104.919044">
<ele>94.0</ele>
<time>2011-04-28T10:56:54Z</time>
<desc>lat.=21.777655, lon.=104.919044, Alt.=106.672913m. Speed=15.948000m/h.</desc>
<speed>4.430000</speed>
</trkpt>
<trkpt lat="21.776121" lon="104.920197">
<ele>95.3</ele>
<time>2011-04-28T10:57:49Z</time>
<desc>lat.=21.776121, lon.=104.920197, Alt.=108.999084m. Speed=20.664000m/h.</desc>
<speed>5.740000</speed>
</trkpt>
<trkpt lat="21.773939" lon="104.921524">
<ele>81.9</ele>
<time>2011-04-28T10:58:29Z</time>
<desc>lat.=21.773939, lon.=104.921524, Alt.=82.376038m. Speed=28.296000m/h.</desc>
<speed>7.860000</speed>
</trkpt>
<trkpt lat="21.773361" lon="104.921410">
<ele>88.5</ele>
<time>2011-04-28T10:58:39Z</time>
<desc>lat.=21.773361, lon.=104.921410, Alt.=76.600647m. Speed=21.851999m/h.</desc>
<speed>6.070000</speed>
</trkpt>
<trkpt lat="21.772860" lon="104.920723">
<ele>83.8</ele>
<time>2011-04-28T10:58:54Z</time>
<desc>lat.=21.772860, lon.=104.920723, Alt.=77.604553m. Speed=16.848000m/h.</desc>
<speed>4.680000</speed>
</trkpt>
<trkpt lat="21.772203" lon="104.920502">
<ele>89.6</ele>
<time>2011-04-28T10:59:09Z</time>
<desc>lat.=21.772203, lon.=104.920502, Alt.=75.762756m. Speed=17.243999m/h.</desc>
<speed>4.790000</speed>
</trkpt>
<trkpt lat="21.771868" lon="104.920570">
<ele>85.0</ele>
<time>2011-04-28T10:59:19Z</time>
<desc>lat.=21.771868, lon.=104.920570, Alt.=77.237366m. Speed=9.072000m/h.</desc>
<speed>2.520000</speed>
</trkpt>
<trkpt lat="21.771400" lon="104.921104">
<ele>88.6</ele>
<time>2011-04-28T10:59:39Z</time>
<desc>lat.=21.771400, lon.=104.921104, Alt.=88.254944m. Speed=12.240000m/h.</desc>
<speed>3.400000</speed>
</trkpt>
<trkpt lat="21.770517" lon="104.920952">
<ele>83.2</ele>
<time>2011-04-28T11:01:09Z</time>
<desc>lat.=21.770517, lon.=104.920952, Alt.=86.127991m. Speed=21.132000m/h.</desc>
<speed>5.870000</speed>
</trkpt>
<trkpt lat="21.769550" lon="104.921524">
<ele>81.0</ele>
<time>2011-04-28T11:01:29Z</time>
<desc>lat.=21.769550, lon.=104.921524, Alt.=81.610413m. Speed=19.403999m/h.</desc>
<speed>5.390000</speed>
</trkpt>
<trkpt lat="21.768053" lon="104.921906">
<ele>107.3</ele>
<time>2011-04-28T11:02:04Z</time>
<desc>lat.=21.768053, lon.=104.921906, Alt.=93.182678m. Speed=9.360000m/h.</desc>
<speed>2.600000</speed>
</trkpt>
<trkpt lat="21.767633" lon="104.922333">
<ele>100.7</ele>
<time>2011-04-28T11:02:19Z</time>
<desc>lat.=21.767633, lon.=104.922333, Alt.=104.749084m. Speed=12.312000m/h.</desc>
<speed>3.420000</speed>
</trkpt>
<trkpt lat="21.765400" lon="104.923317">
<ele>88.8</ele>
<time>2011-04-28T11:03:19Z</time>
<desc>lat.=21.765400, lon.=104.923317, Alt.=99.049866m. Speed=19.440001m/h.</desc>
<speed>5.400000</speed>
</trkpt>
<trkpt lat="21.764437" lon="104.923134">
<ele>91.6</ele>
<time>2011-04-28T11:03:44Z</time>
<desc>lat.=21.764437, lon.=104.923134, Alt.=93.256897m. Speed=12.780000m/h.</desc>
<speed>3.550000</speed>
</trkpt>
<trkpt lat="21.763870" lon="104.923264">
<ele>90.9</ele>
<time>2011-04-28T11:03:59Z</time>
<desc>lat.=21.763870, lon.=104.923264, Alt.=93.167053m. Speed=14.760000m/h.</desc>
<speed>4.100000</speed>
</trkpt>
<trkpt lat="21.763273" lon="104.924164">
<ele>93.5</ele>
<time>2011-04-28T11:04:24Z</time>
<desc>lat.=21.763273, lon.=104.924164, Alt.=107.192444m. Speed=12.492000m/h.</desc>
<speed>3.470000</speed>
</trkpt>
<trkpt lat="21.763203" lon="104.925240">
<ele>93.3</ele>
<time>2011-04-28T11:04:44Z</time>
<desc>lat.=21.763203, lon.=104.925240, Alt.=102.754944m. Speed=17.243999m/h.</desc>
<speed>4.790000</speed>
</trkpt>
<trkpt lat="21.762381" lon="104.928101">
<ele>71.2</ele>
<time>2011-04-28T11:05:19Z</time>
<desc>lat.=21.762381, lon.=104.928101, Alt.=66.557678m. Speed=41.040001m/h.</desc>
<speed>11.400000</speed>
</trkpt>
<trkpt lat="21.761448" lon="104.929459">
<ele>76.1</ele>
<time>2011-04-28T11:05:39Z</time>
<desc>lat.=21.761448, lon.=104.929459, Alt.=57.190948m. Speed=17.136000m/h.</desc>
<speed>4.760000</speed>
</trkpt>
<trkpt lat="21.761456" lon="104.931801">
<ele>78.7</ele>
<time>2011-04-28T11:06:19Z</time>
<desc>lat.=21.761456, lon.=104.931801, Alt.=67.479553m. Speed=8.028000m/h.</desc>
<speed>2.230000</speed>
</trkpt>
<trkpt lat="21.761232" lon="104.932335">
<ele>67.8</ele>
<time>2011-04-28T11:06:34Z</time>
<desc>lat.=21.761232, lon.=104.932335, Alt.=87.915100m. Speed=8.028000m/h.</desc>
<speed>2.230000</speed>
</trkpt>
<trkpt lat="21.760256" lon="104.933708">
<ele>68.2</ele>
<time>2011-04-28T11:07:24Z</time>
<desc>lat.=21.760256, lon.=104.933708, Alt.=111.489319m. Speed=8.820000m/h.</desc>
<speed>2.450000</speed>
</trkpt>
<trkpt lat="21.758913" lon="104.934448">
<ele>69.5</ele>
<time>2011-04-28T11:08:34Z</time>
<desc>lat.=21.758913, lon.=104.934448, Alt.=81.950256m. Speed=19.691999m/h.</desc>
<speed>5.470000</speed>
</trkpt>
<trkpt lat="21.757494" lon="104.935677">
<ele>69.4</ele>
<time>2011-04-28T11:09:09Z</time>
<desc>lat.=21.757494, lon.=104.935677, Alt.=90.108459m. Speed=18.143999m/h.</desc>
<speed>5.040000</speed>
</trkpt>
<trkpt lat="21.755825" lon="104.937912">
<ele>65.6</ele>
<time>2011-04-28T11:09:54Z</time>
<desc>lat.=21.755825, lon.=104.937912, Alt.=103.909241m. Speed=21.959999m/h.</desc>
<speed>6.100000</speed>
</trkpt>
<trkpt lat="21.755100" lon="104.938385">
<ele>61.8</ele>
<time>2011-04-28T11:10:09Z</time>
<desc>lat.=21.755100, lon.=104.938385, Alt.=107.549866m. Speed=20.520000m/h.</desc>
<speed>5.700000</speed>
</trkpt>
<trkpt lat="21.754330" lon="104.939293">
<ele>64.3</ele>
<time>2011-04-28T11:10:29Z</time>
<desc>lat.=21.754330, lon.=104.939293, Alt.=108.063538m. Speed=21.059999m/h.</desc>
<speed>5.850000</speed>
</trkpt>
<trkpt lat="21.753939" lon="104.939438">
<ele>63.6</ele>
<time>2011-04-28T11:10:34Z</time>
<desc>lat.=21.753939, lon.=104.939438, Alt.=105.294006m. Speed=22.572001m/h.</desc>
<speed>6.270000</speed>
</trkpt>
<trkpt lat="21.750402" lon="104.939903">
<ele>74.5</ele>
<time>2011-04-28T11:11:39Z</time>
<desc>lat.=21.750402, lon.=104.939903, Alt.=69.893616m. Speed=22.716000m/h.</desc>
<speed>6.310000</speed>
</trkpt>
<trkpt lat="21.749460" lon="104.939522">
<ele>99.7</ele>
<time>2011-04-28T11:11:59Z</time>
<desc>lat.=21.749460, lon.=104.939522, Alt.=64.331116m. Speed=20.124001m/h.</desc>
<speed>5.590000</speed>
</trkpt>
<trkpt lat="21.748943" lon="104.939056">
<ele>79.5</ele>
<time>2011-04-28T11:12:14Z</time>
<desc>lat.=21.748943, lon.=104.939056, Alt.=63.081573m. Speed=12.168000m/h.</desc>
<speed>3.380000</speed>
</trkpt>
<trkpt lat="21.748720" lon="104.938492">
<ele>74.1</ele>
<time>2011-04-28T11:12:44Z</time>
<desc>lat.=21.748720, lon.=104.938492, Alt.=64.092834m. Speed=2.772000m/h.</desc>
<speed>0.770000</speed>
</trkpt>
<trkpt lat="21.747446" lon="104.937988">
<ele>85.4</ele>
<time>2011-04-28T11:13:14Z</time>
<desc>lat.=21.747446, lon.=104.937988, Alt.=63.864777m. Speed=13.752000m/h.</desc>
<speed>3.820000</speed>
</trkpt>
<trkpt lat="21.746805" lon="104.937889">
<ele>93.1</ele>
<time>2011-04-28T11:13:29Z</time>
<desc>lat.=21.746805, lon.=104.937889, Alt.=64.233459m. Speed=19.836000m/h.</desc>
<speed>5.510000</speed>
</trkpt>
<trkpt lat="21.745970" lon="104.938278">
<ele>79.5</ele>
<time>2011-04-28T11:13:49Z</time>
<desc>lat.=21.745970, lon.=104.938278, Alt.=68.067444m. Speed=16.992001m/h.</desc>
<speed>4.720000</speed>
</trkpt>
<trkpt lat="21.745533" lon="104.939537">
<ele>67.2</ele>
<time>2011-04-28T11:14:19Z</time>
<desc>lat.=21.745533, lon.=104.939537, Alt.=70.061584m. Speed=17.388000m/h.</desc>
<speed>4.830000</speed>
</trkpt>
<trkpt lat="21.745661" lon="104.940132">
<ele>69.3</ele>
<time>2011-04-28T11:14:29Z</time>
<desc>lat.=21.745661, lon.=104.940132, Alt.=75.877991m. Speed=18.360001m/h.</desc>
<speed>5.100000</speed>
</trkpt>
<trkpt lat="21.746098" lon="104.940765">
<ele>71.1</ele>
<time>2011-04-28T11:15:14Z</time>
<desc>lat.=21.746098, lon.=104.940765, Alt.=70.223694m. Speed=0.072000m/h.</desc>
<speed>0.020000</speed>
</trkpt>
<trkpt lat="21.746130" lon="104.941414">
<ele>74.0</ele>
<time>2011-04-28T11:18:54Z</time>
<desc>lat.=21.746130, lon.=104.941414, Alt.=80.022522m. Speed=1.908000m/h.</desc>
<speed>0.530000</speed>
</trkpt>
<trkpt lat="21.746214" lon="104.941315">
<ele>74.5</ele>
<time>2011-04-28T11:19:34Z</time>
<desc>lat.=21.746214, lon.=104.941315, Alt.=79.760803m. Speed=1.656000m/h.</desc>
<speed>0.460000</speed>
</trkpt>
<trkpt lat="21.746090" lon="104.941399">
<ele>73.2</ele>
<time>2011-04-28T11:20:49Z</time>
<desc>lat.=21.746090, lon.=104.941399, Alt.=80.116272m. Speed=1.404000m/h.</desc>
<speed>0.390000</speed>
</trkpt>
<trkpt lat="21.746290" lon="104.941269">
<ele>75.2</ele>
<time>2011-04-28T11:24:44Z</time>
<desc>lat.=21.746290, lon.=104.941269, Alt.=79.450256m. Speed=0.648000m/h.</desc>
<speed>0.180000</speed>
</trkpt>
<trkpt lat="21.746206" lon="104.941353">
<ele>74.7</ele>
<time>2011-04-28T11:25:14Z</time>
<desc>lat.=21.746206, lon.=104.941353, Alt.=79.288147m. Speed=0.432000m/h.</desc>
<speed>0.120000</speed>
</trkpt>
<trkpt lat="21.746077" lon="104.941292">
<ele>72.2</ele>
<time>2011-04-28T11:28:44Z</time>
<desc>lat.=21.746077, lon.=104.941292, Alt.=86.969788m. Speed=0.000000m/h.</desc>
<speed>0.000000</speed>
</trkpt>
<trkpt lat="21.746140" lon="104.941208">
<ele>72.8</ele>
<time>2011-04-28T11:30:04Z</time>
<desc>lat.=21.746140, lon.=104.941208, Alt.=83.465881m. Speed=0.252000m/h.</desc>
<speed>0.070000</speed>
</trkpt>
<trkpt lat="21.746054" lon="104.941299">
<ele>71.9</ele>
<time>2011-04-28T11:30:19Z</time>
<desc>lat.=21.746054, lon.=104.941299, Alt.=84.362366m. Speed=0.504000m/h.</desc>
<speed>0.140000</speed>
</trkpt>
<trkpt lat="21.746229" lon="104.941338">
<ele>74.9</ele>
<time>2011-04-28T11:31:24Z</time>
<desc>lat.=21.746229, lon.=104.941338, Alt.=79.114319m. Speed=0.324000m/h.</desc>
<speed>0.090000</speed>
</trkpt>
</trkseg>
</trk>
</gpx>